Time,TemperatureF,DewpointF,PressureIn,WindDirection,WindDirectionDegrees,WindSpeedMPH,WindSpeedGustMPH,Humidity,HourlyPrecipIn,Conditions,Clouds,dailyrainin,SoftwareType,DateUTC
2013-09-05 00:00:00,83.6,81.0,28.49,West,277,4.0,4.0,92,0.00,,BKN200,0.00,VWS V14.01,2013-09-05 04:00:00,
2013-09-05 00:01:00,83.6,81.0,28.49,West,272,2.0,4.0,92,0.00,,BKN200,0.00,VWS V14.01,2013-09-05 04:01:00,
2013-09-05 00:02:00,83.6,81.0,28.49,West,272,1.0,4.0,92,0.00,,FEW150,0.00,VWS V14.01,2013-09-05 04:02:00,
2013-09-05 00:03:00,83.6,81.0,28.87,West,272,2.0,3.0,92,0.00,,FEW150,0.00,VWS V14.01,2013-09-05 04:03:00,
2013-09-05 00:04:00,83.6,81.0,28.87,West,272,1.0,2.0,92,0.00,,FEW150,0.00,VWS V14.01,2013-09-05 04:04:00,
2013-09-05 00:05:00,83.6,81.0,28.87,West,271,1.0,4.0,92,0.00,,FEW150,0.00,VWS V14.01,2013-09-05 04:05:00,
2013-09-05 00:06:00,83.6,81.0,28.91,West,271,6.0,7.0,92,0.00,,BKN200,0.00,VWS V14.01,2013-09-05 04:06:00,
2013-09-05 00:07:00,83.6,81.0,28.91,West,271,6.0,7.0,92,0.00,,FEW150,0.00,VWS V14.01,2013-09-05 04:07:00,
2013-09-05 00:08:00,83.4,80.8,28.91,NW,317,3.0,6.0,92,0.00,,FEW150,0.00,VWS V14.01,2013-09-05 04:08:00,
2013-09-05 00:09:00,83.4,80.8,28.91,NW,317,2.0,3.0,92,0.00,,FEW150,0.00,VWS V14.01,2013-09-05 04:09:00,
2013-09-05 00:10:00,83.4,80.8,28.86,WNW,302,1.0,2.0,92,0.00,,FEW150,0.00,VWS V14.01,2013-09-05 04:10:00,
2013-09-05 00:11:00,83.4,80.8,28.86,West,266,2.0,4.0,92,0.00,,BKN200,0.00,VWS V14.01,2013-09-05 04:11:00,
2013-09-05 00:12:00,83.4,80.8,28.86,West,266,2.0,4.0,92,0.00,,FEW150,0.00,VWS V14.01,2013-09-05 04:12:00,
2013-09-05 00:13:00,83.4,81.2,28.81,West,266,3.0,3.0,93,0.00,,FEW150,0.00,VWS V14.01,2013-09-05 04:13:00,
2013-09-05 00:14:00,83.2,81.0,28.81,NNW,333,3.0,4.0,93,0.00,,FEW150,0.00,VWS V14.01,2013-09-05 04:14:00,
2013-09-05 00:15:00,83.2,81.0,28.81,NW,325,0.0,3.0,93,0.00,,FEW150,0.00,VWS V14.01,2013-09-05 04:15:00,
2013-09-05 00:16:00,83.0,80.8,28.88,WNW,282,3.0,5.0,93,0.00,,BKN200,0.00,VWS V14.01,2013-09-05 04:16:00,
2013-09-05 00:17:00,83.0,80.8,28.88,WNW,282,3.0,5.0,93,0.00,,FEW150,0.00,VWS V14.01,2013-09-05 04:17:00,
2013-09-05 00:18:00,83.0,80.8,28.88,NW,304,3.0,6.0,93,0.00,,FEW150,0.00,VWS V14.01,2013-09-05 04:18:00,
2013-09-05 00:19:00,83.0,80.8,28.88,NW,304,1.0,3.0,93,0.00,,FEW150,0.00,VWS V14.01,2013-09-05 04:19:00,
2013-09-05 00:20:00,82.8,80.6,28.97,NW,306,2.0,3.0,93,0.00,,FEW150,0.00,VWS V14.01,2013-09-05 04:20:00,
2013-09-05 00:21:00,82.8,80.6,28.97,West,273,3.0,4.0,93,0.00,,BKN200,0.00,VWS V14.01,2013-09-05 04:21:00,
2013-09-05 00:23:00,82.8,80.6,28.88,WNW,296,3.0,3.0,93,0.00,,FEW150,0.00,VWS V14.01,2013-09-05 04:23:00,
2013-09-05 00:24:00,82.6,80.4,28.88,NW,305,4.0,5.0,93,0.00,,FEW150,0.00,VWS V14.01,2013-09-05 04:24:00,
2013-09-05 00:25:00,82.6,80.4,28.88,North,360,6.0,9.0,93,0.00,,FEW150,0.00,VWS V14.01,2013-09-05 04:25:00,
2013-09-05 00:26:00,82.0,79.4,28.88,NNW,335,7.0,12.0,92,0.00,,BKN200,0.00,VWS V14.01,2013-09-05 04:26:00,
2013-09-05 00:27:00,82.0,79.4,28.88,NNW,335,7.0,12.0,92,0.00,,FEW150,0.00,VWS V14.01,2013-09-05 04:27:00,
2013-09-05 00:28:00,81.6,79.1,28.88,NW,315,6.0,9.0,92,0.00,,FEW150,0.00,VWS V14.01,2013-09-05 04:28:00,
2013-09-05 00:29:00,81.4,78.9,28.88,West,279,11.0,11.0,92,0.00,,FEW150,0.00,VWS V14.01,2013-09-05 04:29:00,
2013-09-05 00:30:00,81.2,78.7,28.88,WNW,294,2.0,13.0,92,0.00,,FEW150,0.00,VWS V14.01,2013-09-05 04:30:00,
2013-09-05 00:31:00,80.7,78.2,28.88,NNW,340,5.0,7.0,92,0.00,,BKN200,0.00,VWS V14.01,2013-09-05 04:31:00,
2013-09-05 00:32:00,80.7,78.2,28.88,NNW,340,5.0,7.0,92,0.00,,FEW150,0.00,VWS V14.01,2013-09-05 04:32:00,
2013-09-05 00:33:00,80.7,78.2,28.88,NNW,332,5.0,9.0,92,0.00,,FEW150,0.00,VWS V14.01,2013-09-05 04:33:00,
2013-09-05 00:34:00,80.5,78.0,28.77,ENE,57,2.0,5.0,92,0.00,,FEW150,0.00,VWS V14.01,2013-09-05 04:34:00,
2013-09-05 00:35:00,80.3,77.8,28.77,WSW,254,4.0,6.0,92,0.00,,FEW150,0.00,VWS V14.01,2013-09-05 04:35:00,
2013-09-05 00:36:00,80.3,77.8,28.77,WNW,282,2.0,6.0,92,0.00,,,0.00,VWS V14.01,2013-09-05 04:36:00,
2013-09-05 00:37:00,80.3,77.8,28.77,WNW,282,2.0,6.0,92,0.00,,FEW150,0.00,VWS V14.01,2013-09-05 04:37:00,
2013-09-05 00:38:00,80.1,77.6,28.77,WNW,300,5.0,7.0,92,0.00,,FEW150,0.00,VWS V14.01,2013-09-05 04:38:00,
2013-09-05 00:39:00,80.1,77.6,28.77,WNW,282,4.0,6.0,92,0.00,,FEW150,0.00,VWS V14.01,2013-09-05 04:39:00,
2013-09-05 00:40:00,79.9,77.4,28.77,North,355,5.0,5.0,92,0.00,,FEW150,0.00,VWS V14.01,2013-09-05 04:40:00,
2013-09-05 00:41:00,79.9,77.4,28.77,NW,315,3.0,6.0,92,0.00,,,0.00,VWS V14.01,2013-09-05 04:41:00,
2013-09-05 00:42:00,79.9,77.4,28.77,NW,315,3.0,6.0,92,0.00,,FEW150,0.00,VWS V14.01,2013-09-05 04:42:00,
2013-09-05 00:43:00,79.8,77.3,28.77,WNW,294,4.0,9.0,92,0.00,,FEW150,0.00,VWS V14.01,2013-09-05 04:43:00,
2013-09-05 00:44:00,79.8,76.9,28.77,NNW,328,6.0,8.0,91,0.00,,FEW150,0.00,VWS V14.01,2013-09-05 04:44:00,
2013-09-05 00:45:00,79.6,76.8,28.77,West,275,5.0,9.0,91,0.00,,FEW150,0.00,VWS V14.01,2013-09-05 04:45:00,
2013-09-05 00:46:00,79.6,76.8,28.77,West,259,5.0,7.0,91,0.00,,,0.00,VWS V14.01,2013-09-05 04:46:00,
2013-09-05 00:47:00,79.6,76.8,28.77,West,259,5.0,7.0,91,0.00,,FEW150,0.00,VWS V14.01,2013-09-05 04:47:00,
2013-09-05 00:48:00,79.4,76.6,28.77,WSW,257,5.0,5.0,91,0.00,,FEW150,0.00,VWS V14.01,2013-09-05 04:48:00,
2013-09-05 00:49:00,79.4,76.6,28.77,West,260,12.0,12.0,91,0.00,,FEW150,0.00,VWS V14.01,2013-09-05 04:49:00,
2013-09-05 00:50:00,79.4,76.6,28.77,WNW,289,9.0,12.0,91,0.00,,FEW150,0.00,VWS V14.01,2013-09-05 04:50:00,
2013-09-05 00:51:00,79.2,76.3,28.77,NW,307,2.0,5.0,91,0.00,,,0.00,VWS V14.01,2013-09-05 04:51:00,
2013-09-05 00:52:00,79.2,76.3,28.77,NW,307,2.0,5.0,91,0.00,,FEW150,0.00,VWS V14.01,2013-09-05 04:52:00,
2013-09-05 00:53:00,79.2,76.3,28.77,WNW,286,5.0,11.0,91,0.00,,FEW150,0.00,VWS V14.01,2013-09-05 04:53:00,
2013-09-05 00:54:00,79.2,76.3,28.77,NW,317,14.0,14.0,91,0.00,,FEW150,0.00,VWS V14.01,2013-09-05 04:54:00,
2013-09-05 00:55:00,79.0,75.8,28.77,NNW,327,4.0,14.0,90,0.00,,FEW150,0.00,VWS V14.01,2013-09-05 04:55:00,
2013-09-05 00:56:00,78.8,75.9,28.77,WNW,298,5.0,11.0,91,0.00,,,0.00,VWS V14.01,2013-09-05 04:56:00,
2013-09-05 00:57:00,78.8,75.9,28.77,NNE,13,4.0,11.0,91,0.00,,FEW150,0.00,VWS V14.01,2013-09-05 04:57:00,
2013-09-05 00:58:00,78.8,75.6,28.94,West,269,3.0,5.0,90,0.00,,FEW150,0.00,VWS V14.01,2013-09-05 04:58:00,
2013-09-05 00:59:00,78.8,75.6,28.94,WNW,298,3.0,7.0,90,0.00,,FEW150,0.00,VWS V14.01,2013-09-05 04:59:00,
2013-09-05 01:00:00,78.6,75.4,28.94,NNW,348,2.0,4.0,90,0.00,,FEW150,0.00,VWS V14.01,2013-09-05 05:00:00,
2013-09-05 01:01:00,78.6,75.4,28.94,NNW,348,5.0,7.0,90,0.00,,,0.00,VWS V14.01,2013-09-05 05:01:00,
2013-09-05 01:02:00,78.6,75.4,28.94,NNW,348,5.0,7.0,90,0.00,,FEW150,0.00,VWS V14.01,2013-09-05 05:02:00,
2013-09-05 01:03:00,78.6,75.4,28.92,WSW,249,3.0,9.0,90,0.00,,FEW150,0.00,VWS V14.01,2013-09-05 05:03:00,
2013-09-05 01:04:00,78.5,75.3,28.92,NW,318,2.0,9.0,90,0.00,,FEW150,0.00,VWS V14.01,2013-09-05 05:04:00,
2013-09-05 01:05:00,78.5,75.3,28.92,North,355,2.0,4.0,90,0.00,,FEW150,0.00,VWS V14.01,2013-09-05 05:05:00,
2013-09-05 01:06:00,78.5,75.3,28.90,NNW,335,2.0,5.0,90,0.00,,,0.00,VWS V14.01,2013-09-05 05:06:00,
2013-09-05 01:07:00,78.5,75.3,28.90,NNW,335,2.0,5.0,90,0.00,,FEW150,0.00,VWS V14.01,2013-09-05 05:07:00,
2013-09-05 01:08:00,78.5,75.3,28.90,NNW,329,1.0,6.0,90,0.00,,FEW150,0.00,VWS V14.01,2013-09-05 05:08:00,
2013-09-05 01:09:00,78.3,75.1,28.89,NNW,344,3.0,3.0,90,0.00,,FEW150,0.00,VWS V14.01,2013-09-05 05:09:00,
2013-09-05 01:10:00,78.3,75.1,28.90,WNW,299,4.0,4.0,90,0.00,,FEW150,0.00,VWS V14.01,2013-09-05 05:10:00,
2013-09-05 01:11:00,78.3,75.1,28.89,NNW,328,2.0,4.0,90,0.00,,,0.00,VWS V14.01,2013-09-05 05:11:00,
2013-09-05 01:12:00,78.3,75.1,28.89,NNW,328,2.0,4.0,90,0.00,,FEW150,0.00,VWS V14.01,2013-09-05 05:12:00,
2013-09-05 01:13:00,78.3,75.1,28.89,NNE,26,5.0,6.0,90,0.00,,FEW150,0.00,VWS V14.01,2013-09-05 05:13:00,
2013-09-05 01:14:00,78.3,75.1,28.89,NNE,28,3.0,5.0,90,0.00,,FEW150,0.00,VWS V14.01,2013-09-05 05:14:00,
2013-09-05 01:15:00,78.1,74.9,28.89,WNW,286,4.0,4.0,90,0.00,,FEW150,0.00,VWS V14.01,2013-09-05 05:15:00,
2013-09-05 01:16:00,78.1,74.9,28.89,NW,308,6.0,6.0,90,0.00,,,0.00,VWS V14.01,2013-09-05 05:16:00,
2013-09-05 01:17:00,78.1,74.9,28.89,NW,308,6.0,6.0,90,0.00,,FEW150,0.00,VWS V14.01,2013-09-05 05:17:00,
2013-09-05 01:18:00,78.1,74.9,28.79,WNW,289,2.0,6.0,90,0.00,,FEW150,0.00,VWS V14.01,2013-09-05 05:18:00,
2013-09-05 01:19:00,78.1,74.9,28.79,West,263,1.0,4.0,90,0.00,,FEW150,0.00,VWS V14.01,2013-09-05 05:19:00,
2013-09-05 01:20:00,78.1,74.9,28.89,WNW,291,2.0,2.0,90,0.00,,FEW150,0.00,VWS V14.01,2013-09-05 05:20:00,
2013-09-05 01:21:00,78.3,75.1,28.89,WNW,292,3.0,7.0,90,0.00,,,0.00,VWS V14.01,2013-09-05 05:21:00,
2013-09-05 01:22:00,78.3,75.1,28.89,WNW,291,3.0,7.0,90,0.00,,FEW150,0.00,VWS V14.01,2013-09-05 05:22:00,
2013-09-05 01:23:00,78.3,74.8,28.81,WNW,297,3.0,6.0,89,0.00,,FEW150,0.00,VWS V14.01,2013-09-05 05:23:00,
2013-09-05 01:24:00,78.3,74.8,28.81,West,267,8.0,8.0,89,0.00,,FEW150,0.00,VWS V14.01,2013-09-05 05:24:00,
2013-09-05 01:25:00,78.3,74.8,28.81,West,267,1.0,8.0,89,0.00,,FEW150,0.00,VWS V14.01,2013-09-05 05:25:00,
2013-09-05 01:26:00,78.3,74.8,28.81,WNW,286,3.0,5.0,89,0.00,,,0.00,VWS V14.01,2013-09-05 05:26:00,
2013-09-05 01:27:00,78.3,74.8,28.81,NW,311,4.0,5.0,89,0.00,,FEW150,0.00,VWS V14.01,2013-09-05 05:27:00,
2013-09-05 01:28:00,78.5,75.0,28.81,WNW,296,3.0,8.0,89,0.00,,FEW150,0.00,VWS V14.01,2013-09-05 05:28:00,
2013-09-05 01:29:00,78.5,75.0,28.81,WSW,254,8.0,8.0,89,0.00,,FEW150,0.00,VWS V14.01,2013-09-05 05:29:00,
2013-09-05 01:30:00,78.5,75.0,28.81,NW,316,3.0,8.0,89,0.00,,FEW150,0.00,VWS V14.01,2013-09-05 05:30:00,
2013-09-05 01:31:00,78.6,75.1,28.81,West,281,2.0,2.0,89,0.00,,,0.00,VWS V14.01,2013-09-05 05:31:00,
2013-09-05 01:32:00,78.6,75.1,28.81,West,281,2.0,2.0,89,0.00,,FEW150,0.00,VWS V14.01,2013-09-05 05:32:00,
2013-09-05 01:33:00,78.6,75.1,28.81,SW,234,2.0,4.0,89,0.00,,FEW150,0.00,VWS V14.01,2013-09-05 05:33:00,
2013-09-05 01:34:00,78.6,75.1,28.81,WSW,244,3.0,3.0,89,0.00,,FEW150,0.00,VWS V14.01,2013-09-05 05:34:00,
2013-09-05 01:35:00,78.6,74.8,28.81,WNW,289,3.0,6.0,88,0.00,,FEW150,0.00,VWS V14.01,2013-09-05 05:35:00,
2013-09-05 01:36:00,78.8,74.9,28.81,West,281,3.0,4.0,88,0.00,,-RA,0.00,VWS V14.01,2013-09-05 05:36:00,
2013-09-05 01:37:00,78.8,74.9,28.81,West,281,3.0,4.0,88,0.00,,FEW150,0.00,VWS V14.01,2013-09-05 05:37:00,
2013-09-05 01:38:00,78.8,74.9,28.81,West,281,1.0,4.0,88,0.00,,FEW150,0.00,VWS V14.01,2013-09-05 05:38:00,
2013-09-05 01:39:00,78.8,74.9,28.81,NNW,343,4.0,4.0,88,0.00,,FEW150,0.00,VWS V14.01,2013-09-05 05:39:00,
2013-09-05 01:40:00,78.8,74.9,28.81,WNW,284,2.0,4.0,88,0.00,,FEW150,0.00,VWS V14.01,2013-09-05 05:40:00,
2013-09-05 01:41:00,79.0,75.2,28.81,WNW,298,2.0,2.0,88,0.00,,-RA,0.00,VWS V14.01,2013-09-05 05:41:00,
2013-09-05 01:42:00,79.0,75.2,28.81,WNW,298,3.0,3.0,88,0.00,,FEW150,0.00,VWS V14.01,2013-09-05 05:42:00,
2013-09-05 01:43:00,79.0,75.2,28.81,WNW,298,1.0,3.0,88,0.00,,FEW150,0.00,VWS V14.01,2013-09-05 05:43:00,
2013-09-05 01:44:00,79.0,75.2,28.81,NW,309,0.0,2.0,88,0.00,,FEW150,0.00,VWS V14.01,2013-09-05 05:44:00,
2013-09-05 01:45:00,79.0,75.2,28.81,NW,309,3.0,4.0,88,0.00,,FEW150,0.00,VWS V14.01,2013-09-05 05:45:00,
2013-09-05 01:46:00,79.0,75.2,28.81,West,279,1.0,4.0,88,0.00,,-RA,0.00,VWS V14.01,2013-09-05 05:46:00,
2013-09-05 01:47:00,79.0,75.2,28.81,West,280,2.0,4.0,88,0.00,,FEW150,0.00,VWS V14.01,2013-09-05 05:47:00,
2013-09-05 01:48:00,79.0,74.8,28.81,WNW,293,3.0,3.0,87,0.00,,FEW150,0.00,VWS V14.01,2013-09-05 05:48:00,
2013-09-05 01:49:00,79.0,74.8,28.82,WNW,292,0.0,3.0,87,0.00,,FEW150,0.00,VWS V14.01,2013-09-05 05:49:00,
2013-09-05 01:50:00,79.0,74.8,28.82,WNW,292,3.0,3.0,87,0.00,,FEW150,0.00,VWS V14.01,2013-09-05 05:50:00,
2013-09-05 01:51:00,79.2,75.0,28.78,West,269,1.0,5.0,87,0.00,,-RA,0.00,VWS V14.01,2013-09-05 05:51:00,
2013-09-05 01:52:00,79.2,75.0,28.78,West,269,0.0,5.0,87,0.00,,FEW150,0.00,VWS V14.01,2013-09-05 05:52:00,
2013-09-05 01:53:00,79.2,75.0,28.78,West,269,0.0,1.0,87,0.00,,FEW150,0.00,VWS V14.01,2013-09-05 05:53:00,
2013-09-05 01:54:00,79.2,75.0,28.78,West,269,0.0,1.0,87,0.00,,FEW150,0.00,VWS V14.01,2013-09-05 05:54:00,
2013-09-05 01:55:00,79.2,75.0,28.78,West,269,1.0,1.0,87,0.00,,FEW150,0.00,VWS V14.01,2013-09-05 05:55:00,
2013-09-05 01:56:00,79.2,75.0,28.78,West,269,0.0,0.0,87,0.00,,-RA,0.00,VWS V14.01,2013-09-05 05:56:00,
2013-09-05 01:57:00,79.2,75.0,28.78,West,269,0.0,0.0,87,0.00,,FEW150,0.00,VWS V14.01,2013-09-05 05:57:00,
2013-09-05 01:58:00,79.2,75.0,28.78,West,269,2.0,2.0,87,0.00,,FEW150,0.00,VWS V14.01,2013-09-05 05:58:00,
2013-09-05 01:59:00,79.2,75.0,29.04,West,269,1.0,3.0,87,0.00,,FEW150,0.00,VWS V14.01,2013-09-05 05:59:00,
2013-09-05 02:00:00,79.4,75.5,29.04,West,269,2.0,3.0,88,0.00,,FEW150,0.00,VWS V14.01,2013-09-05 06:00:00,
2013-09-05 02:01:00,79.4,75.5,29.04,West,269,0.0,2.0,88,0.00,,-RA,0.00,VWS V14.01,2013-09-05 06:01:00,
2013-09-05 02:02:00,79.4,75.5,29.04,West,269,0.0,2.0,88,0.00,,FEW150,0.00,VWS V14.01,2013-09-05 06:02:00,
2013-09-05 02:03:00,79.4,75.5,29.04,West,269,0.0,1.0,88,0.00,,FEW150,0.00,VWS V14.01,2013-09-05 06:03:00,
2013-09-05 02:05:00,79.4,75.5,29.04,West,269,0.0,1.0,88,0.00,,FEW150,0.00,VWS V14.01,2013-09-05 06:05:00,
2013-09-05 02:06:00,79.4,75.5,29.04,West,269,0.0,0.0,88,0.00,,-RA,0.00,VWS V14.01,2013-09-05 06:06:00,
2013-09-05 02:07:00,79.4,75.5,29.04,West,269,0.0,0.0,88,0.00,,FEW150,0.00,VWS V14.01,2013-09-05 06:07:00,
2013-09-05 02:08:00,79.4,75.5,29.04,West,269,0.0,0.0,88,0.00,,FEW150,0.00,VWS V14.01,2013-09-05 06:08:00,
2013-09-05 02:09:00,79.4,75.5,29.04,West,269,0.0,0.0,88,0.00,,FEW150,0.00,VWS V14.01,2013-09-05 06:09:00,
2013-09-05 02:10:00,79.4,75.5,29.04,West,269,0.0,0.0,88,0.00,,FEW150,0.00,VWS V14.01,2013-09-05 06:10:00,
2013-09-05 02:11:00,79.4,75.5,29.10,West,269,0.0,0.0,88,0.00,,-RA,0.00,VWS V14.01,2013-09-05 06:11:00,
2013-09-05 02:12:00,79.4,75.5,29.10,West,269,0.0,0.0,88,0.00,,FEW150,0.00,VWS V14.01,2013-09-05 06:12:00,
2013-09-05 02:13:00,79.4,75.5,29.10,West,269,0.0,0.0,88,0.00,,FEW150,0.00,VWS V14.01,2013-09-05 06:13:00,
2013-09-05 02:14:00,79.4,75.5,28.98,West,269,0.0,0.0,88,0.00,,FEW150,0.00,VWS V14.01,2013-09-05 06:14:00,
2013-09-05 02:15:00,79.4,75.5,28.98,West,269,0.0,0.0,88,0.00,,FEW150,0.00,VWS V14.01,2013-09-05 06:15:00,
2013-09-05 02:16:00,79.4,75.5,28.98,West,269,0.0,0.0,88,0.00,,-RA,0.00,VWS V14.01,2013-09-05 06:16:00,
2013-09-05 02:17:00,79.4,75.5,28.98,West,269,0.0,0.0,88,0.00,,FEW150,0.00,VWS V14.01,2013-09-05 06:17:00,
2013-09-05 02:18:00,79.4,75.5,28.80,West,269,0.0,0.0,88,0.00,,FEW150,0.00,VWS V14.01,2013-09-05 06:18:00,
2013-09-05 02:19:00,79.4,75.5,28.80,West,269,1.0,2.0,88,0.00,,FEW150,0.00,VWS V14.01,2013-09-05 06:19:00,
2013-09-05 02:20:00,79.6,75.7,28.80,West,269,1.0,1.0,88,0.00,,FEW150,0.00,VWS V14.01,2013-09-05 06:20:00,
2013-09-05 02:21:00,79.6,76.1,28.92,West,269,0.0,1.0,89,0.00,,-RA,0.00,VWS V14.01,2013-09-05 06:21:00,
2013-09-05 02:22:00,79.6,76.1,28.92,West,269,0.0,1.0,89,0.00,,FEW150,0.00,VWS V14.01,2013-09-05 06:22:00,
2013-09-05 02:23:00,79.6,76.1,28.92,West,269,0.0,0.0,89,0.00,,FEW150,0.00,VWS V14.01,2013-09-05 06:23:00,
2013-09-05 02:24:00,79.6,76.1,28.92,West,269,1.0,1.0,89,0.00,,FEW150,0.00,VWS V14.01,2013-09-05 06:24:00,
2013-09-05 02:25:00,79.6,76.1,28.92,West,269,1.0,2.0,89,0.00,,FEW150,0.00,VWS V14.01,2013-09-05 06:25:00,
2013-09-05 02:26:00,79.6,76.1,28.92,West,269,1.0,1.0,89,0.00,,-RA,0.00,VWS V14.01,2013-09-05 06:26:00,
2013-09-05 02:27:00,79.6,76.1,28.92,West,269,1.0,1.0,89,0.00,,FEW150,0.00,VWS V14.01,2013-09-05 06:27:00,
2013-09-05 02:28:00,79.6,76.1,28.94,West,269,0.0,1.0,89,0.00,,FEW150,0.00,VWS V14.01,2013-09-05 06:28:00,
2013-09-05 02:29:00,79.6,76.1,28.94,West,269,0.0,1.0,89,0.00,,FEW150,0.00,VWS V14.01,2013-09-05 06:29:00,
2013-09-05 02:30:00,79.6,76.1,28.94,West,269,2.0,2.0,89,0.00,,FEW150,0.00,VWS V14.01,2013-09-05 06:30:00,
2013-09-05 02:31:00,79.6,76.1,28.94,West,269,0.0,2.0,89,0.00,,-RA,0.00,VWS V14.01,2013-09-05 06:31:00,
2013-09-05 02:32:00,79.6,76.1,28.94,West,269,0.0,2.0,89,0.00,,FEW150,0.00,VWS V14.01,2013-09-05 06:32:00,
2013-09-05 02:33:00,79.6,76.1,28.94,West,269,1.0,1.0,89,0.00,,FEW150,0.00,VWS V14.01,2013-09-05 06:33:00,
2013-09-05 02:34:00,79.8,76.3,28.94,West,269,0.0,1.0,89,0.00,,FEW150,0.00,VWS V14.01,2013-09-05 06:34:00,
2013-09-05 02:35:00,79.8,76.3,28.94,West,269,1.0,1.0,89,0.00,,FEW150,0.00,VWS V14.01,2013-09-05 06:35:00,
2013-09-05 02:36:00,79.8,76.3,28.94,West,269,2.0,2.0,89,0.00,,FEW060,0.00,VWS V14.01,2013-09-05 06:36:00,
2013-09-05 02:37:00,79.8,76.3,28.94,West,269,2.0,2.0,89,0.00,,FEW150,0.00,VWS V14.01,2013-09-05 06:37:00,
2013-09-05 02:38:00,79.8,76.3,28.94,West,269,1.0,2.0,89,0.00,,FEW150,0.00,VWS V14.01,2013-09-05 06:38:00,
2013-09-05 02:39:00,79.8,76.3,28.94,West,269,2.0,2.0,89,0.00,,FEW150,0.00,VWS V14.01,2013-09-05 06:39:00,
2013-09-05 02:40:00,79.8,76.3,28.94,West,269,2.0,2.0,89,0.00,,FEW150,0.00,VWS V14.01,2013-09-05 06:40:00,
2013-09-05 02:41:00,79.8,76.6,28.94,West,269,0.0,1.0,90,0.00,,FEW060,0.00,VWS V14.01,2013-09-05 06:41:00,
2013-09-05 02:42:00,79.8,76.6,28.94,West,269,0.0,1.0,90,0.00,,FEW150,0.00,VWS V14.01,2013-09-05 06:42:00,
2013-09-05 02:43:00,79.8,76.6,28.94,West,269,1.0,1.0,90,0.00,,FEW150,0.00,VWS V14.01,2013-09-05 06:43:00,
2013-09-05 02:44:00,79.8,76.6,28.94,West,269,2.0,2.0,90,0.00,,FEW150,0.00,VWS V14.01,2013-09-05 06:44:00,
2013-09-05 02:45:00,79.8,76.6,29.62,West,269,1.0,2.0,90,0.00,,FEW150,0.00,VWS V14.01,2013-09-05 06:45:00,
2013-09-05 02:46:00,79.8,76.6,29.62,West,269,2.0,2.0,90,0.00,,FEW060,0.00,VWS V14.01,2013-09-05 06:46:00,
2013-09-05 02:47:00,79.8,76.6,29.62,West,269,3.0,3.0,90,0.00,,FEW150,0.00,VWS V14.01,2013-09-05 06:47:00,
2013-09-05 02:48:00,79.8,76.6,29.62,West,269,2.0,3.0,90,0.00,,FEW150,0.00,VWS V14.01,2013-09-05 06:48:00,
2013-09-05 02:49:00,79.8,76.6,29.62,West,269,0.0,2.0,90,0.00,,FEW150,0.00,VWS V14.01,2013-09-05 06:49:00,
2013-09-05 02:50:00,79.8,76.6,29.62,West,269,0.0,0.0,90,0.00,,FEW150,0.00,VWS V14.01,2013-09-05 06:50:00,
2013-09-05 02:51:00,79.8,76.6,29.40,West,269,1.0,2.0,90,0.00,,FEW060,0.00,VWS V14.01,2013-09-05 06:51:00,
2013-09-05 02:52:00,79.8,76.6,29.40,West,269,0.0,2.0,90,0.00,,FEW150,0.00,VWS V14.01,2013-09-05 06:52:00,
2013-09-05 02:53:00,79.8,76.6,29.45,West,269,1.0,1.0,90,0.00,,FEW150,0.00,VWS V14.01,2013-09-05 06:53:00,
2013-09-05 02:54:00,79.8,76.6,29.45,West,269,0.0,1.0,90,0.00,,FEW150,0.00,VWS V14.01,2013-09-05 06:54:00,
2013-09-05 02:55:00,79.8,76.6,29.45,West,269,0.0,1.0,90,0.00,,FEW150,0.00,VWS V14.01,2013-09-05 06:55:00,
2013-09-05 02:56:00,79.8,76.6,29.50,West,269,0.0,0.0,90,0.00,,FEW060,0.00,VWS V14.01,2013-09-05 06:56:00,
2013-09-05 02:57:00,79.8,76.6,29.50,West,269,1.0,1.0,90,0.00,,FEW150,0.00,VWS V14.01,2013-09-05 06:57:00,
2013-09-05 02:58:00,79.8,76.6,29.50,West,269,1.0,1.0,90,0.00,,FEW150,0.00,VWS V14.01,2013-09-05 06:58:00,
2013-09-05 02:59:00,79.8,76.6,29.50,West,269,0.0,2.0,90,0.00,,FEW150,0.00,VWS V14.01,2013-09-05 06:59:00,
2013-09-05 03:00:00,79.8,76.6,29.53,West,269,0.0,0.0,90,0.00,,FEW150,0.00,VWS V14.01,2013-09-05 07:00:00,
2013-09-05 03:01:00,79.8,76.6,29.53,West,269,0.0,0.0,90,0.00,,FEW060,0.00,VWS V14.01,2013-09-05 07:01:00,
2013-09-05 03:02:00,79.8,76.6,29.53,West,269,0.0,0.0,90,0.00,,FEW150,0.00,VWS V14.01,2013-09-05 07:02:00,
2013-09-05 03:03:00,79.8,76.6,29.53,West,269,0.0,0.0,90,0.00,,FEW150,0.00,VWS V14.01,2013-09-05 07:03:00,
2013-09-05 03:04:00,79.8,76.6,29.53,West,269,0.0,1.0,90,0.00,,FEW150,0.00,VWS V14.01,2013-09-05 07:04:00,
2013-09-05 03:05:00,79.8,76.6,29.24,West,269,0.0,0.0,90,0.00,,FEW150,0.00,VWS V14.01,2013-09-05 07:05:00,
2013-09-05 03:06:00,79.8,76.6,29.24,West,269,2.0,2.0,90,0.00,,FEW060,0.00,VWS V14.01,2013-09-05 07:06:00,
2013-09-05 03:07:00,79.8,76.6,29.24,West,269,2.0,2.0,90,0.00,,FEW150,0.00,VWS V14.01,2013-09-05 07:07:00,
2013-09-05 03:08:00,79.8,76.6,29.24,West,269,1.0,2.0,90,0.00,,FEW150,0.00,VWS V14.01,2013-09-05 07:08:00,
2013-09-05 03:09:00,79.8,76.6,29.24,West,269,2.0,3.0,90,0.00,,FEW150,0.00,VWS V14.01,2013-09-05 07:09:00,
2013-09-05 03:10:00,79.8,76.6,29.24,West,269,2.0,2.0,90,0.00,,FEW150,0.00,VWS V14.01,2013-09-05 07:10:00,
2013-09-05 03:11:00,79.8,76.6,29.06,West,273,3.0,3.0,90,0.00,,FEW060,0.00,VWS V14.01,2013-09-05 07:11:00,
2013-09-05 03:12:00,79.8,76.6,29.06,NW,323,2.0,3.0,90,0.00,,FEW150,0.00,VWS V14.01,2013-09-05 07:12:00,
2013-09-05 03:13:00,79.8,76.6,29.06,NW,323,2.0,3.0,90,0.00,,FEW150,0.00,VWS V14.01,2013-09-05 07:13:00,
2013-09-05 03:14:00,79.8,76.6,29.06,NW,323,1.0,2.0,90,0.00,,FEW150,0.00,VWS V14.01,2013-09-05 07:14:00,
2013-09-05 03:15:00,79.6,76.4,29.06,NW,323,0.0,1.0,90,0.00,,FEW150,0.00,VWS V14.01,2013-09-05 07:15:00,
2013-09-05 03:16:00,79.6,76.4,29.42,NW,323,0.0,0.0,90,0.00,,FEW060,0.00,VWS V14.01,2013-09-05 07:16:00,
2013-09-05 03:17:00,79.6,76.4,29.42,NW,323,0.0,0.0,90,0.00,,FEW150,0.00,VWS V14.01,2013-09-05 07:17:00,
2013-09-05 03:18:00,79.6,76.4,29.42,NW,323,0.0,0.0,90,0.00,,FEW150,0.00,VWS V14.01,2013-09-05 07:18:00,
2013-09-05 03:19:00,79.6,76.4,29.42,NW,323,0.0,0.0,90,0.00,,FEW150,0.00,VWS V14.01,2013-09-05 07:19:00,
2013-09-05 03:20:00,79.6,76.4,29.42,NW,323,0.0,0.0,90,0.00,,FEW150,0.00,VWS V14.01,2013-09-05 07:20:00,
2013-09-05 03:21:00,79.4,76.2,29.42,NW,323,0.0,0.0,90,0.00,,FEW060,0.00,VWS V14.01,2013-09-05 07:21:00,
2013-09-05 03:22:00,79.4,76.2,29.42,NW,323,1.0,1.0,90,0.00,,FEW150,0.00,VWS V14.01,2013-09-05 07:22:00,
2013-09-05 03:23:00,79.4,76.2,29.42,NW,323,1.0,1.0,90,0.00,,FEW150,0.00,VWS V14.01,2013-09-05 07:23:00,
2013-09-05 03:24:00,79.4,76.2,29.42,NW,323,0.0,1.0,90,0.00,,FEW150,0.00,VWS V14.01,2013-09-05 07:24:00,
2013-09-05 03:25:00,79.4,76.2,29.42,NW,323,0.0,0.0,90,0.00,,FEW150,0.00,VWS V14.01,2013-09-05 07:25:00,
2013-09-05 03:26:00,79.4,76.2,29.42,NW,323,0.0,0.0,90,0.00,,FEW060,0.00,VWS V14.01,2013-09-05 07:26:00,
2013-09-05 03:27:00,79.4,76.2,29.42,NW,323,0.0,0.0,90,0.00,,FEW150,0.00,VWS V14.01,2013-09-05 07:27:00,
2013-09-05 03:28:00,79.4,76.2,29.42,NW,323,0.0,0.0,90,0.00,,FEW150,0.00,VWS V14.01,2013-09-05 07:28:00,
2013-09-05 03:29:00,79.4,76.2,29.42,NW,323,0.0,0.0,90,0.00,,FEW150,0.00,VWS V14.01,2013-09-05 07:29:00,
2013-09-05 03:30:00,79.4,76.2,29.42,NW,323,0.0,0.0,90,0.00,,FEW150,0.00,VWS V14.01,2013-09-05 07:30:00,
2013-09-05 03:31:00,79.4,76.2,29.42,NW,323,0.0,0.0,90,0.00,,FEW060,0.00,VWS V14.01,2013-09-05 07:31:00,
2013-09-05 03:32:00,79.4,76.2,29.42,NW,323,0.0,0.0,90,0.00,,FEW150,0.00,VWS V14.01,2013-09-05 07:32:00,
2013-09-05 03:33:00,79.4,76.6,29.42,NW,323,1.0,1.0,91,0.00,,FEW150,0.00,VWS V14.01,2013-09-05 07:33:00,
2013-09-05 03:34:00,79.4,76.6,29.42,NW,323,1.0,1.0,91,0.00,,FEW150,0.00,VWS V14.01,2013-09-05 07:34:00,
2013-09-05 03:35:00,79.4,76.6,29.42,NW,323,1.0,1.0,91,0.00,,FEW150,0.00,VWS V14.01,2013-09-05 07:35:00,
2013-09-05 03:36:00,79.4,76.6,29.42,NW,323,2.0,2.0,91,0.00,,CLR,0.00,VWS V14.01,2013-09-05 07:36:00,
2013-09-05 03:37:00,79.4,76.6,29.42,NW,323,2.0,2.0,91,0.00,,FEW150,0.00,VWS V14.01,2013-09-05 07:37:00,
2013-09-05 03:38:00,79.4,76.6,29.29,NW,323,2.0,2.0,91,0.00,,FEW150,0.00,VWS V14.01,2013-09-05 07:38:00,
2013-09-05 03:39:00,79.4,76.6,29.29,NW,323,2.0,2.0,91,0.00,,FEW150,0.00,VWS V14.01,2013-09-05 07:39:00,
2013-09-05 03:40:00,79.2,76.3,29.29,NW,323,1.0,2.0,91,0.00,,CLR,0.00,VWS V14.01,2013-09-05 07:40:00,
2013-09-05 03:41:00,79.2,76.3,29.29,NW,323,2.0,2.0,91,0.00,,FEW150,0.00,VWS V14.01,2013-09-05 07:41:00,
2013-09-05 03:42:00,79.2,76.3,29.29,NW,323,1.0,2.0,91,0.00,,FEW150,0.00,VWS V14.01,2013-09-05 07:42:00,
2013-09-05 03:43:00,79.2,76.3,29.34,NW,323,3.0,3.0,91,0.00,,FEW150,0.00,VWS V14.01,2013-09-05 07:43:00,
2013-09-05 03:44:00,79.2,76.3,29.34,NW,323,2.0,3.0,91,0.00,,FEW150,0.00,VWS V14.01,2013-09-05 07:44:00,
2013-09-05 03:45:00,79.0,76.2,29.34,NW,323,2.0,2.0,91,0.00,,CLR,0.00,VWS V14.01,2013-09-05 07:45:00,
2013-09-05 03:46:00,79.0,76.2,29.34,NW,323,2.0,2.0,91,0.00,,FEW150,0.00,VWS V14.01,2013-09-05 07:46:00,
2013-09-05 03:47:00,79.0,76.2,29.34,NW,323,3.0,3.0,91,0.00,,FEW150,0.00,VWS V14.01,2013-09-05 07:47:00,
2013-09-05 03:48:00,79.0,76.2,29.39,NW,323,2.0,3.0,91,0.00,,FEW150,0.00,VWS V14.01,2013-09-05 07:48:00,
2013-09-05 03:49:00,79.0,76.2,29.39,NW,323,1.0,2.0,91,0.00,,FEW150,0.00,VWS V14.01,2013-09-05 07:49:00,
2013-09-05 03:50:00,79.0,76.2,29.54,NW,323,2.0,2.0,91,0.00,,CLR,0.00,VWS V14.01,2013-09-05 07:50:00,
2013-09-05 03:51:00,79.0,76.2,29.54,NW,323,2.0,2.0,91,0.00,,FEW150,0.00,VWS V14.01,2013-09-05 07:51:00,
2013-09-05 03:52:00,79.0,76.2,29.54,NW,323,1.0,2.0,91,0.00,,FEW150,0.00,VWS V14.01,2013-09-05 07:52:00,
2013-09-05 03:53:00,79.0,76.2,29.33,NW,323,2.0,2.0,91,0.00,,FEW150,0.00,VWS V14.01,2013-09-05 07:53:00,
2013-09-05 03:54:00,79.0,76.2,29.33,NW,323,2.0,3.0,91,0.00,,FEW150,0.00,VWS V14.01,2013-09-05 07:54:00,
2013-09-05 03:55:00,79.0,76.2,29.33,NW,323,2.0,3.0,91,0.00,,CLR,0.00,VWS V14.01,2013-09-05 07:55:00,
2013-09-05 03:56:00,79.0,76.2,29.33,NW,323,3.0,3.0,91,0.00,,FEW150,0.00,VWS V14.01,2013-09-05 07:56:00,
2013-09-05 03:57:00,79.0,76.2,29.33,NW,323,3.0,3.0,91,0.00,,FEW150,0.00,VWS V14.01,2013-09-05 07:57:00,
2013-09-05 03:58:00,79.0,76.5,29.33,NW,323,2.0,3.0,92,0.00,,FEW150,0.00,VWS V14.01,2013-09-05 07:58:00,
2013-09-05 03:59:00,79.0,76.5,29.33,NW,323,1.0,2.0,92,0.00,,FEW150,0.00,VWS V14.01,2013-09-05 07:59:00,
2013-09-05 04:00:00,78.8,76.3,29.33,NW,323,2.0,2.0,92,0.00,,CLR,0.00,VWS V14.01,2013-09-05 08:00:00,
2013-09-05 04:01:00,78.8,76.3,29.33,NW,323,2.0,2.0,92,0.00,,FEW150,0.00,VWS V14.01,2013-09-05 08:01:00,
2013-09-05 04:02:00,78.8,76.3,29.33,NW,323,2.0,2.0,92,0.00,,FEW150,0.00,VWS V14.01,2013-09-05 08:02:00,
2013-09-05 04:03:00,78.8,76.3,29.33,NW,323,1.0,2.0,92,0.00,,FEW150,0.00,VWS V14.01,2013-09-05 08:03:00,
2013-09-05 04:04:00,78.8,76.3,29.33,NW,323,2.0,2.0,92,0.00,,FEW150,0.00,VWS V14.01,2013-09-05 08:04:00,
2013-09-05 04:05:00,78.8,76.3,29.33,NW,323,2.0,2.0,92,0.00,,CLR,0.00,VWS V14.01,2013-09-05 08:05:00,
2013-09-05 04:06:00,78.8,76.3,29.33,NW,323,2.0,2.0,92,0.00,,FEW150,0.00,VWS V14.01,2013-09-05 08:06:00,
2013-09-05 04:07:00,78.8,76.3,29.33,NW,323,1.0,2.0,92,0.00,,FEW150,0.00,VWS V14.01,2013-09-05 08:07:00,
2013-09-05 04:08:00,78.8,76.3,29.33,NW,323,3.0,3.0,92,0.00,,FEW150,0.00,VWS V14.01,2013-09-05 08:08:00,
2013-09-05 04:09:00,78.8,76.3,29.33,NW,323,2.0,3.0,92,0.00,,FEW150,0.00,VWS V14.01,2013-09-05 08:09:00,
2013-09-05 04:10:00,78.8,76.6,29.33,NW,323,3.0,3.0,93,0.00,,CLR,0.00,VWS V14.01,2013-09-05 08:10:00,
2013-09-05 04:11:00,78.8,76.3,29.33,NW,323,3.0,4.0,92,0.00,,FEW150,0.00,VWS V14.01,2013-09-05 08:11:00,
2013-09-05 04:12:00,78.8,76.6,29.33,NW,323,2.0,3.0,93,0.00,,FEW150,0.00,VWS V14.01,2013-09-05 08:12:00,
2013-09-05 04:13:00,78.8,76.6,29.33,NW,323,2.0,3.0,93,0.00,,FEW150,0.00,VWS V14.01,2013-09-05 08:13:00,
2013-09-05 04:14:00,78.8,76.6,29.33,NW,323,2.0,3.0,93,0.00,,FEW150,0.00,VWS V14.01,2013-09-05 08:14:00,
2013-09-05 04:15:00,78.8,76.6,29.33,NNW,343,3.0,4.0,93,0.00,,CLR,0.00,VWS V14.01,2013-09-05 08:15:00,
2013-09-05 04:16:00,78.8,76.6,29.33,NNW,331,2.0,4.0,93,0.00,,FEW150,0.00,VWS V14.01,2013-09-05 08:16:00,
2013-09-05 04:17:00,78.8,76.6,29.33,NNW,340,3.0,4.0,93,0.00,,FEW150,0.00,VWS V14.01,2013-09-05 08:17:00,
2013-09-05 04:18:00,78.8,76.6,29.33,NNW,340,4.0,4.0,93,0.00,,FEW150,0.00,VWS V14.01,2013-09-05 08:18:00,
2013-09-05 04:19:00,78.8,76.6,29.33,NNW,340,2.0,4.0,93,0.00,,FEW150,0.00,VWS V14.01,2013-09-05 08:19:00,
2013-09-05 04:20:00,78.6,76.4,29.58,NNW,340,3.0,3.0,93,0.00,,CLR,0.00,VWS V14.01,2013-09-05 08:20:00,
2013-09-05 04:21:00,78.8,76.6,29.33,NNW,340,2.0,4.0,93,0.00,,FEW150,0.00,VWS V14.01,2013-09-05 08:21:00,
2013-09-05 04:22:00,78.6,76.4,29.58,NNW,340,2.0,3.0,93,0.00,,FEW150,0.00,VWS V14.01,2013-09-05 08:22:00,
2013-09-05 04:23:00,78.6,76.4,29.58,NNW,340,1.0,3.0,93,0.00,,FEW150,0.00,VWS V14.01,2013-09-05 08:23:00,
2013-09-05 04:24:00,78.6,76.4,29.58,NNW,340,4.0,4.0,93,0.00,,FEW150,0.00,VWS V14.01,2013-09-05 08:24:00,
2013-09-05 04:25:00,78.6,76.4,29.57,NNW,340,1.0,3.0,93,0.00,,CLR,0.00,VWS V14.01,2013-09-05 08:25:00,
2013-09-05 04:26:00,78.6,76.4,29.57,NNW,340,3.0,4.0,93,0.00,,FEW150,0.00,VWS V14.01,2013-09-05 08:26:00,
2013-09-05 04:27:00,78.6,76.4,29.57,NNW,340,1.0,3.0,93,0.00,,FEW150,0.00,VWS V14.01,2013-09-05 08:27:00,
2013-09-05 04:28:00,78.6,76.4,29.57,NNW,340,2.0,2.0,93,0.00,,FEW150,0.00,VWS V14.01,2013-09-05 08:28:00,
2013-09-05 04:29:00,78.6,76.4,29.57,NNW,340,2.0,3.0,93,0.00,,FEW150,0.00,VWS V14.01,2013-09-05 08:29:00,
2013-09-05 04:30:00,78.6,76.4,29.57,NNW,340,2.0,3.0,93,0.00,,CLR,0.00,VWS V14.01,2013-09-05 08:30:00,
2013-09-05 04:31:00,78.6,76.4,29.57,NNW,340,3.0,3.0,93,0.00,,FEW150,0.00,VWS V14.01,2013-09-05 08:31:00,
2013-09-05 04:32:00,78.6,76.4,29.57,NNW,340,2.0,3.0,93,0.00,,FEW150,0.00,VWS V14.01,2013-09-05 08:32:00,
2013-09-05 04:34:00,78.6,76.4,29.57,NNW,340,3.0,3.0,93,0.00,,FEW150,0.00,VWS V14.01,2013-09-05 08:34:00,
2013-09-05 04:35:00,78.6,76.4,29.57,NNW,340,2.0,3.0,93,0.00,,CLR,0.00,VWS V14.01,2013-09-05 08:35:00,
2013-09-05 04:36:00,78.6,76.4,29.57,NNW,340,3.0,3.0,93,0.00,,FEW150,0.00,VWS V14.01,2013-09-05 08:36:00,
2013-09-05 04:37:00,78.6,76.4,29.57,NNW,340,4.0,4.0,93,0.00,,FEW150,0.00,VWS V14.01,2013-09-05 08:37:00,
2013-09-05 04:38:00,78.6,76.4,29.57,NNW,340,1.0,4.0,93,0.00,,FEW150,0.00,VWS V14.01,2013-09-05 08:38:00,
2013-09-05 04:39:00,78.6,76.4,29.57,NNW,340,2.0,4.0,93,0.00,,FEW150,0.00,VWS V14.01,2013-09-05 08:39:00,
2013-09-05 04:40:00,78.6,76.4,29.56,NNW,339,3.0,3.0,93,0.00,,CLR,0.00,VWS V14.01,2013-09-05 08:40:00,
2013-09-05 04:41:00,78.6,76.4,29.56,NNW,339,3.0,4.0,93,0.00,,FEW150,0.00,VWS V14.01,2013-09-05 08:41:00,
2013-09-05 04:42:00,78.6,76.4,29.56,NNW,339,3.0,4.0,93,0.00,,FEW150,0.00,VWS V14.01,2013-09-05 08:42:00,
2013-09-05 04:43:00,78.6,76.4,29.56,NNW,339,3.0,4.0,93,0.00,,FEW150,0.00,VWS V14.01,2013-09-05 08:43:00,
2013-09-05 04:44:00,78.6,76.4,29.56,NNW,339,4.0,4.0,93,0.00,,FEW150,0.00,VWS V14.01,2013-09-05 08:44:00,
2013-09-05 04:45:00,78.6,76.7,29.56,NNW,339,4.0,4.0,94,0.00,,CLR,0.00,VWS V14.01,2013-09-05 08:45:00,
2013-09-05 04:46:00,78.6,76.7,29.56,NNW,339,4.0,4.0,94,0.00,,FEW150,0.00,VWS V14.01,2013-09-05 08:46:00,
2013-09-05 04:47:00,78.6,76.7,29.56,NNW,339,2.0,4.0,94,0.00,,FEW150,0.00,VWS V14.01,2013-09-05 08:47:00,
2013-09-05 04:48:00,78.6,76.7,29.56,NNW,339,3.0,3.0,94,0.00,,FEW150,0.00,VWS V14.01,2013-09-05 08:48:00,
2013-09-05 04:49:00,78.6,76.7,29.56,NNW,339,2.0,3.0,94,0.00,,FEW150,0.00,VWS V14.01,2013-09-05 08:49:00,
2013-09-05 04:50:00,78.5,76.6,28.99,NNW,339,3.0,3.0,94,0.00,,CLR,0.00,VWS V14.01,2013-09-05 08:50:00,
2013-09-05 04:51:00,78.5,76.6,28.99,NNW,339,3.0,3.0,94,0.00,,FEW150,0.00,VWS V14.01,2013-09-05 08:51:00,
2013-09-05 04:52:00,78.5,76.6,28.99,NNW,339,3.0,3.0,94,0.00,,FEW150,0.00,VWS V14.01,2013-09-05 08:52:00,
2013-09-05 04:53:00,78.5,76.6,28.99,NNW,339,1.0,3.0,94,0.00,,FEW150,0.00,VWS V14.01,2013-09-05 08:53:00,
2013-09-05 04:54:00,78.5,76.6,28.99,NNW,339,3.0,3.0,94,0.00,,FEW150,0.00,VWS V14.01,2013-09-05 08:54:00,
2013-09-05 04:55:00,78.5,76.6,28.99,NNW,339,1.0,4.0,94,0.00,,CLR,0.00,VWS V14.01,2013-09-05 08:55:00,
2013-09-05 04:56:00,78.5,76.6,28.99,NNW,339,3.0,3.0,94,0.00,,FEW150,0.00,VWS V14.01,2013-09-05 08:56:00,
2013-09-05 04:57:00,78.5,76.6,28.81,NNW,339,2.0,4.0,94,0.00,,FEW150,0.00,VWS V14.01,2013-09-05 08:57:00,
2013-09-05 04:58:00,78.5,76.6,28.81,NNW,339,2.0,3.0,94,0.00,,FEW150,0.00,VWS V14.01,2013-09-05 08:58:00,
2013-09-05 04:59:00,78.5,76.6,28.81,NNW,339,2.0,3.0,94,0.00,,FEW150,0.00,VWS V14.01,2013-09-05 08:59:00,
2013-09-05 05:00:00,78.5,76.6,28.92,NNW,339,3.0,4.0,94,0.00,,CLR,0.00,VWS V14.01,2013-09-05 09:00:00,
2013-09-05 05:01:00,78.5,76.6,28.81,NNW,339,4.0,4.0,94,0.00,,FEW150,0.00,VWS V14.01,2013-09-05 09:01:00,
2013-09-05 05:02:00,78.5,76.6,28.92,NNW,339,4.0,4.0,94,0.00,,FEW150,0.00,VWS V14.01,2013-09-05 09:02:00,
2013-09-05 05:03:00,78.5,76.6,28.92,NNW,339,2.0,4.0,94,0.00,,FEW150,0.00,VWS V14.01,2013-09-05 09:03:00,
2013-09-05 05:04:00,78.5,76.6,28.92,NNW,339,3.0,3.0,94,0.00,,FEW150,0.00,VWS V14.01,2013-09-05 09:04:00,
2013-09-05 05:05:00,78.5,76.6,29.00,NNW,333,3.0,4.0,94,0.00,,CLR,0.00,VWS V14.01,2013-09-05 09:05:00,
2013-09-05 05:06:00,78.5,76.6,29.00,NNW,333,4.0,4.0,94,0.00,,FEW150,0.00,VWS V14.01,2013-09-05 09:06:00,
2013-09-05 05:07:00,78.5,76.6,29.00,NNW,333,4.0,4.0,94,0.00,,FEW150,0.00,VWS V14.01,2013-09-05 09:07:00,
2013-09-05 05:08:00,78.5,76.6,29.00,NNW,333,1.0,4.0,94,0.00,,FEW150,0.00,VWS V14.01,2013-09-05 09:08:00,
2013-09-05 05:09:00,78.3,76.8,29.00,NNW,335,2.0,3.0,95,0.00,,FEW150,0.00,VWS V14.01,2013-09-05 09:09:00,
2013-09-05 05:10:00,78.3,76.8,28.92,NNW,335,3.0,3.0,95,0.00,,CLR,0.00,VWS V14.01,2013-09-05 09:10:00,
2013-09-05 05:11:00,78.3,76.8,29.00,NNW,335,2.0,3.0,95,0.00,,FEW150,0.00,VWS V14.01,2013-09-05 09:11:00,
2013-09-05 05:12:00,78.3,76.8,28.92,NNW,335,2.0,3.0,95,0.00,,FEW150,0.00,VWS V14.01,2013-09-05 09:12:00,
2013-09-05 05:13:00,78.3,76.8,28.91,NNW,335,2.0,4.0,95,0.00,,FEW150,0.00,VWS V14.01,2013-09-05 09:13:00,
2013-09-05 05:14:00,78.3,76.8,28.91,NNW,336,3.0,4.0,95,0.00,,FEW150,0.00,VWS V14.01,2013-09-05 09:14:00,
2013-09-05 05:15:00,78.3,76.8,28.91,NNW,335,3.0,3.0,95,0.00,,CLR,0.00,VWS V14.01,2013-09-05 09:15:00,
2013-09-05 05:16:00,78.3,76.8,28.91,NNW,335,1.0,4.0,95,0.00,,FEW150,0.00,VWS V14.01,2013-09-05 09:16:00,
2013-09-05 05:17:00,78.3,76.8,28.91,NNW,335,3.0,3.0,95,0.00,,FEW150,0.00,VWS V14.01,2013-09-05 09:17:00,
2013-09-05 05:18:00,78.1,76.6,28.91,NNW,336,2.0,4.0,95,0.00,,FEW150,0.00,VWS V14.01,2013-09-05 09:18:00,
2013-09-05 05:19:00,78.1,76.6,28.91,NNW,336,3.0,4.0,95,0.00,,FEW150,0.00,VWS V14.01,2013-09-05 09:19:00,
2013-09-05 05:20:00,78.1,76.6,28.91,NNW,336,2.0,4.0,95,0.00,,CLR,0.00,VWS V14.01,2013-09-05 09:20:00,
2013-09-05 05:21:00,78.1,76.6,28.91,NNW,336,3.0,3.0,95,0.00,,FEW150,0.00,VWS V14.01,2013-09-05 09:21:00,
2013-09-05 05:23:00,78.1,76.6,28.91,NNW,336,1.0,3.0,95,0.00,,FEW150,0.00,VWS V14.01,2013-09-05 09:23:00,
2013-09-05 05:24:00,78.1,76.6,28.91,NNW,336,3.0,4.0,95,0.00,,FEW150,0.00,VWS V14.01,2013-09-05 09:24:00,
2013-09-05 05:25:00,78.1,76.6,28.91,NNW,336,3.0,3.0,95,0.00,,CLR,0.00,VWS V14.01,2013-09-05 09:25:00,
2013-09-05 05:26:00,78.1,76.6,28.91,NNW,336,2.0,3.0,95,0.00,,FEW045,0.00,VWS V14.01,2013-09-05 09:26:00,
2013-09-05 05:27:00,78.1,76.6,28.91,NNW,336,2.0,3.0,95,0.00,,FEW045,0.00,VWS V14.01,2013-09-05 09:27:00,
2013-09-05 05:28:00,77.9,76.4,28.91,NNW,336,2.0,3.0,95,0.00,,FEW045,0.00,VWS V14.01,2013-09-05 09:28:00,
2013-09-05 05:29:00,77.9,76.4,28.91,NNW,336,2.0,2.0,95,0.00,,FEW045,0.00,VWS V14.01,2013-09-05 09:29:00,
2013-09-05 05:30:00,77.9,76.0,28.91,NNW,336,3.0,3.0,94,0.00,,CLR,0.00,VWS V14.01,2013-09-05 09:30:00,
2013-09-05 05:31:00,77.9,76.0,28.91,NNW,336,3.0,3.0,94,0.00,,FEW045,0.00,VWS V14.01,2013-09-05 09:31:00,
2013-09-05 05:32:00,77.9,76.7,28.91,NNW,335,3.0,3.0,96,0.00,,FEW045,0.00,VWS V14.01,2013-09-05 09:32:00,
2013-09-05 05:33:00,77.9,76.7,28.91,NNW,337,2.0,3.0,96,0.00,,FEW045,0.00,VWS V14.01,2013-09-05 09:33:00,
2013-09-05 05:34:00,77.9,76.7,28.91,NNW,337,4.0,4.0,96,0.00,,FEW045,0.00,VWS V14.01,2013-09-05 09:34:00,
2013-09-05 05:35:00,77.9,76.7,28.91,NNW,338,3.0,3.0,96,0.00,,FEW050,0.00,VWS V14.01,2013-09-05 09:35:00,
2013-09-05 05:36:00,77.9,76.7,28.91,NNW,338,3.0,4.0,96,0.00,,FEW045,0.00,VWS V14.01,2013-09-05 09:36:00,
2013-09-05 05:37:00,77.9,76.7,28.91,NNW,338,3.0,3.0,96,0.00,,FEW045,0.00,VWS V14.01,2013-09-05 09:37:00,
2013-09-05 05:38:00,77.9,76.7,28.91,NNW,338,3.0,3.0,96,0.00,,FEW045,0.00,VWS V14.01,2013-09-05 09:38:00,
2013-09-05 05:39:00,77.9,76.7,28.91,NNW,338,3.0,3.0,96,0.00,,FEW045,0.00,VWS V14.01,2013-09-05 09:39:00,
2013-09-05 05:40:00,77.7,76.5,28.91,NNW,338,2.0,3.0,96,0.00,,FEW050,0.00,VWS V14.01,2013-09-05 09:40:00,
2013-09-05 05:41:00,77.7,76.5,28.91,NNW,338,2.0,2.0,96,0.00,,FEW045,0.00,VWS V14.01,2013-09-05 09:41:00,
2013-09-05 05:42:00,77.7,76.5,28.91,NNW,338,2.0,3.0,96,0.00,,FEW045,0.00,VWS V14.01,2013-09-05 09:42:00,
2013-09-05 05:43:00,77.7,76.5,28.91,NNW,338,2.0,3.0,96,0.00,,FEW045,0.00,VWS V14.01,2013-09-05 09:43:00,
2013-09-05 05:44:00,77.7,76.5,28.91,NNW,338,2.0,3.0,96,0.00,,FEW045,0.00,VWS V14.01,2013-09-05 09:44:00,
2013-09-05 05:45:00,77.7,76.5,28.96,NNW,338,2.0,2.0,96,0.00,,FEW050,0.00,VWS V14.01,2013-09-05 09:45:00,
2013-09-05 05:46:00,77.7,76.5,28.96,NNW,338,2.0,3.0,96,0.00,,FEW045,0.00,VWS V14.01,2013-09-05 09:46:00,
2013-09-05 05:47:00,77.7,76.5,28.96,NNW,338,3.0,3.0,96,0.00,,FEW045,0.00,VWS V14.01,2013-09-05 09:47:00,
2013-09-05 05:49:00,77.7,76.5,28.96,NNW,338,2.0,3.0,96,0.00,,FEW045,0.00,VWS V14.01,2013-09-05 09:49:00,
2013-09-05 05:50:00,77.7,76.5,29.00,NNW,338,2.0,2.0,96,0.00,,FEW050,0.00,VWS V14.01,2013-09-05 09:50:00,
2013-09-05 05:51:00,77.7,76.5,28.98,NNW,338,2.0,3.0,96,0.00,,FEW045,0.00,VWS V14.01,2013-09-05 09:51:00,
2013-09-05 05:52:00,77.7,76.5,29.00,NNW,338,2.0,2.0,96,0.00,,FEW045,0.00,VWS V14.01,2013-09-05 09:52:00,
2013-09-05 05:53:00,77.7,76.5,28.99,NNW,338,2.0,3.0,96,0.00,,FEW045,0.00,VWS V14.01,2013-09-05 09:53:00,
2013-09-05 05:54:00,77.7,76.5,28.99,NNW,338,3.0,3.0,96,0.00,,FEW045,0.00,VWS V14.01,2013-09-05 09:54:00,
2013-09-05 05:55:00,77.7,76.5,28.91,NNW,341,2.0,3.0,96,0.00,,FEW050,0.00,VWS V14.01,2013-09-05 09:55:00,
2013-09-05 05:56:00,77.7,76.5,28.99,NNW,341,2.0,4.0,96,0.00,,FEW045,0.00,VWS V14.01,2013-09-05 09:56:00,
2013-09-05 05:57:00,77.7,76.5,28.91,NNW,341,2.0,3.0,96,0.00,,FEW045,0.00,VWS V14.01,2013-09-05 09:57:00,
2013-09-05 05:58:00,77.7,76.5,28.91,NNW,341,2.0,4.0,96,0.00,,FEW045,0.00,VWS V14.01,2013-09-05 09:58:00,
2013-09-05 05:59:00,77.7,76.5,28.91,NNW,341,2.0,3.0,96,0.00,,FEW045,0.00,VWS V14.01,2013-09-05 09:59:00,
2013-09-05 06:00:00,77.7,76.8,28.96,NNW,341,3.0,3.0,97,0.00,,FEW050,0.00,VWS V14.01,2013-09-05 10:00:00,
2013-09-05 06:02:00,77.7,76.5,28.96,NNW,341,3.0,3.0,96,0.00,,FEW045,0.00,VWS V14.01,2013-09-05 10:02:00,
2013-09-05 06:03:00,77.7,76.8,28.96,NNW,341,2.0,3.0,97,0.00,,FEW045,0.00,VWS V14.01,2013-09-05 10:03:00,
2013-09-05 06:04:00,77.7,76.8,28.87,NNW,341,2.0,3.0,97,0.00,,FEW045,0.00,VWS V14.01,2013-09-05 10:04:00,
2013-09-05 06:05:00,77.7,76.8,28.95,NNW,341,2.0,2.0,97,0.00,,FEW050,0.00,VWS V14.01,2013-09-05 10:05:00,
2013-09-05 06:06:00,77.7,76.8,28.95,NNW,341,2.0,3.0,97,0.00,,FEW045,0.00,VWS V14.01,2013-09-05 10:06:00,
2013-09-05 06:07:00,77.7,76.8,28.95,NNW,341,2.0,2.0,97,0.00,,FEW045,0.00,VWS V14.01,2013-09-05 10:07:00,
2013-09-05 06:08:00,77.7,76.8,28.95,NNW,341,2.0,3.0,97,0.00,,FEW045,0.00,VWS V14.01,2013-09-05 10:08:00,
2013-09-05 06:09:00,77.7,76.8,28.95,NNW,341,2.0,2.0,97,0.00,,FEW045,0.00,VWS V14.01,2013-09-05 10:09:00,
2013-09-05 06:10:00,77.6,76.7,28.88,NNW,341,3.0,3.0,97,0.00,,FEW050,0.00,VWS V14.01,2013-09-05 10:10:00,
2013-09-05 06:11:00,77.6,76.7,28.88,NNW,341,2.0,3.0,97,0.00,,FEW045,0.00,VWS V14.01,2013-09-05 10:11:00,
2013-09-05 06:12:00,77.6,76.7,28.91,NNW,341,2.0,3.0,97,0.00,,FEW045,0.00,VWS V14.01,2013-09-05 10:12:00,
2013-09-05 06:13:00,77.6,76.7,28.91,NNW,341,2.0,2.0,97,0.00,,FEW045,0.00,VWS V14.01,2013-09-05 10:13:00,
2013-09-05 06:14:00,77.6,76.7,28.91,NNW,341,2.0,2.0,97,0.00,,FEW045,0.00,VWS V14.01,2013-09-05 10:14:00,
2013-09-05 06:15:00,77.6,76.7,28.91,NNW,341,2.0,3.0,97,0.00,,FEW050,0.00,VWS V14.01,2013-09-05 10:15:00,
2013-09-05 06:16:00,77.6,76.7,28.91,NNW,341,2.0,2.0,97,0.00,,FEW045,0.00,VWS V14.01,2013-09-05 10:16:00,
2013-09-05 06:17:00,77.6,76.7,28.91,NNW,341,1.0,3.0,97,0.00,,CLR,0.00,VWS V14.01,2013-09-05 10:17:00,
2013-09-05 06:18:00,77.6,76.7,28.91,NNW,341,1.0,1.0,97,0.00,,CLR,0.00,VWS V14.01,2013-09-05 10:18:00,
2013-09-05 06:19:00,77.6,76.7,28.91,NNW,341,2.0,2.0,97,0.00,,CLR,0.00,VWS V14.01,2013-09-05 10:19:00,
2013-09-05 06:20:00,77.6,76.7,28.85,NNW,341,1.0,2.0,97,0.00,,FEW050,0.00,VWS V14.01,2013-09-05 10:20:00,
2013-09-05 06:21:00,77.6,76.7,28.85,NNW,341,2.0,2.0,97,0.00,,CLR,0.00,VWS V14.01,2013-09-05 10:21:00,
2013-09-05 06:22:00,77.6,76.7,28.85,NNW,341,1.0,2.0,97,0.00,,CLR,0.00,VWS V14.01,2013-09-05 10:22:00,
2013-09-05 06:23:00,77.6,76.7,28.85,NNW,341,1.0,1.0,97,0.00,,CLR,0.00,VWS V14.01,2013-09-05 10:23:00,
2013-09-05 06:24:00,77.6,76.7,28.85,NNW,341,0.0,1.0,97,0.00,,CLR,0.00,VWS V14.01,2013-09-05 10:24:00,
2013-09-05 06:25:00,77.6,76.7,28.94,NNW,341,1.0,1.0,97,0.00,,FEW050,0.00,VWS V14.01,2013-09-05 10:25:00,
2013-09-05 06:26:00,77.6,76.7,28.94,NNW,341,1.0,1.0,97,0.00,,CLR,0.00,VWS V14.01,2013-09-05 10:26:00,
2013-09-05 06:27:00,77.6,76.7,28.94,NNW,341,0.0,1.0,97,0.00,,CLR,0.00,VWS V14.01,2013-09-05 10:27:00,
2013-09-05 06:28:00,77.4,76.5,28.94,NNW,341,0.0,1.0,97,0.00,,CLR,0.00,VWS V14.01,2013-09-05 10:28:00,
2013-09-05 06:29:00,77.4,76.5,28.94,NNW,341,2.0,2.0,97,0.00,,CLR,0.00,VWS V14.01,2013-09-05 10:29:00,
2013-09-05 06:30:00,77.4,76.5,28.90,NNW,341,0.0,1.0,97,0.00,,FEW050,0.00,VWS V14.01,2013-09-05 10:30:00,
2013-09-05 06:31:00,77.4,76.5,28.90,NNW,341,0.0,2.0,97,0.00,,CLR,0.00,VWS V14.01,2013-09-05 10:31:00,
2013-09-05 06:32:00,77.4,76.5,28.90,NNW,341,1.0,1.0,97,0.00,,CLR,0.00,VWS V14.01,2013-09-05 10:32:00,
2013-09-05 06:33:00,77.4,76.5,28.87,NNW,341,0.0,1.0,97,0.00,,CLR,0.00,VWS V14.01,2013-09-05 10:33:00,
2013-09-05 06:34:00,77.4,76.5,28.87,NNW,341,0.0,0.0,97,0.00,,CLR,0.00,VWS V14.01,2013-09-05 10:34:00,
2013-09-05 06:35:00,77.4,76.5,28.87,NNW,341,0.0,1.0,97,0.00,,CLR,0.00,VWS V14.01,2013-09-05 10:35:00,
2013-09-05 06:36:00,77.4,76.5,28.87,NNW,341,1.0,1.0,97,0.00,,CLR,0.00,VWS V14.01,2013-09-05 10:36:00,
2013-09-05 06:37:00,77.4,76.5,28.87,NNW,341,2.0,2.0,97,0.00,,CLR,0.00,VWS V14.01,2013-09-05 10:37:00,
2013-09-05 06:38:00,77.4,76.5,28.87,NNW,341,1.0,2.0,97,0.00,,CLR,0.00,VWS V14.01,2013-09-05 10:38:00,
2013-09-05 06:39:00,77.4,76.5,28.87,NNW,341,1.0,1.0,97,0.00,,CLR,0.00,VWS V14.01,2013-09-05 10:39:00,
2013-09-05 06:40:00,77.4,76.5,28.87,NNW,341,0.0,0.0,97,0.00,,CLR,0.00,VWS V14.01,2013-09-05 10:40:00,
2013-09-05 06:41:00,77.4,76.5,28.87,NNW,341,0.0,0.0,97,0.00,,CLR,0.00,VWS V14.01,2013-09-05 10:41:00,
2013-09-05 06:42:00,77.4,76.8,28.87,NNW,341,0.0,0.0,98,0.00,,CLR,0.00,VWS V14.01,2013-09-05 10:42:00,
2013-09-05 06:43:00,77.4,76.8,28.87,NNW,341,0.0,0.0,98,0.00,,CLR,0.00,VWS V14.01,2013-09-05 10:43:00,
2013-09-05 06:44:00,77.4,76.5,28.87,NNW,341,0.0,0.0,97,0.00,,CLR,0.00,VWS V14.01,2013-09-05 10:44:00,
2013-09-05 06:45:00,77.4,76.8,28.80,NNW,341,1.0,1.0,98,0.00,,CLR,0.00,VWS V14.01,2013-09-05 10:45:00,
2013-09-05 06:46:00,77.4,76.8,28.80,NNW,341,1.0,1.0,98,0.00,,CLR,0.00,VWS V14.01,2013-09-05 10:46:00,
2013-09-05 06:47:00,77.4,76.8,28.80,NNW,341,0.0,1.0,98,0.00,,CLR,0.00,VWS V14.01,2013-09-05 10:47:00,
2013-09-05 06:48:00,77.4,76.8,28.80,NNW,341,0.0,0.0,98,0.00,,CLR,0.00,VWS V14.01,2013-09-05 10:48:00,
2013-09-05 06:49:00,77.4,76.8,28.80,NNW,341,0.0,0.0,98,0.00,,CLR,0.00,VWS V14.01,2013-09-05 10:49:00,
2013-09-05 06:50:00,77.4,76.8,28.87,NNW,341,0.0,1.0,98,0.00,,CLR,0.00,VWS V14.01,2013-09-05 10:50:00,
2013-09-05 06:51:00,77.4,76.8,28.87,NNW,341,1.0,1.0,98,0.00,,CLR,0.00,VWS V14.01,2013-09-05 10:51:00,
2013-09-05 06:52:00,77.4,76.8,28.87,NNW,341,0.0,1.0,98,0.00,,CLR,0.00,VWS V14.01,2013-09-05 10:52:00,
2013-09-05 06:53:00,77.4,76.8,28.95,NNW,341,0.0,0.0,98,0.00,,CLR,0.00,VWS V14.01,2013-09-05 10:53:00,
2013-09-05 06:54:00,77.4,76.8,28.95,NNW,341,0.0,0.0,98,0.00,,CLR,0.00,VWS V14.01,2013-09-05 10:54:00,
2013-09-05 06:55:00,77.4,76.8,28.95,NNW,341,0.0,0.0,98,0.00,,CLR,0.00,VWS V14.01,2013-09-05 10:55:00,
2013-09-05 06:56:00,77.4,76.8,28.95,NNW,341,0.0,0.0,98,0.00,,CLR,0.00,VWS V14.01,2013-09-05 10:56:00,
2013-09-05 06:57:00,77.4,76.8,28.92,NNW,341,0.0,0.0,98,0.00,,CLR,0.00,VWS V14.01,2013-09-05 10:57:00,
2013-09-05 06:58:00,77.4,76.8,28.92,NNW,341,0.0,0.0,98,0.00,,CLR,0.00,VWS V14.01,2013-09-05 10:58:00,
2013-09-05 06:59:00,77.2,76.6,28.87,NNW,341,0.0,0.0,98,0.00,,CLR,0.00,VWS V14.01,2013-09-05 10:59:00,
2013-09-05 07:00:00,77.2,76.6,28.87,NNW,341,0.0,0.0,98,0.00,,CLR,0.00,VWS V14.01,2013-09-05 11:00:00,
2013-09-05 07:01:00,77.2,76.6,28.87,NNW,341,0.0,0.0,98,0.00,,CLR,0.00,VWS V14.01,2013-09-05 11:01:00,
2013-09-05 07:02:00,77.2,76.6,28.87,NNW,341,0.0,0.0,98,0.00,,CLR,0.00,VWS V14.01,2013-09-05 11:02:00,
2013-09-05 07:03:00,77.2,76.6,28.87,NNW,341,0.0,0.0,98,0.00,,CLR,0.00,VWS V14.01,2013-09-05 11:03:00,
2013-09-05 07:04:00,77.2,76.6,28.87,NNW,341,0.0,0.0,98,0.00,,CLR,0.00,VWS V14.01,2013-09-05 11:04:00,
2013-09-05 07:05:00,77.2,76.6,28.98,NNW,341,1.0,1.0,98,0.00,,CLR,0.00,VWS V14.01,2013-09-05 11:05:00,
2013-09-05 07:06:00,77.2,76.6,28.98,NNW,341,0.0,1.0,98,0.00,,CLR,0.00,VWS V14.01,2013-09-05 11:06:00,
2013-09-05 07:07:00,77.2,76.6,28.98,NNW,341,1.0,1.0,98,0.00,,CLR,0.00,VWS V14.01,2013-09-05 11:07:00,
2013-09-05 07:08:00,77.2,76.6,28.98,NNW,341,1.0,1.0,98,0.00,,CLR,0.00,VWS V14.01,2013-09-05 11:08:00,
2013-09-05 07:09:00,77.2,76.6,28.91,NNW,342,1.0,1.0,98,0.00,,CLR,0.00,VWS V14.01,2013-09-05 11:09:00,
2013-09-05 07:10:00,77.2,76.6,28.91,NNW,342,0.0,0.0,98,0.00,,CLR,0.00,VWS V14.01,2013-09-05 11:10:00,
2013-09-05 07:11:00,77.2,76.6,28.91,NNW,342,0.0,2.0,98,0.00,,CLR,0.00,VWS V14.01,2013-09-05 11:11:00,
2013-09-05 07:12:00,77.2,76.6,28.91,NNW,342,1.0,1.0,98,0.00,,CLR,0.00,VWS V14.01,2013-09-05 11:12:00,
2013-09-05 07:13:00,77.2,76.6,28.91,NNW,342,2.0,2.0,98,0.00,,CLR,0.00,VWS V14.01,2013-09-05 11:13:00,
2013-09-05 07:14:00,77.2,76.6,28.91,NNW,342,0.0,2.0,98,0.00,,CLR,0.00,VWS V14.01,2013-09-05 11:14:00,
2013-09-05 07:15:00,77.2,76.6,28.77,NNW,342,0.0,0.0,98,0.00,,CLR,0.00,VWS V14.01,2013-09-05 11:15:00,
2013-09-05 07:16:00,77.2,76.6,28.91,NNW,342,0.0,0.0,98,0.00,,CLR,0.00,VWS V14.01,2013-09-05 11:16:00,
2013-09-05 07:17:00,77.2,76.6,28.77,NNW,342,0.0,0.0,98,0.00,,CLR,0.00,VWS V14.01,2013-09-05 11:17:00,
2013-09-05 07:18:00,77.2,76.6,28.75,NNW,342,0.0,0.0,98,0.00,,CLR,0.00,VWS V14.01,2013-09-05 11:18:00,
2013-09-05 07:19:00,77.2,76.6,28.75,NNW,342,1.0,1.0,98,0.00,,CLR,0.00,VWS V14.01,2013-09-05 11:19:00,
2013-09-05 07:20:00,77.2,76.6,28.75,NNW,342,0.0,0.0,98,0.00,,CLR,0.00,VWS V14.01,2013-09-05 11:20:00,
2013-09-05 07:21:00,77.2,76.6,28.75,NNW,342,0.0,1.0,98,0.00,,CLR,0.00,VWS V14.01,2013-09-05 11:21:00,
2013-09-05 07:22:00,77.0,76.4,28.75,NNW,342,0.0,0.0,98,0.00,,CLR,0.00,VWS V14.01,2013-09-05 11:22:00,
2013-09-05 07:23:00,77.0,76.4,28.75,NNW,342,0.0,0.0,98,0.00,,CLR,0.00,VWS V14.01,2013-09-05 11:23:00,
2013-09-05 07:24:00,77.0,76.4,28.91,NNW,342,0.0,0.0,98,0.00,,CLR,0.00,VWS V14.01,2013-09-05 11:24:00,
2013-09-05 07:25:00,77.0,76.4,28.91,NNW,342,0.0,0.0,98,0.00,,CLR,0.00,VWS V14.01,2013-09-05 11:25:00,
2013-09-05 07:26:00,77.0,76.4,28.91,NNW,342,0.0,0.0,98,0.00,,CLR,0.00,VWS V14.01,2013-09-05 11:26:00,
2013-09-05 07:27:00,77.0,76.4,28.91,NNW,342,0.0,0.0,98,0.00,,CLR,0.00,VWS V14.01,2013-09-05 11:27:00,
2013-09-05 07:28:00,77.0,76.4,28.91,NNW,342,0.0,0.0,98,0.00,,CLR,0.00,VWS V14.01,2013-09-05 11:28:00,
2013-09-05 07:29:00,77.0,76.4,28.91,NNW,342,0.0,0.0,98,0.00,,CLR,0.00,VWS V14.01,2013-09-05 11:29:00,
2013-09-05 07:30:00,77.2,76.6,28.91,NNW,342,0.0,0.0,98,0.00,,CLR,0.00,VWS V14.01,2013-09-05 11:30:00,
2013-09-05 07:31:00,77.2,76.6,28.91,NNW,342,0.0,0.0,98,0.00,,CLR,0.00,VWS V14.01,2013-09-05 11:31:00,
2013-09-05 07:32:00,77.2,76.6,28.91,NNW,342,0.0,0.0,98,0.00,,CLR,0.00,VWS V14.01,2013-09-05 11:32:00,
2013-09-05 07:33:00,77.2,76.6,28.91,NNW,342,0.0,0.0,98,0.00,,CLR,0.00,VWS V14.01,2013-09-05 11:33:00,
2013-09-05 07:34:00,77.2,76.6,28.91,NNW,342,0.0,0.0,98,0.00,,CLR,0.00,VWS V14.01,2013-09-05 11:34:00,
2013-09-05 07:35:00,77.2,76.6,28.80,NNW,342,0.0,0.0,98,0.00,,,0.00,VWS V14.01,2013-09-05 11:35:00,
2013-09-05 07:36:00,77.2,76.6,28.80,NNW,342,0.0,1.0,98,0.00,,CLR,0.00,VWS V14.01,2013-09-05 11:36:00,
2013-09-05 07:37:00,77.2,76.6,28.80,NNW,342,0.0,0.0,98,0.00,,CLR,0.00,VWS V14.01,2013-09-05 11:37:00,
2013-09-05 07:38:00,77.2,76.6,28.80,NNW,342,0.0,0.0,98,0.00,,CLR,0.00,VWS V14.01,2013-09-05 11:38:00,
2013-09-05 07:39:00,77.2,76.6,28.80,NNW,342,0.0,0.0,98,0.00,,CLR,0.00,VWS V14.01,2013-09-05 11:39:00,
2013-09-05 07:40:00,77.2,76.6,28.86,NNW,342,1.0,1.0,98,0.00,,,0.00,VWS V14.01,2013-09-05 11:40:00,
2013-09-05 07:41:00,77.2,76.6,28.80,NNW,342,0.0,0.0,98,0.00,,CLR,0.00,VWS V14.01,2013-09-05 11:41:00,
2013-09-05 07:42:00,77.2,76.6,28.86,NNW,342,0.0,1.0,98,0.00,,CLR,0.00,VWS V14.01,2013-09-05 11:42:00,
2013-09-05 07:43:00,77.2,76.6,28.86,NNW,342,1.0,2.0,98,0.00,,CLR,0.00,VWS V14.01,2013-09-05 11:43:00,
2013-09-05 07:44:00,77.2,76.6,28.86,NNW,342,0.0,1.0,98,0.00,,CLR,0.00,VWS V14.01,2013-09-05 11:44:00,
2013-09-05 07:45:00,77.2,76.6,28.86,NNW,344,1.0,2.0,98,0.00,,,0.00,VWS V14.01,2013-09-05 11:45:00,
2013-09-05 07:46:00,77.2,76.6,28.86,NNW,344,2.0,2.0,98,0.00,,CLR,0.00,VWS V14.01,2013-09-05 11:46:00,
2013-09-05 07:47:00,77.2,76.6,28.86,NNW,344,0.0,2.0,98,0.00,,CLR,0.00,VWS V14.01,2013-09-05 11:47:00,
2013-09-05 07:48:00,77.2,76.6,28.78,NNW,344,1.0,1.0,98,0.00,,CLR,0.00,VWS V14.01,2013-09-05 11:48:00,
2013-09-05 07:49:00,77.2,76.6,28.78,NNW,344,0.0,2.0,98,0.00,,CLR,0.00,VWS V14.01,2013-09-05 11:49:00,
2013-09-05 07:50:00,77.2,76.6,28.70,NNW,344,0.0,0.0,98,0.00,,,0.00,VWS V14.01,2013-09-05 11:50:00,
2013-09-05 07:51:00,77.2,76.6,28.70,NNW,344,0.0,0.0,98,0.00,,CLR,0.00,VWS V14.01,2013-09-05 11:51:00,
2013-09-05 07:52:00,77.2,76.6,28.70,NNW,344,0.0,0.0,98,0.00,,CLR,0.00,VWS V14.01,2013-09-05 11:52:00,
2013-09-05 07:53:00,77.2,76.6,28.70,NNW,344,0.0,0.0,98,0.00,,CLR,0.00,VWS V14.01,2013-09-05 11:53:00,
2013-09-05 07:54:00,77.2,76.6,28.70,NNW,344,0.0,1.0,98,0.00,,CLR,0.00,VWS V14.01,2013-09-05 11:54:00,
2013-09-05 07:55:00,77.0,76.4,28.70,NNW,344,0.0,2.0,98,0.00,,,0.00,VWS V14.01,2013-09-05 11:55:00,
2013-09-05 07:56:00,77.0,76.4,28.70,NNW,344,0.0,2.0,98,0.00,,CLR,0.00,VWS V14.01,2013-09-05 11:56:00,
2013-09-05 07:57:00,77.0,76.4,28.70,NNW,344,0.0,0.0,98,0.00,,CLR,0.00,VWS V14.01,2013-09-05 11:57:00,
2013-09-05 07:58:00,77.0,76.4,28.70,NNW,344,1.0,1.0,98,0.00,,CLR,0.00,VWS V14.01,2013-09-05 11:58:00,
2013-09-05 07:59:00,77.0,76.4,28.70,NNW,344,0.0,1.0,98,0.00,,CLR,0.00,VWS V14.01,2013-09-05 11:59:00,
2013-09-05 08:00:00,77.0,76.4,28.70,NNW,344,0.0,0.0,98,0.00,,,0.00,VWS V14.01,2013-09-05 12:00:00,
2013-09-05 08:01:00,77.0,76.4,28.70,NNW,344,0.0,0.0,98,0.00,,CLR,0.00,VWS V14.01,2013-09-05 12:01:00,
2013-09-05 08:02:00,77.0,76.4,28.70,NNW,344,0.0,0.0,98,0.00,,CLR,0.00,VWS V14.01,2013-09-05 12:02:00,
2013-09-05 08:03:00,77.0,76.4,28.70,NNW,344,0.0,0.0,98,0.00,,CLR,0.00,VWS V14.01,2013-09-05 12:03:00,
2013-09-05 08:04:00,77.0,76.4,28.70,NNW,344,0.0,0.0,98,0.00,,CLR,0.00,VWS V14.01,2013-09-05 12:04:00,
2013-09-05 08:05:00,77.0,76.4,28.95,NNW,344,0.0,0.0,98,0.00,,,0.00,VWS V14.01,2013-09-05 12:05:00,
2013-09-05 08:06:00,77.0,76.4,28.95,NNW,344,0.0,0.0,98,0.00,,CLR,0.00,VWS V14.01,2013-09-05 12:06:00,
2013-09-05 08:07:00,77.0,76.4,28.95,NNW,344,0.0,1.0,98,0.00,,CLR,0.00,VWS V14.01,2013-09-05 12:07:00,
2013-09-05 08:08:00,77.2,76.6,28.95,NNW,344,0.0,0.0,98,0.00,,CLR,0.00,VWS V14.01,2013-09-05 12:08:00,
2013-09-05 08:09:00,77.2,76.6,28.90,NNW,344,0.0,0.0,98,0.00,,CLR,0.00,VWS V14.01,2013-09-05 12:09:00,
2013-09-05 08:10:00,77.4,76.8,28.90,NNW,344,0.0,1.0,98,0.00,,,0.00,VWS V14.01,2013-09-05 12:10:00,
2013-09-05 08:11:00,77.4,76.8,28.90,NNW,344,1.0,1.0,98,0.00,,CLR,0.00,VWS V14.01,2013-09-05 12:11:00,
2013-09-05 08:12:00,77.4,76.8,28.90,NNW,344,0.0,1.0,98,0.00,,CLR,0.00,VWS V14.01,2013-09-05 12:12:00,
2013-09-05 08:13:00,77.4,76.8,28.90,NNW,345,0.0,1.0,98,0.00,,CLR,0.00,VWS V14.01,2013-09-05 12:13:00,
2013-09-05 08:14:00,77.4,76.5,28.90,NNW,345,1.0,1.0,97,0.00,,CLR,0.00,VWS V14.01,2013-09-05 12:14:00,
2013-09-05 08:15:00,77.6,76.7,28.90,NNW,345,0.0,0.0,97,0.00,,,0.00,VWS V14.01,2013-09-05 12:15:00,
2013-09-05 08:16:00,77.6,76.7,28.90,NNW,345,0.0,1.0,97,0.00,,CLR,0.00,VWS V14.01,2013-09-05 12:16:00,
2013-09-05 08:17:00,77.6,76.7,28.90,NNW,345,1.0,1.0,97,0.00,,CLR,0.00,VWS V14.01,2013-09-05 12:17:00,
2013-09-05 08:18:00,77.6,76.7,28.87,NNW,345,1.0,1.0,97,0.00,,CLR,0.00,VWS V14.01,2013-09-05 12:18:00,
2013-09-05 08:19:00,77.7,76.8,28.87,NNW,345,0.0,1.0,97,0.00,,CLR,0.00,VWS V14.01,2013-09-05 12:19:00,
2013-09-05 08:20:00,77.7,76.8,28.87,NNW,345,0.0,0.0,97,0.00,,,0.00,VWS V14.01,2013-09-05 12:20:00,
2013-09-05 08:21:00,77.7,76.8,28.87,NNW,345,0.0,0.0,97,0.00,,CLR,0.00,VWS V14.01,2013-09-05 12:21:00,
2013-09-05 08:22:00,77.7,76.8,28.87,NNW,345,1.0,2.0,97,0.00,,CLR,0.00,VWS V14.01,2013-09-05 12:22:00,
2013-09-05 08:23:00,77.7,76.8,28.87,NNW,345,2.0,2.0,97,0.00,,CLR,0.00,VWS V14.01,2013-09-05 12:23:00,
2013-09-05 08:24:00,77.7,76.5,28.87,NNW,345,1.0,2.0,96,0.00,,CLR,0.00,VWS V14.01,2013-09-05 12:24:00,
2013-09-05 08:25:00,77.7,76.5,28.85,NNW,345,1.0,1.0,96,0.00,,,0.00,VWS V14.01,2013-09-05 12:25:00,
2013-09-05 08:26:00,77.7,76.5,28.85,NNW,345,1.0,1.0,96,0.00,,CLR,0.00,VWS V14.01,2013-09-05 12:26:00,
2013-09-05 08:27:00,77.9,76.7,28.85,NNW,345,0.0,3.0,96,0.00,,CLR,0.00,VWS V14.01,2013-09-05 12:27:00,
2013-09-05 08:28:00,77.9,76.7,28.92,NNW,345,1.0,1.0,96,0.00,,CLR,0.00,VWS V14.01,2013-09-05 12:28:00,
2013-09-05 08:29:00,77.9,76.7,28.92,NNW,345,2.0,2.0,96,0.00,,CLR,0.00,VWS V14.01,2013-09-05 12:29:00,
2013-09-05 08:30:00,78.1,76.9,28.92,NNW,345,1.0,2.0,96,0.00,,,0.00,VWS V14.01,2013-09-05 12:30:00,
2013-09-05 08:31:00,78.1,76.9,28.92,NNW,345,2.0,2.0,96,0.00,,CLR,0.00,VWS V14.01,2013-09-05 12:31:00,
2013-09-05 08:32:00,78.1,76.9,28.92,NNW,345,2.0,2.0,96,0.00,,CLR,0.00,VWS V14.01,2013-09-05 12:32:00,
2013-09-05 08:33:00,78.3,77.1,28.92,NNW,345,2.0,2.0,96,0.00,,CLR,0.00,VWS V14.01,2013-09-05 12:33:00,
2013-09-05 08:34:00,78.3,77.1,28.92,NNW,345,1.0,3.0,96,0.00,,CLR,0.00,VWS V14.01,2013-09-05 12:34:00,
2013-09-05 08:35:00,78.5,77.3,28.68,NNW,345,1.0,1.0,96,0.00,,FEW200,0.00,VWS V14.01,2013-09-05 12:35:00,
2013-09-05 08:36:00,78.5,77.3,28.87,NNW,345,1.0,3.0,96,0.00,,CLR,0.00,VWS V14.01,2013-09-05 12:36:00,
2013-09-05 08:37:00,78.5,77.3,28.68,NNW,345,0.0,2.0,96,0.00,,CLR,0.00,VWS V14.01,2013-09-05 12:37:00,
2013-09-05 08:38:00,78.6,77.4,28.68,NNW,345,3.0,3.0,96,0.00,,CLR,0.00,VWS V14.01,2013-09-05 12:38:00,
2013-09-05 08:39:00,78.6,77.4,28.68,North,5,2.0,3.0,96,0.00,,CLR,0.00,VWS V14.01,2013-09-05 12:39:00,
2013-09-05 08:40:00,78.8,77.2,28.62,North,5,2.0,2.0,95,0.00,,FEW200,0.00,VWS V14.01,2013-09-05 12:40:00,
2013-09-05 08:41:00,78.8,77.2,28.63,North,5,0.0,2.0,95,0.00,,CLR,0.00,VWS V14.01,2013-09-05 12:41:00,
2013-09-05 08:42:00,78.8,77.2,28.62,North,5,2.0,3.0,95,0.00,,CLR,0.00,VWS V14.01,2013-09-05 12:42:00,
2013-09-05 08:43:00,79.0,77.4,28.62,North,5,0.0,2.0,95,0.00,,CLR,0.00,VWS V14.01,2013-09-05 12:43:00,
2013-09-05 08:44:00,79.2,77.7,28.62,North,5,2.0,2.0,95,0.00,,CLR,0.00,VWS V14.01,2013-09-05 12:44:00,
2013-09-05 08:45:00,79.4,77.8,28.90,NNE,17,2.0,2.0,95,0.00,,FEW200,0.00,VWS V14.01,2013-09-05 12:45:00,
2013-09-05 08:46:00,79.4,77.8,28.90,NNE,12,2.0,3.0,95,0.00,,CLR,0.00,VWS V14.01,2013-09-05 12:46:00,
2013-09-05 08:47:00,79.6,78.1,28.90,North,355,5.0,5.0,95,0.00,,FEW045,0.00,VWS V14.01,2013-09-05 12:47:00,
2013-09-05 08:48:00,79.6,78.1,28.90,North,355,3.0,5.0,95,0.00,,CLR,0.00,VWS V14.01,2013-09-05 12:48:00,
2013-09-05 08:49:00,79.8,77.9,28.90,NNW,333,3.0,5.0,94,0.00,,CLR,0.00,VWS V14.01,2013-09-05 12:49:00,
2013-09-05 08:50:00,79.9,78.0,28.90,NW,322,5.0,5.0,94,0.00,,FEW200,0.00,VWS V14.01,2013-09-05 12:50:00,
2013-09-05 08:51:00,79.9,78.0,28.90,NW,322,5.0,5.0,94,0.00,,CLR,0.00,VWS V14.01,2013-09-05 12:51:00,
2013-09-05 08:52:00,79.9,78.0,28.90,NNW,338,2.0,5.0,94,0.00,,CLR,0.00,VWS V14.01,2013-09-05 12:52:00,
2013-09-05 08:53:00,80.1,78.2,28.90,North,360,2.0,2.0,94,0.00,,CLR,0.00,VWS V14.01,2013-09-05 12:53:00,
2013-09-05 08:54:00,80.1,78.2,28.90,NE,34,3.0,3.0,94,0.00,,CLR,0.00,VWS V14.01,2013-09-05 12:54:00,
2013-09-05 08:55:00,80.3,78.4,28.90,NW,316,4.0,4.0,94,0.00,,FEW200,0.00,VWS V14.01,2013-09-05 12:55:00,
2013-09-05 08:56:00,80.3,78.4,28.90,NW,316,4.0,4.0,94,0.00,,CLR,0.00,VWS V14.01,2013-09-05 12:56:00,
2013-09-05 08:57:00,80.5,78.3,28.90,NNW,327,4.0,4.0,93,0.00,,CLR,0.00,VWS V14.01,2013-09-05 12:57:00,
2013-09-05 08:58:00,80.5,78.3,28.90,NNW,328,2.0,4.0,93,0.00,,CLR,0.00,VWS V14.01,2013-09-05 12:58:00,
2013-09-05 08:59:00,80.5,78.3,28.38,NW,320,1.0,4.0,93,0.00,,CLR,0.00,VWS V14.01,2013-09-05 12:59:00,
2013-09-05 09:00:00,80.9,78.7,28.38,NNE,28,1.0,2.0,93,0.00,,FEW200,0.00,VWS V14.01,2013-09-05 13:00:00,
2013-09-05 09:01:00,80.9,78.7,28.38,NNE,28,1.0,2.0,93,0.00,,CLR,0.00,VWS V14.01,2013-09-05 13:01:00,
2013-09-05 09:02:00,80.9,78.7,28.38,NNE,28,1.0,3.0,93,0.00,,CLR,0.00,VWS V14.01,2013-09-05 13:02:00,
2013-09-05 09:03:00,81.1,78.9,28.38,NW,318,2.0,4.0,93,0.00,,CLR,0.00,VWS V14.01,2013-09-05 13:03:00,
2013-09-05 09:04:00,81.1,78.9,28.38,NW,318,2.0,2.0,93,0.00,,CLR,0.00,VWS V14.01,2013-09-05 13:04:00,
2013-09-05 09:05:00,81.1,78.6,28.38,NNW,330,4.0,4.0,92,0.00,,FEW200,0.00,VWS V14.01,2013-09-05 13:05:00,
2013-09-05 09:06:00,81.1,78.6,28.38,NNW,331,4.0,4.0,92,0.00,,CLR,0.00,VWS V14.01,2013-09-05 13:06:00,
2013-09-05 09:07:00,81.1,78.6,28.38,NNW,330,4.0,4.0,92,0.00,,CLR,0.00,VWS V14.01,2013-09-05 13:07:00,
2013-09-05 09:08:00,81.2,78.7,28.38,NNW,331,0.0,4.0,92,0.00,,CLR,0.00,VWS V14.01,2013-09-05 13:08:00,
2013-09-05 09:09:00,81.2,79.0,28.38,NE,39,4.0,4.0,93,0.00,,CLR,0.00,VWS V14.01,2013-09-05 13:09:00,
2013-09-05 09:10:00,81.4,78.9,28.50,North,5,3.0,4.0,92,0.00,,FEW200,0.00,VWS V14.01,2013-09-05 13:10:00,
2013-09-05 09:11:00,81.4,78.9,28.63,North,5,4.0,4.0,92,0.00,,CLR,0.00,VWS V14.01,2013-09-05 13:11:00,
2013-09-05 09:12:00,81.4,78.5,28.50,North,5,2.0,4.0,91,0.00,,CLR,0.00,VWS V14.01,2013-09-05 13:12:00,
2013-09-05 09:13:00,81.4,78.9,28.51,North,5,1.0,2.0,92,0.00,,CLR,0.00,VWS V14.01,2013-09-05 13:13:00,
2013-09-05 09:14:00,81.4,78.9,28.51,North,5,2.0,2.0,92,0.00,,CLR,0.00,VWS V14.01,2013-09-05 13:14:00,
2013-09-05 09:15:00,81.8,79.2,27.97,North,5,2.0,2.0,92,0.00,,FEW200,0.00,VWS V14.01,2013-09-05 13:15:00,
2013-09-05 09:16:00,81.8,79.2,27.97,North,5,2.0,2.0,92,0.00,,CLR,0.00,VWS V14.01,2013-09-05 13:16:00,
2013-09-05 09:17:00,81.8,79.2,27.96,North,5,1.0,2.0,92,0.00,,CLR,0.00,VWS V14.01,2013-09-05 13:17:00,
2013-09-05 09:18:00,81.8,78.9,27.96,NNE,24,2.0,2.0,91,0.00,,CLR,0.00,VWS V14.01,2013-09-05 13:18:00,
2013-09-05 09:19:00,82.0,79.1,27.96,NNE,26,1.0,2.0,91,0.00,,FEW045,0.00,VWS V14.01,2013-09-05 13:19:00,
2013-09-05 09:20:00,82.4,79.5,27.96,NNE,26,2.0,2.0,91,0.00,,FEW200,0.00,VWS V14.01,2013-09-05 13:20:00,
2013-09-05 09:21:00,82.4,79.5,27.96,NNE,26,2.0,2.0,91,0.00,,CLR,0.00,VWS V14.01,2013-09-05 13:21:00,
2013-09-05 09:22:00,82.4,79.5,27.96,NNE,26,1.0,2.0,91,0.00,,CLR,0.00,VWS V14.01,2013-09-05 13:22:00,
2013-09-05 09:23:00,82.6,79.7,27.96,NNE,26,1.0,2.0,91,0.00,,FEW045,0.00,VWS V14.01,2013-09-05 13:23:00,
2013-09-05 09:24:00,82.6,79.7,27.96,NNE,26,1.0,1.0,91,0.00,,CLR,0.00,VWS V14.01,2013-09-05 13:24:00,
2013-09-05 09:25:00,82.6,79.4,27.96,NNE,26,2.0,4.0,90,0.00,,FEW200,0.00,VWS V14.01,2013-09-05 13:25:00,
2013-09-05 09:26:00,82.6,79.4,27.96,NNE,26,2.0,4.0,90,0.00,,CLR,0.00,VWS V14.01,2013-09-05 13:26:00,
2013-09-05 09:27:00,82.4,79.2,27.96,NNE,26,3.0,3.0,90,0.00,,CLR,0.00,VWS V14.01,2013-09-05 13:27:00,
2013-09-05 09:28:00,82.4,79.2,27.96,NNE,26,1.0,3.0,90,0.00,,CLR,0.00,VWS V14.01,2013-09-05 13:28:00,
2013-09-05 09:29:00,82.6,79.4,27.96,NNE,26,1.0,3.0,90,0.00,,CLR,0.00,VWS V14.01,2013-09-05 13:29:00,
2013-09-05 09:30:00,82.6,79.4,27.96,NNE,26,2.0,3.0,90,0.00,,FEW200,0.00,VWS V14.01,2013-09-05 13:30:00,
2013-09-05 09:31:00,82.6,79.4,27.96,NNE,26,3.0,4.0,90,0.00,,CLR,0.00,VWS V14.01,2013-09-05 13:31:00,
2013-09-05 09:32:00,82.6,79.4,27.96,WNW,290,4.0,4.0,90,0.00,,CLR,0.00,VWS V14.01,2013-09-05 13:32:00,
2013-09-05 09:33:00,82.6,79.4,27.96,NNW,331,2.0,5.0,90,0.00,,CLR,0.00,VWS V14.01,2013-09-05 13:33:00,
2013-09-05 09:34:00,82.6,79.4,27.96,NNW,331,2.0,3.0,90,0.00,,CLR,0.00,VWS V14.01,2013-09-05 13:34:00,
2013-09-05 09:35:00,82.6,79.4,27.96,North,351,2.0,3.0,90,0.00,,FEW200,0.00,VWS V14.01,2013-09-05 13:35:00,
2013-09-05 09:36:00,82.6,79.4,27.96,North,351,3.0,4.0,90,0.00,,CLR,0.00,VWS V14.01,2013-09-05 13:36:00,
2013-09-05 09:37:00,82.6,79.4,27.96,NNW,329,5.0,5.0,90,0.00,,CLR,0.00,VWS V14.01,2013-09-05 13:37:00,
2013-09-05 09:38:00,82.6,79.4,27.96,NNW,329,1.0,5.0,90,0.00,,CLR,0.00,VWS V14.01,2013-09-05 13:38:00,
2013-09-05 09:39:00,82.6,79.4,27.96,NNW,335,2.0,3.0,90,0.00,,CLR,0.00,VWS V14.01,2013-09-05 13:39:00,
2013-09-05 09:40:00,82.6,79.0,27.96,NW,325,2.0,3.0,89,0.00,,FEW200,0.00,VWS V14.01,2013-09-05 13:40:00,
2013-09-05 09:41:00,82.6,79.0,27.96,NW,325,2.0,3.0,89,0.00,,CLR,0.00,VWS V14.01,2013-09-05 13:41:00,
2013-09-05 09:42:00,82.6,79.0,27.96,NW,317,3.0,3.0,89,0.00,,CLR,0.00,VWS V14.01,2013-09-05 13:42:00,
2013-09-05 09:43:00,82.8,79.6,27.83,NW,321,4.0,4.0,90,0.00,,CLR,0.00,VWS V14.01,2013-09-05 13:43:00,
2013-09-05 09:44:00,82.6,79.0,27.83,NW,321,3.0,4.0,89,0.00,,CLR,0.00,VWS V14.01,2013-09-05 13:44:00,
2013-09-05 09:45:00,82.6,79.0,27.83,NW,321,2.0,3.0,89,0.00,,FEW200,0.00,VWS V14.01,2013-09-05 13:45:00,
2013-09-05 09:46:00,82.6,79.0,27.83,NW,321,2.0,3.0,89,0.00,,CLR,0.00,VWS V14.01,2013-09-05 13:46:00,
2013-09-05 09:47:00,82.6,79.0,27.83,NW,321,3.0,3.0,89,0.00,,CLR,0.00,VWS V14.01,2013-09-05 13:47:00,
2013-09-05 09:48:00,82.6,79.0,27.83,NW,321,2.0,4.0,89,0.00,,CLR,0.00,VWS V14.01,2013-09-05 13:48:00,
2013-09-05 09:49:00,82.4,78.8,27.83,NW,322,3.0,3.0,89,0.00,,CLR,0.00,VWS V14.01,2013-09-05 13:49:00,
2013-09-05 09:50:00,82.4,78.8,27.83,NW,323,1.0,3.0,89,0.00,,FEW200,0.00,VWS V14.01,2013-09-05 13:50:00,
2013-09-05 09:51:00,82.4,78.8,27.83,NW,323,1.0,3.0,89,0.00,,CLR,0.00,VWS V14.01,2013-09-05 13:51:00,
2013-09-05 09:52:00,82.4,78.8,27.83,NNW,347,1.0,3.0,89,0.00,,CLR,0.00,VWS V14.01,2013-09-05 13:52:00,
2013-09-05 09:53:00,82.4,78.8,27.83,NNW,346,0.0,3.0,89,0.00,,CLR,0.00,VWS V14.01,2013-09-05 13:53:00,
2013-09-05 09:54:00,82.4,78.8,27.83,NNW,347,1.0,2.0,89,0.00,,CLR,0.00,VWS V14.01,2013-09-05 13:54:00,
2013-09-05 09:55:00,82.6,79.0,27.83,NNW,347,0.0,3.0,89,0.00,,FEW200,0.00,VWS V14.01,2013-09-05 13:55:00,
2013-09-05 09:56:00,82.6,79.0,27.83,NNW,347,0.0,3.0,89,0.00,,CLR,0.00,VWS V14.01,2013-09-05 13:56:00,
2013-09-05 09:57:00,82.6,79.4,27.83,North,350,0.0,1.0,90,0.00,,CLR,0.00,VWS V14.01,2013-09-05 13:57:00,
2013-09-05 09:58:00,82.6,79.4,27.83,North,349,2.0,2.0,90,0.00,,CLR,0.00,VWS V14.01,2013-09-05 13:58:00,
2013-09-05 09:59:00,82.6,79.0,27.83,North,349,2.0,2.0,89,0.00,,CLR,0.00,VWS V14.01,2013-09-05 13:59:00,
2013-09-05 10:00:00,82.8,79.2,27.83,North,349,2.0,2.0,89,0.00,,FEW200,0.00,VWS V14.01,2013-09-05 14:00:00,
2013-09-05 10:01:00,82.8,79.2,27.83,North,349,2.0,2.0,89,0.00,,CLR,0.00,VWS V14.01,2013-09-05 14:01:00,
2013-09-05 10:02:00,82.8,79.2,27.83,North,349,1.0,2.0,89,0.00,,CLR,0.00,VWS V14.01,2013-09-05 14:02:00,
2013-09-05 10:03:00,82.8,79.2,27.83,North,349,1.0,2.0,89,0.00,,FEW045,0.00,VWS V14.01,2013-09-05 14:03:00,
2013-09-05 10:04:00,82.8,79.2,27.83,North,349,0.0,1.0,89,0.00,,CLR,0.00,VWS V14.01,2013-09-05 14:04:00,
2013-09-05 10:05:00,82.8,79.2,27.83,North,349,3.0,3.0,89,0.00,,FEW200,0.00,VWS V14.01,2013-09-05 14:05:00,
2013-09-05 10:06:00,82.8,79.2,27.83,North,349,3.0,3.0,89,0.00,,CLR,0.00,VWS V14.01,2013-09-05 14:06:00,
2013-09-05 10:07:00,82.8,79.2,27.83,North,349,2.0,3.0,89,0.00,,CLR,0.00,VWS V14.01,2013-09-05 14:07:00,
2013-09-05 10:08:00,82.8,79.2,27.83,North,349,2.0,3.0,89,0.00,,CLR,0.00,VWS V14.01,2013-09-05 14:08:00,
2013-09-05 10:09:00,82.8,78.9,27.83,North,349,0.0,2.0,88,0.00,,CLR,0.00,VWS V14.01,2013-09-05 14:09:00,
2013-09-05 10:10:00,83.0,79.4,27.83,North,349,0.0,1.0,89,0.00,,FEW200,0.00,VWS V14.01,2013-09-05 14:10:00,
2013-09-05 10:11:00,83.0,79.4,27.83,North,349,0.0,1.0,89,0.00,,CLR,0.00,VWS V14.01,2013-09-05 14:11:00,
2013-09-05 10:12:00,83.0,79.4,27.83,North,349,0.0,2.0,89,0.00,,CLR,0.00,VWS V14.01,2013-09-05 14:12:00,
2013-09-05 10:13:00,83.0,79.4,27.83,North,349,0.0,0.0,89,0.00,,CLR,0.00,VWS V14.01,2013-09-05 14:13:00,
2013-09-05 10:14:00,83.2,79.6,27.83,North,349,1.0,1.0,89,0.00,,CLR,0.00,VWS V14.01,2013-09-05 14:14:00,
2013-09-05 10:15:00,83.4,79.8,27.83,North,349,2.0,2.0,89,0.00,,FEW200,0.00,VWS V14.01,2013-09-05 14:15:00,
2013-09-05 10:16:00,83.4,79.8,27.83,North,349,2.0,2.0,89,0.00,,CLR,0.00,VWS V14.01,2013-09-05 14:16:00,
2013-09-05 10:17:00,83.4,79.5,27.83,North,349,2.0,2.0,88,0.00,,CLR,0.00,VWS V14.01,2013-09-05 14:17:00,
2013-09-05 10:18:00,83.4,79.5,27.83,North,349,2.0,2.0,88,0.00,,CLR,0.00,VWS V14.01,2013-09-05 14:18:00,
2013-09-05 10:19:00,83.4,79.5,27.83,North,349,1.0,3.0,88,0.00,,CLR,0.00,VWS V14.01,2013-09-05 14:19:00,
2013-09-05 10:20:00,83.4,79.5,27.83,North,349,0.0,1.0,88,0.00,,FEW200,0.00,VWS V14.01,2013-09-05 14:20:00,
2013-09-05 10:21:00,83.4,79.5,27.83,North,349,0.0,1.0,88,0.00,,FEW045,0.00,VWS V14.01,2013-09-05 14:21:00,
2013-09-05 10:22:00,83.6,79.7,27.83,North,5,0.0,0.0,88,0.00,,CLR,0.00,VWS V14.01,2013-09-05 14:22:00,
2013-09-05 10:23:00,83.8,79.9,27.83,North,5,1.0,1.0,88,0.00,,CLR,0.00,VWS V14.01,2013-09-05 14:23:00,
2013-09-05 10:24:00,84.0,80.1,27.83,NE,50,2.0,2.0,88,0.00,,CLR,0.00,VWS V14.01,2013-09-05 14:24:00,
2013-09-05 10:25:00,84.1,80.2,27.83,East,94,0.0,1.0,88,0.00,,FEW200,0.00,VWS V14.01,2013-09-05 14:25:00,
2013-09-05 10:26:00,84.3,80.4,27.83,East,94,1.0,1.0,88,0.00,,CLR,0.00,VWS V14.01,2013-09-05 14:26:00,
2013-09-05 10:27:00,84.3,80.4,27.83,East,94,1.0,2.0,88,0.00,,CLR,0.00,VWS V14.01,2013-09-05 14:27:00,
2013-09-05 10:28:00,84.5,80.2,27.83,East,94,0.0,1.0,87,0.00,,CLR,0.00,VWS V14.01,2013-09-05 14:28:00,
2013-09-05 10:29:00,84.7,80.4,27.83,East,94,2.0,2.0,87,0.00,,CLR,0.00,VWS V14.01,2013-09-05 14:29:00,
2013-09-05 10:30:00,84.9,80.2,27.83,SSE,150,4.0,4.0,86,0.00,,FEW200,0.00,VWS V14.01,2013-09-05 14:30:00,
2013-09-05 10:31:00,84.9,80.2,27.83,SSE,150,4.0,4.0,86,0.00,,CLR,0.00,VWS V14.01,2013-09-05 14:31:00,
2013-09-05 10:32:00,84.9,79.9,27.83,SSE,153,3.0,4.0,85,0.00,,CLR,0.00,VWS V14.01,2013-09-05 14:32:00,
2013-09-05 10:33:00,84.9,79.9,27.83,SSE,149,5.0,5.0,85,0.00,,FEW045,0.00,VWS V14.01,2013-09-05 14:33:00,
2013-09-05 10:34:00,84.9,79.5,27.83,SE,146,4.0,5.0,84,0.00,,CLR,0.00,VWS V14.01,2013-09-05 14:34:00,
2013-09-05 10:35:00,84.9,79.5,27.83,SSE,150,2.0,4.0,84,0.00,,CLR,0.00,VWS V14.01,2013-09-05 14:35:00,
2013-09-05 10:36:00,84.9,79.5,27.83,SSE,150,2.0,4.0,84,0.00,,CLR,0.00,VWS V14.01,2013-09-05 14:36:00,
2013-09-05 10:37:00,84.9,79.5,27.83,SSE,150,4.0,4.0,84,0.00,,CLR,0.00,VWS V14.01,2013-09-05 14:37:00,
2013-09-05 10:38:00,84.9,79.5,27.83,SSE,148,3.0,4.0,84,0.00,,CLR,0.00,VWS V14.01,2013-09-05 14:38:00,
2013-09-05 10:39:00,84.9,79.5,27.83,SE,133,4.0,4.0,84,0.00,,CLR,0.00,VWS V14.01,2013-09-05 14:39:00,
2013-09-05 10:40:00,84.7,79.3,27.83,SE,131,3.0,4.0,84,0.00,,CLR,0.00,VWS V14.01,2013-09-05 14:40:00,
2013-09-05 10:41:00,84.7,79.3,27.83,SE,131,3.0,4.0,84,0.00,,CLR,0.00,VWS V14.01,2013-09-05 14:41:00,
2013-09-05 10:42:00,84.7,79.3,27.83,SE,136,3.0,4.0,84,0.00,,CLR,0.00,VWS V14.01,2013-09-05 14:42:00,
2013-09-05 10:43:00,84.7,79.3,27.83,SE,136,3.0,4.0,84,0.00,,CLR,0.00,VWS V14.01,2013-09-05 14:43:00,
2013-09-05 10:44:00,84.7,79.3,27.83,SE,138,4.0,4.0,84,0.00,,CLR,0.00,VWS V14.01,2013-09-05 14:44:00,
2013-09-05 10:45:00,84.7,79.3,27.83,South,170,3.0,4.0,84,0.00,,CLR,0.00,VWS V14.01,2013-09-05 14:45:00,
2013-09-05 10:46:00,84.7,79.7,27.83,South,170,3.0,4.0,85,0.00,,CLR,0.00,VWS V14.01,2013-09-05 14:46:00,
2013-09-05 10:47:00,84.7,79.7,27.83,SSE,159,4.0,4.0,85,0.00,,CLR,0.00,VWS V14.01,2013-09-05 14:47:00,
2013-09-05 10:48:00,84.7,79.3,27.83,SSE,151,3.0,5.0,84,0.00,,CLR,0.00,VWS V14.01,2013-09-05 14:48:00,
2013-09-05 10:49:00,84.7,79.3,27.83,SSE,150,3.0,3.0,84,0.00,,CLR,0.00,VWS V14.01,2013-09-05 14:49:00,
2013-09-05 10:50:00,84.7,79.3,27.83,SSE,153,3.0,4.0,84,0.00,,CLR,0.00,VWS V14.01,2013-09-05 14:50:00,
2013-09-05 10:51:00,84.7,79.3,27.83,SSE,153,3.0,4.0,84,0.00,,CLR,0.00,VWS V14.01,2013-09-05 14:51:00,
2013-09-05 10:52:00,84.7,79.3,27.83,SSE,151,3.0,3.0,84,0.00,,CLR,0.00,VWS V14.01,2013-09-05 14:52:00,
2013-09-05 10:53:00,84.9,79.5,27.83,SSE,157,5.0,5.0,84,0.00,,CLR,0.00,VWS V14.01,2013-09-05 14:53:00,
2013-09-05 10:54:00,84.9,79.5,27.83,SE,134,5.0,5.0,84,0.00,,CLR,0.00,VWS V14.01,2013-09-05 14:54:00,
2013-09-05 10:55:00,84.9,79.5,27.06,SE,144,4.0,5.0,84,0.00,,CLR,0.00,VWS V14.01,2013-09-05 14:55:00,
2013-09-05 10:56:00,84.9,79.5,27.06,SE,140,4.0,5.0,84,0.00,,CLR,0.00,VWS V14.01,2013-09-05 14:56:00,
2013-09-05 10:57:00,84.9,79.5,27.06,SE,140,3.0,4.0,84,0.00,,CLR,0.00,VWS V14.01,2013-09-05 14:57:00,
2013-09-05 10:58:00,84.9,79.5,27.06,SE,140,4.0,4.0,84,0.00,,CLR,0.00,VWS V14.01,2013-09-05 14:58:00,
2013-09-05 10:59:00,84.9,79.5,27.06,SE,138,4.0,5.0,84,0.00,,CLR,0.00,VWS V14.01,2013-09-05 14:59:00,
2013-09-05 11:00:00,85.1,79.7,27.06,SSE,153,3.0,4.0,84,0.00,,CLR,0.00,VWS V14.01,2013-09-05 15:00:00,
2013-09-05 11:01:00,85.1,79.7,27.06,SE,142,3.0,4.0,84,0.00,,CLR,0.00,VWS V14.01,2013-09-05 15:01:00,
2013-09-05 11:02:00,85.1,79.7,27.06,SE,144,4.0,4.0,84,0.00,,CLR,0.00,VWS V14.01,2013-09-05 15:02:00,
2013-09-05 11:03:00,85.1,79.4,27.06,SE,141,3.0,4.0,83,0.00,,CLR,0.00,VWS V14.01,2013-09-05 15:03:00,
2013-09-05 11:04:00,85.1,79.7,27.06,SE,144,5.0,5.0,84,0.00,,CLR,0.00,VWS V14.01,2013-09-05 15:04:00,
2013-09-05 11:05:00,85.1,79.4,27.06,SE,132,4.0,4.0,83,0.00,,CLR,0.00,VWS V14.01,2013-09-05 15:05:00,
2013-09-05 11:06:00,85.1,79.4,27.06,SE,132,2.0,4.0,83,0.00,,CLR,0.00,VWS V14.01,2013-09-05 15:06:00,
2013-09-05 11:07:00,85.1,79.7,27.06,SE,126,5.0,5.0,84,0.00,,CLR,0.00,VWS V14.01,2013-09-05 15:07:00,
2013-09-05 11:08:00,85.1,79.7,27.06,SE,134,4.0,6.0,84,0.00,,CLR,0.00,VWS V14.01,2013-09-05 15:08:00,
2013-09-05 11:09:00,85.1,79.7,27.06,SE,136,4.0,5.0,84,0.00,,CLR,0.00,VWS V14.01,2013-09-05 15:09:00,
2013-09-05 11:10:00,85.1,79.7,27.06,SSE,150,4.0,6.0,84,0.00,,CLR,0.00,VWS V14.01,2013-09-05 15:10:00,
2013-09-05 11:11:00,85.1,79.7,27.06,SSE,150,4.0,6.0,84,0.00,,CLR,0.00,VWS V14.01,2013-09-05 15:11:00,
2013-09-05 11:12:00,84.9,79.5,27.06,SSE,155,4.0,4.0,84,0.00,,FEW045,0.00,VWS V14.01,2013-09-05 15:12:00,
2013-09-05 11:13:00,85.1,79.7,27.06,SE,137,4.0,5.0,84,0.00,,CLR,0.00,VWS V14.01,2013-09-05 15:13:00,
2013-09-05 11:14:00,85.1,79.7,27.06,SE,130,4.0,4.0,84,0.00,,CLR,0.00,VWS V14.01,2013-09-05 15:14:00,
2013-09-05 11:15:00,85.1,79.7,27.06,SE,136,3.0,7.0,84,0.00,,CLR,0.00,VWS V14.01,2013-09-05 15:15:00,
2013-09-05 11:16:00,85.1,79.7,27.06,SE,136,3.0,7.0,84,0.00,,CLR,0.00,VWS V14.01,2013-09-05 15:16:00,
2013-09-05 11:17:00,85.1,79.7,27.06,South,169,5.0,6.0,84,0.00,,CLR,0.00,VWS V14.01,2013-09-05 15:17:00,
2013-09-05 11:18:00,85.1,79.7,27.06,SSE,168,3.0,5.0,84,0.00,,CLR,0.00,VWS V14.01,2013-09-05 15:18:00,
2013-09-05 11:19:00,85.1,79.7,27.06,South,179,3.0,4.0,84,0.00,,CLR,0.00,VWS V14.01,2013-09-05 15:19:00,
2013-09-05 11:20:00,85.3,79.9,27.06,SE,141,5.0,5.0,84,0.00,,CLR,0.00,VWS V14.01,2013-09-05 15:20:00,
2013-09-05 11:21:00,85.3,79.9,27.06,SE,140,4.0,5.0,84,0.00,,CLR,0.00,VWS V14.01,2013-09-05 15:21:00,
2013-09-05 11:22:00,85.3,79.9,27.06,South,178,3.0,4.0,84,0.00,,CLR,0.00,VWS V14.01,2013-09-05 15:22:00,
2013-09-05 11:23:00,85.3,79.9,27.06,SSE,165,4.0,5.0,84,0.00,,CLR,0.00,VWS V14.01,2013-09-05 15:23:00,
2013-09-05 11:24:00,85.3,79.6,27.06,SSE,165,2.0,4.0,83,0.00,,CLR,0.00,VWS V14.01,2013-09-05 15:24:00,
2013-09-05 11:25:00,85.3,79.6,27.06,South,171,3.0,4.0,83,0.00,,CLR,0.00,VWS V14.01,2013-09-05 15:25:00,
2013-09-05 11:26:00,85.3,79.6,27.06,South,176,4.0,4.0,83,0.00,,CLR,0.00,VWS V14.01,2013-09-05 15:26:00,
2013-09-05 11:27:00,85.3,79.6,27.06,SSE,168,3.0,4.0,83,0.00,,CLR,0.00,VWS V14.01,2013-09-05 15:27:00,
2013-09-05 11:28:00,85.5,80.1,27.06,SSE,168,3.0,3.0,84,0.00,,CLR,0.00,VWS V14.01,2013-09-05 15:28:00,
2013-09-05 11:29:00,85.5,79.8,27.06,SSE,150,3.0,5.0,83,0.00,,CLR,0.00,VWS V14.01,2013-09-05 15:29:00,
2013-09-05 11:30:00,85.7,79.9,27.06,SSE,157,3.0,4.0,83,0.00,,CLR,0.00,VWS V14.01,2013-09-05 15:30:00,
2013-09-05 11:31:00,85.7,79.9,27.06,SSE,157,2.0,4.0,83,0.00,,CLR,0.00,VWS V14.01,2013-09-05 15:31:00,
2013-09-05 11:32:00,85.7,79.9,27.06,SSE,157,4.0,4.0,83,0.00,,CLR,0.00,VWS V14.01,2013-09-05 15:32:00,
2013-09-05 11:33:00,85.7,79.9,27.06,SSE,157,3.0,4.0,83,0.00,,CLR,0.00,VWS V14.01,2013-09-05 15:33:00,
2013-09-05 11:34:00,85.7,79.9,27.06,SSE,158,3.0,3.0,83,0.00,,CLR,0.00,VWS V14.01,2013-09-05 15:34:00,
2013-09-05 11:35:00,85.7,79.9,27.06,South,169,3.0,4.0,83,0.00,,CLR,0.00,VWS V14.01,2013-09-05 15:35:00,
2013-09-05 11:36:00,85.7,79.9,27.06,South,169,3.0,4.0,83,0.00,,CLR,0.00,VWS V14.01,2013-09-05 15:36:00,
2013-09-05 11:37:00,85.7,79.6,27.06,South,173,2.0,3.0,82,0.00,,CLR,0.00,VWS V14.01,2013-09-05 15:37:00,
2013-09-05 11:38:00,85.7,79.9,27.06,SSW,199,3.0,5.0,83,0.00,,CLR,0.00,VWS V14.01,2013-09-05 15:38:00,
2013-09-05 11:39:00,85.9,79.8,27.06,South,181,3.0,4.0,82,0.00,,CLR,0.00,VWS V14.01,2013-09-05 15:39:00,
2013-09-05 11:40:00,85.9,79.8,26.33,South,175,2.0,4.0,82,0.00,,SCT200,0.00,VWS V14.01,2013-09-05 15:40:00,
2013-09-05 11:41:00,85.9,79.8,26.33,South,175,3.0,4.0,82,0.00,,CLR,0.00,VWS V14.01,2013-09-05 15:41:00,
2013-09-05 11:42:00,86.1,80.0,26.33,SSE,166,5.0,5.0,82,0.00,,CLR,0.00,VWS V14.01,2013-09-05 15:42:00,
2013-09-05 11:43:00,86.1,80.0,26.33,SSE,168,3.0,5.0,82,0.00,,CLR,0.00,VWS V14.01,2013-09-05 15:43:00,
2013-09-05 11:44:00,86.1,80.0,26.33,South,175,4.0,4.0,82,0.00,,CLR,0.00,VWS V14.01,2013-09-05 15:44:00,
2013-09-05 11:45:00,85.9,79.4,26.36,South,170,2.0,4.0,81,0.00,,SCT200,0.00,VWS V14.01,2013-09-05 15:45:00,
2013-09-05 11:46:00,85.9,79.4,26.36,South,170,2.0,4.0,81,0.00,,CLR,0.00,VWS V14.01,2013-09-05 15:46:00,
2013-09-05 11:47:00,85.9,79.8,26.36,SSE,157,4.0,4.0,82,0.00,,CLR,0.00,VWS V14.01,2013-09-05 15:47:00,
2013-09-05 11:48:00,86.1,80.0,26.36,South,172,3.0,4.0,82,0.00,,CLR,0.00,VWS V14.01,2013-09-05 15:48:00,
2013-09-05 11:49:00,86.1,80.0,26.36,SSE,159,3.0,4.0,82,0.00,,CLR,0.00,VWS V14.01,2013-09-05 15:49:00,
2013-09-05 11:50:00,86.1,80.0,26.36,South,169,3.0,4.0,82,0.00,,SCT200,0.00,VWS V14.01,2013-09-05 15:50:00,
2013-09-05 11:51:00,86.1,80.0,26.36,SSE,165,4.0,4.0,82,0.00,,CLR,0.00,VWS V14.01,2013-09-05 15:51:00,
2013-09-05 11:52:00,86.1,79.6,26.36,SSE,163,4.0,4.0,81,0.00,,CLR,0.00,VWS V14.01,2013-09-05 15:52:00,
2013-09-05 11:53:00,86.1,80.0,26.36,SE,142,3.0,5.0,82,0.00,,CLR,0.00,VWS V14.01,2013-09-05 15:53:00,
2013-09-05 11:54:00,86.1,79.6,26.36,South,180,4.0,4.0,81,0.00,,CLR,0.00,VWS V14.01,2013-09-05 15:54:00,
2013-09-05 11:55:00,86.1,79.6,26.36,SSE,153,5.0,5.0,81,0.00,,SCT200,0.00,VWS V14.01,2013-09-05 15:55:00,
2013-09-05 11:56:00,86.1,79.6,26.36,SSE,153,3.0,5.0,81,0.00,,CLR,0.00,VWS V14.01,2013-09-05 15:56:00,
2013-09-05 11:57:00,86.1,79.6,26.36,SSE,157,3.0,5.0,81,0.00,,CLR,0.00,VWS V14.01,2013-09-05 15:57:00,
2013-09-05 11:58:00,86.1,79.6,26.36,South,178,5.0,5.0,81,0.00,,CLR,0.00,VWS V14.01,2013-09-05 15:58:00,
2013-09-05 11:59:00,86.1,80.0,26.36,South,170,3.0,5.0,82,0.00,,CLR,0.00,VWS V14.01,2013-09-05 15:59:00,
2013-09-05 12:00:00,86.1,79.6,26.36,SSE,168,3.0,4.0,81,0.00,,SCT200,0.00,VWS V14.01,2013-09-05 16:00:00,
2013-09-05 12:01:00,86.1,79.6,26.36,SSE,168,2.0,4.0,81,0.00,,CLR,0.00,VWS V14.01,2013-09-05 16:01:00,
2013-09-05 12:02:00,86.1,79.6,26.36,South,173,3.0,5.0,81,0.00,,CLR,0.00,VWS V14.01,2013-09-05 16:02:00,
2013-09-05 12:03:00,86.1,79.6,26.36,South,173,3.0,3.0,81,0.00,,CLR,0.00,VWS V14.01,2013-09-05 16:03:00,
2013-09-05 12:04:00,86.1,80.0,26.36,South,173,2.0,3.0,82,0.00,,CLR,0.00,VWS V14.01,2013-09-05 16:04:00,
2013-09-05 12:05:00,86.3,79.8,26.36,South,172,2.0,2.0,81,0.00,,SCT200,0.00,VWS V14.01,2013-09-05 16:05:00,
2013-09-05 12:06:00,86.3,79.8,26.36,South,172,3.0,3.0,81,0.00,,CLR,0.00,VWS V14.01,2013-09-05 16:06:00,
2013-09-05 12:07:00,86.3,80.2,26.36,South,171,4.0,4.0,82,0.00,,CLR,0.00,VWS V14.01,2013-09-05 16:07:00,
2013-09-05 12:08:00,86.5,80.0,26.36,SSE,162,3.0,5.0,81,0.00,,CLR,0.00,VWS V14.01,2013-09-05 16:08:00,
2013-09-05 12:09:00,86.5,79.6,26.05,SSE,153,4.0,4.0,80,0.00,,CLR,0.00,VWS V14.01,2013-09-05 16:09:00,
2013-09-05 12:10:00,86.3,79.4,26.07,SE,144,4.0,4.0,80,0.00,,SCT200,0.00,VWS V14.01,2013-09-05 16:10:00,
2013-09-05 12:11:00,86.3,79.4,26.07,SE,144,4.0,4.0,80,0.00,,CLR,0.00,VWS V14.01,2013-09-05 16:11:00,
2013-09-05 12:12:00,86.3,79.4,26.07,South,181,4.0,4.0,80,0.00,,CLR,0.00,VWS V14.01,2013-09-05 16:12:00,
2013-09-05 12:13:00,86.3,79.4,26.07,South,184,3.0,4.0,80,0.00,,FEW045,0.00,VWS V14.01,2013-09-05 16:13:00,
2013-09-05 12:14:00,86.3,79.8,26.07,South,173,4.0,4.0,81,0.00,,CLR,0.00,VWS V14.01,2013-09-05 16:14:00,
2013-09-05 12:15:00,86.3,79.4,26.07,SSE,149,3.0,5.0,80,0.00,,SCT200,0.00,VWS V14.01,2013-09-05 16:15:00,
2013-09-05 12:16:00,86.3,79.4,26.07,SSE,149,4.0,5.0,80,0.00,,CLR,0.00,VWS V14.01,2013-09-05 16:16:00,
2013-09-05 12:17:00,86.3,79.8,26.07,South,190,4.0,5.0,81,0.00,,CLR,0.00,VWS V14.01,2013-09-05 16:17:00,
2013-09-05 12:18:00,86.1,79.6,26.07,South,178,4.0,5.0,81,0.00,,CLR,0.00,VWS V14.01,2013-09-05 16:18:00,
2013-09-05 12:19:00,86.1,79.6,26.07,South,169,4.0,4.0,81,0.00,,CLR,0.00,VWS V14.01,2013-09-05 16:19:00,
2013-09-05 12:20:00,86.1,79.6,26.07,South,187,3.0,5.0,81,0.00,,SCT200,0.00,VWS V14.01,2013-09-05 16:20:00,
2013-09-05 12:21:00,86.1,80.0,26.07,South,184,4.0,5.0,82,0.00,,CLR,0.00,VWS V14.01,2013-09-05 16:21:00,
2013-09-05 12:22:00,86.1,80.0,26.07,South,183,4.0,4.0,82,0.00,,CLR,0.00,VWS V14.01,2013-09-05 16:22:00,
2013-09-05 12:23:00,86.1,79.6,26.07,South,172,4.0,4.0,81,0.00,,CLR,0.00,VWS V14.01,2013-09-05 16:23:00,
2013-09-05 12:24:00,86.1,79.6,25.43,South,173,3.0,4.0,81,0.00,,CLR,0.00,VWS V14.01,2013-09-05 16:24:00,
2013-09-05 12:25:00,85.9,79.4,25.65,SSE,168,3.0,5.0,81,0.00,,SCT200,0.00,VWS V14.01,2013-09-05 16:25:00,
2013-09-05 12:26:00,85.9,79.4,25.65,South,182,4.0,5.0,81,0.00,,CLR,0.00,VWS V14.01,2013-09-05 16:26:00,
2013-09-05 12:27:00,85.9,79.8,25.65,SSE,155,4.0,4.0,82,0.00,,CLR,0.00,VWS V14.01,2013-09-05 16:27:00,
2013-09-05 12:28:00,85.9,79.8,25.65,South,178,4.0,6.0,82,0.00,,CLR,0.00,VWS V14.01,2013-09-05 16:28:00,
2013-09-05 12:29:00,86.1,80.0,25.65,SSE,147,4.0,4.0,82,0.00,,CLR,0.00,VWS V14.01,2013-09-05 16:29:00,
2013-09-05 12:30:00,86.1,80.0,25.65,SSE,166,5.0,6.0,82,0.00,,SCT200,0.00,VWS V14.01,2013-09-05 16:30:00,
2013-09-05 12:31:00,86.1,80.0,25.65,SSE,165,5.0,6.0,82,0.00,,CLR,0.00,VWS V14.01,2013-09-05 16:31:00,
2013-09-05 12:32:00,86.1,80.0,25.65,SSE,164,5.0,5.0,82,0.00,,CLR,0.00,VWS V14.01,2013-09-05 16:32:00,
2013-09-05 12:33:00,85.9,79.8,25.65,SSE,156,4.0,5.0,82,0.00,,CLR,0.00,VWS V14.01,2013-09-05 16:33:00,
2013-09-05 12:34:00,85.9,79.8,25.65,South,175,5.0,5.0,82,0.00,,CLR,0.00,VWS V14.01,2013-09-05 16:34:00,
2013-09-05 12:35:00,85.7,79.6,25.65,SSE,162,6.0,6.0,82,0.00,,SCT200,0.00,VWS V14.01,2013-09-05 16:35:00,
2013-09-05 12:36:00,85.7,79.6,25.65,SSE,167,5.0,6.0,82,0.00,,FEW045,0.00,VWS V14.01,2013-09-05 16:36:00,
2013-09-05 12:37:00,85.7,79.6,26.84,South,181,4.0,5.0,82,0.00,,CLR,0.00,VWS V14.01,2013-09-05 16:37:00,
2013-09-05 12:38:00,85.9,80.1,26.84,South,169,5.0,5.0,83,0.00,,CLR,0.00,VWS V14.01,2013-09-05 16:38:00,
2013-09-05 12:39:00,85.9,80.5,26.84,South,173,3.0,5.0,84,0.00,,CLR,0.00,VWS V14.01,2013-09-05 16:39:00,
2013-09-05 12:40:00,85.9,79.8,26.84,South,173,4.0,4.0,82,0.00,,SCT200,0.00,VWS V14.01,2013-09-05 16:40:00,
2013-09-05 12:41:00,85.9,79.8,26.84,South,173,4.0,4.0,82,0.00,,CLR,0.00,VWS V14.01,2013-09-05 16:41:00,
2013-09-05 12:42:00,85.9,80.1,26.84,South,172,4.0,4.0,83,0.00,,CLR,0.00,VWS V14.01,2013-09-05 16:42:00,
2013-09-05 12:43:00,85.9,79.8,26.84,SSE,165,5.0,5.0,82,0.00,,CLR,0.00,VWS V14.01,2013-09-05 16:43:00,
2013-09-05 12:44:00,85.9,79.8,26.84,South,174,3.0,5.0,82,0.00,,CLR,0.00,VWS V14.01,2013-09-05 16:44:00,
2013-09-05 12:45:00,86.1,80.0,26.84,SSE,162,4.0,4.0,82,0.00,,SCT200,0.00,VWS V14.01,2013-09-05 16:45:00,
2013-09-05 12:46:00,86.1,80.0,26.84,South,191,3.0,4.0,82,0.00,,CLR,0.00,VWS V14.01,2013-09-05 16:46:00,
2013-09-05 12:47:00,86.1,80.0,26.84,SSE,153,4.0,5.0,82,0.00,,CLR,0.00,VWS V14.01,2013-09-05 16:47:00,
2013-09-05 12:48:00,86.1,80.0,26.84,SSE,161,1.0,5.0,82,0.00,,CLR,0.00,VWS V14.01,2013-09-05 16:48:00,
2013-09-05 12:49:00,86.3,80.2,26.84,SSE,159,4.0,5.0,82,0.00,,CLR,0.00,VWS V14.01,2013-09-05 16:49:00,
2013-09-05 12:50:00,86.3,79.8,26.84,SE,142,5.0,6.0,81,0.00,,SCT200,0.00,VWS V14.01,2013-09-05 16:50:00,
2013-09-05 12:51:00,86.3,79.8,26.84,SE,143,5.0,6.0,81,0.00,,CLR,0.00,VWS V14.01,2013-09-05 16:51:00,
2013-09-05 12:52:00,86.3,79.8,26.84,South,173,5.0,5.0,81,0.00,,CLR,0.00,VWS V14.01,2013-09-05 16:52:00,
2013-09-05 12:53:00,86.3,80.2,26.84,SSE,168,5.0,5.0,82,0.00,,CLR,0.00,VWS V14.01,2013-09-05 16:53:00,
2013-09-05 12:54:00,86.3,80.2,26.84,SSE,147,5.0,6.0,82,0.00,,CLR,0.00,VWS V14.01,2013-09-05 16:54:00,
2013-09-05 12:55:00,86.3,80.2,26.84,SSE,167,3.0,6.0,82,0.00,,SCT200,0.00,VWS V14.01,2013-09-05 16:55:00,
2013-09-05 12:56:00,86.3,80.2,26.84,South,173,4.0,6.0,82,0.00,,CLR,0.00,VWS V14.01,2013-09-05 16:56:00,
2013-09-05 12:57:00,86.5,80.3,26.84,South,173,4.0,6.0,82,0.00,,CLR,0.00,VWS V14.01,2013-09-05 16:57:00,
2013-09-05 12:58:00,86.5,80.0,26.84,SSE,155,5.0,7.0,81,0.00,,CLR,0.00,VWS V14.01,2013-09-05 16:58:00,
2013-09-05 12:59:00,86.5,80.0,26.84,SSE,163,5.0,5.0,81,0.00,,CLR,0.00,VWS V14.01,2013-09-05 16:59:00,
2013-09-05 13:00:00,86.3,79.8,26.84,South,175,5.0,5.0,81,0.00,,SCT200,0.00,VWS V14.01,2013-09-05 17:00:00,
2013-09-05 13:01:00,86.3,79.8,26.84,South,175,5.0,5.0,81,0.00,,CLR,0.00,VWS V14.01,2013-09-05 17:01:00,
2013-09-05 13:02:00,86.3,79.8,26.84,South,173,3.0,5.0,81,0.00,,CLR,0.00,VWS V14.01,2013-09-05 17:02:00,
2013-09-05 13:03:00,86.3,79.8,26.84,SSE,149,6.0,6.0,81,0.00,,CLR,0.00,VWS V14.01,2013-09-05 17:03:00,
2013-09-05 13:04:00,86.3,79.8,26.84,SSE,157,5.0,7.0,81,0.00,,CLR,0.00,VWS V14.01,2013-09-05 17:04:00,
2013-09-05 13:05:00,86.3,79.8,26.84,SSE,167,6.0,6.0,81,0.00,,SCT200,0.00,VWS V14.01,2013-09-05 17:05:00,
2013-09-05 13:06:00,86.3,79.8,26.84,South,169,6.0,6.0,81,0.00,,CLR,0.00,VWS V14.01,2013-09-05 17:06:00,
2013-09-05 13:07:00,86.3,79.8,26.84,South,178,4.0,6.0,81,0.00,,CLR,0.00,VWS V14.01,2013-09-05 17:07:00,
2013-09-05 13:08:00,86.5,80.3,26.84,South,180,3.0,4.0,82,0.00,,CLR,0.00,VWS V14.01,2013-09-05 17:08:00,
2013-09-05 13:09:00,86.5,80.3,26.84,South,169,3.0,4.0,82,0.00,,CLR,0.00,VWS V14.01,2013-09-05 17:09:00,
2013-09-05 13:10:00,86.7,80.6,26.84,South,171,5.0,5.0,82,0.00,,SCT200,0.00,VWS V14.01,2013-09-05 17:10:00,
2013-09-05 13:11:00,86.7,79.8,26.84,South,171,2.0,5.0,80,0.00,,CLR,0.00,VWS V14.01,2013-09-05 17:11:00,
2013-09-05 13:12:00,86.7,80.2,26.84,SSE,168,5.0,5.0,81,0.00,,CLR,0.00,VWS V14.01,2013-09-05 17:12:00,
2013-09-05 13:13:00,86.7,79.8,26.84,South,178,5.0,5.0,80,0.00,,CLR,0.00,VWS V14.01,2013-09-05 17:13:00,
2013-09-05 13:14:00,86.7,79.8,26.84,South,179,6.0,6.0,80,0.00,,CLR,0.00,VWS V14.01,2013-09-05 17:14:00,
2013-09-05 13:15:00,87.0,80.5,26.84,SSE,163,5.0,5.0,81,0.00,,SCT200,0.00,VWS V14.01,2013-09-05 17:15:00,
2013-09-05 13:16:00,87.0,80.5,26.84,South,175,5.0,5.0,81,0.00,,CLR,0.00,VWS V14.01,2013-09-05 17:16:00,
2013-09-05 13:17:00,87.0,80.1,26.84,SSE,167,5.0,6.0,80,0.00,,CLR,0.00,VWS V14.01,2013-09-05 17:17:00,
2013-09-05 13:18:00,86.7,79.8,26.84,South,187,3.0,5.0,80,0.00,,CLR,0.00,VWS V14.01,2013-09-05 17:18:00,
2013-09-05 13:19:00,86.7,79.8,26.84,South,186,3.0,5.0,80,0.00,,CLR,0.00,VWS V14.01,2013-09-05 17:19:00,
2013-09-05 13:20:00,87.0,80.5,26.84,South,186,6.0,6.0,81,0.00,,SCT200,0.00,VWS V14.01,2013-09-05 17:20:00,
2013-09-05 13:21:00,87.0,80.5,26.84,South,182,4.0,6.0,81,0.00,,CLR,0.00,VWS V14.01,2013-09-05 17:21:00,
2013-09-05 13:22:00,87.0,80.1,26.84,South,183,3.0,4.0,80,0.00,,CLR,0.00,VWS V14.01,2013-09-05 17:22:00,
2013-09-05 13:23:00,87.0,80.1,26.84,SSE,165,6.0,6.0,80,0.00,,CLR,0.00,VWS V14.01,2013-09-05 17:23:00,
2013-09-05 13:24:00,87.0,79.7,26.84,SSE,149,6.0,6.0,79,0.00,,CLR,0.00,VWS V14.01,2013-09-05 17:24:00,
2013-09-05 13:25:00,86.7,79.8,26.84,SSE,161,2.0,5.0,80,0.00,,SCT200,0.00,VWS V14.01,2013-09-05 17:25:00,
2013-09-05 13:26:00,86.7,79.8,26.84,SSE,161,5.0,5.0,80,0.00,,CLR,0.00,VWS V14.01,2013-09-05 17:26:00,
2013-09-05 13:27:00,86.7,79.8,26.84,South,181,4.0,5.0,80,0.00,,CLR,0.00,VWS V14.01,2013-09-05 17:27:00,
2013-09-05 13:28:00,86.5,79.6,26.84,South,180,3.0,5.0,80,0.00,,CLR,0.00,VWS V14.01,2013-09-05 17:28:00,
2013-09-05 13:29:00,86.5,79.6,26.84,South,179,3.0,4.0,80,0.00,,CLR,0.00,VWS V14.01,2013-09-05 17:29:00,
2013-09-05 13:30:00,86.7,79.8,26.84,SSW,192,5.0,5.0,80,0.00,,SCT200,0.00,VWS V14.01,2013-09-05 17:30:00,
2013-09-05 13:31:00,86.7,79.8,26.84,SSW,200,5.0,5.0,80,0.00,,CLR,0.00,VWS V14.01,2013-09-05 17:31:00,
2013-09-05 13:32:00,86.7,79.4,26.84,South,190,4.0,5.0,79,0.00,,FEW045,0.00,VWS V14.01,2013-09-05 17:32:00,
2013-09-05 13:33:00,86.7,79.4,26.84,South,183,6.0,6.0,79,0.00,,CLR,0.00,VWS V14.01,2013-09-05 17:33:00,
2013-09-05 13:34:00,86.7,79.4,26.84,South,172,3.0,6.0,79,0.00,,CLR,0.00,VWS V14.01,2013-09-05 17:34:00,
2013-09-05 13:35:00,87.0,80.5,26.84,South,186,5.0,5.0,81,0.00,,SCT200,0.00,VWS V14.01,2013-09-05 17:35:00,
2013-09-05 13:36:00,87.0,80.5,26.84,South,169,3.0,5.0,81,0.00,,CLR,0.00,VWS V14.01,2013-09-05 17:36:00,
2013-09-05 13:37:00,87.0,80.1,26.84,South,173,5.0,5.0,80,0.00,,CLR,0.00,VWS V14.01,2013-09-05 17:37:00,
2013-09-05 13:38:00,87.2,80.3,26.84,SE,145,6.0,6.0,80,0.00,,CLR,0.00,VWS V14.01,2013-09-05 17:38:00,
2013-09-05 13:39:00,87.2,80.3,26.84,SSE,167,5.0,6.0,80,0.00,,CLR,0.00,VWS V14.01,2013-09-05 17:39:00,
2013-09-05 13:40:00,87.0,79.7,26.84,SSE,150,5.0,5.0,79,0.00,,BKN200,0.00,VWS V14.01,2013-09-05 17:40:00,
2013-09-05 13:41:00,87.0,80.1,26.84,SSE,165,5.0,5.0,80,0.00,,CLR,0.00,VWS V14.01,2013-09-05 17:41:00,
2013-09-05 13:42:00,86.7,79.8,26.84,SSE,148,5.0,5.0,80,0.00,,CLR,0.00,VWS V14.01,2013-09-05 17:42:00,
2013-09-05 13:43:00,86.7,79.4,26.84,South,171,6.0,6.0,79,0.00,,CLR,0.00,VWS V14.01,2013-09-05 17:43:00,
2013-09-05 13:44:00,86.7,79.4,26.84,SSE,150,5.0,6.0,79,0.00,,CLR,0.00,VWS V14.01,2013-09-05 17:44:00,
2013-09-05 13:45:00,86.7,79.8,26.84,SE,138,5.0,5.0,80,0.00,,BKN200,0.00,VWS V14.01,2013-09-05 17:45:00,
2013-09-05 13:46:00,86.7,79.8,26.84,SE,129,7.0,7.0,80,0.00,,CLR,0.00,VWS V14.01,2013-09-05 17:46:00,
2013-09-05 13:47:00,86.7,79.8,26.84,South,173,6.0,7.0,80,0.00,,CLR,0.00,VWS V14.01,2013-09-05 17:47:00,
2013-09-05 13:48:00,86.5,79.2,26.84,SE,136,6.0,6.0,79,0.00,,CLR,0.00,VWS V14.01,2013-09-05 17:48:00,
2013-09-05 13:49:00,86.5,79.6,26.84,SE,134,5.0,6.0,80,0.00,,CLR,0.00,VWS V14.01,2013-09-05 17:49:00,
2013-09-05 13:50:00,86.5,79.6,26.84,SSE,165,3.0,6.0,80,0.00,,BKN200,0.00,VWS V14.01,2013-09-05 17:50:00,
2013-09-05 13:51:00,86.5,79.6,26.84,SSE,161,5.0,6.0,80,0.00,,CLR,0.00,VWS V14.01,2013-09-05 17:51:00,
2013-09-05 13:52:00,86.5,79.6,26.84,SE,136,6.0,6.0,80,0.00,,CLR,0.00,VWS V14.01,2013-09-05 17:52:00,
2013-09-05 13:53:00,86.5,79.6,26.84,SE,143,5.0,7.0,80,0.00,,CLR,0.00,VWS V14.01,2013-09-05 17:53:00,
2013-09-05 13:54:00,86.5,79.6,26.84,SSE,153,6.0,6.0,80,0.00,,CLR,0.00,VWS V14.01,2013-09-05 17:54:00,
2013-09-05 13:55:00,86.3,79.4,26.84,SE,133,6.0,6.0,80,0.00,,BKN200,0.00,VWS V14.01,2013-09-05 17:55:00,
2013-09-05 13:56:00,86.3,79.4,26.84,SSE,162,6.0,6.0,80,0.00,,CLR,0.00,VWS V14.01,2013-09-05 17:56:00,
2013-09-05 13:57:00,86.3,79.4,26.84,SE,141,6.0,6.0,80,0.00,,CLR,0.00,VWS V14.01,2013-09-05 17:57:00,
2013-09-05 13:58:00,86.3,79.4,26.84,SSE,147,7.0,7.0,80,0.00,,CLR,0.00,VWS V14.01,2013-09-05 17:58:00,
2013-09-05 13:59:00,86.3,79.8,26.84,SSE,149,5.0,7.0,81,0.00,,CLR,0.00,VWS V14.01,2013-09-05 17:59:00,
2013-09-05 14:00:00,86.3,79.4,26.84,SE,146,6.0,8.0,80,0.00,,BKN200,0.00,VWS V14.01,2013-09-05 18:00:00,
2013-09-05 14:01:00,86.3,79.4,26.84,SE,136,7.0,8.0,80,0.00,,CLR,0.00,VWS V14.01,2013-09-05 18:01:00,
2013-09-05 14:02:00,86.1,79.2,26.84,SE,131,7.0,7.0,80,0.00,,CLR,0.00,VWS V14.01,2013-09-05 18:02:00,
2013-09-05 14:03:00,86.1,79.2,26.84,South,178,4.0,7.0,80,0.00,,CLR,0.00,VWS V14.01,2013-09-05 18:03:00,
2013-09-05 14:04:00,86.1,79.6,26.84,SSE,148,5.0,6.0,81,0.00,,CLR,0.00,VWS V14.01,2013-09-05 18:04:00,
2013-09-05 14:05:00,86.3,79.8,26.84,SE,128,6.0,6.0,81,0.00,,BKN200,0.00,VWS V14.01,2013-09-05 18:05:00,
2013-09-05 14:06:00,86.3,79.8,26.84,SE,128,6.0,6.0,81,0.00,,CLR,0.00,VWS V14.01,2013-09-05 18:06:00,
2013-09-05 14:07:00,86.3,79.4,26.84,SE,131,6.0,6.0,80,0.00,,CLR,0.00,VWS V14.01,2013-09-05 18:07:00,
2013-09-05 14:08:00,86.3,79.4,26.84,ESE,113,6.0,7.0,80,0.00,,CLR,0.00,VWS V14.01,2013-09-05 18:08:00,
2013-09-05 14:09:00,86.1,79.2,26.84,SE,124,6.0,7.0,80,0.00,,CLR,0.00,VWS V14.01,2013-09-05 18:09:00,
2013-09-05 14:10:00,85.9,79.4,26.84,SE,126,4.0,6.0,81,0.00,,BKN200,0.00,VWS V14.01,2013-09-05 18:10:00,
2013-09-05 14:11:00,85.9,79.4,26.84,SE,126,5.0,6.0,81,0.00,,CLR,0.00,VWS V14.01,2013-09-05 18:11:00,
2013-09-05 14:12:00,85.9,79.4,26.84,SE,140,7.0,7.0,81,0.00,,CLR,0.00,VWS V14.01,2013-09-05 18:12:00,
2013-09-05 14:13:00,85.7,79.2,26.84,SE,134,5.0,7.0,81,0.00,,CLR,0.00,VWS V14.01,2013-09-05 18:13:00,
2013-09-05 14:14:00,85.7,79.2,26.84,SE,134,4.0,5.0,81,0.00,,CLR,0.00,VWS V14.01,2013-09-05 18:14:00,
2013-09-05 14:15:00,85.7,79.2,26.84,SSE,147,3.0,6.0,81,0.00,,BKN200,0.00,VWS V14.01,2013-09-05 18:15:00,
2013-09-05 14:16:00,85.7,79.2,26.84,SSE,147,4.0,6.0,81,0.00,,CLR,0.00,VWS V14.01,2013-09-05 18:16:00,
2013-09-05 14:17:00,85.7,79.2,26.84,SSE,155,5.0,5.0,81,0.00,,CLR,0.00,VWS V14.01,2013-09-05 18:17:00,
2013-09-05 14:18:00,85.7,79.2,26.84,SE,145,6.0,6.0,81,0.00,,CLR,0.00,VWS V14.01,2013-09-05 18:18:00,
2013-09-05 14:19:00,85.9,79.4,26.84,SSE,150,4.0,6.0,81,0.00,,CLR,0.00,VWS V14.01,2013-09-05 18:19:00,
2013-09-05 14:20:00,85.9,79.4,26.84,South,171,4.0,6.0,81,0.00,,BKN200,0.00,VWS V14.01,2013-09-05 18:20:00,
2013-09-05 14:21:00,85.9,79.4,26.84,South,171,2.0,6.0,81,0.00,,CLR,0.00,VWS V14.01,2013-09-05 18:21:00,
2013-09-05 14:22:00,85.9,79.4,26.84,SE,131,5.0,6.0,81,0.00,,CLR,0.00,VWS V14.01,2013-09-05 18:22:00,
2013-09-05 14:23:00,85.9,79.4,26.84,SE,130,5.0,6.0,81,0.00,,CLR,0.00,VWS V14.01,2013-09-05 18:23:00,
2013-09-05 14:24:00,85.9,79.4,26.84,SE,128,4.0,5.0,81,0.00,,CLR,0.00,VWS V14.01,2013-09-05 18:24:00,
2013-09-05 14:25:00,85.7,78.8,26.84,SE,133,4.0,5.0,80,0.00,,BKN200,0.00,VWS V14.01,2013-09-05 18:25:00,
2013-09-05 14:26:00,85.7,78.8,26.84,SE,132,5.0,5.0,80,0.00,,CLR,0.00,VWS V14.01,2013-09-05 18:26:00,
2013-09-05 14:27:00,85.7,78.8,26.84,SE,131,3.0,5.0,80,0.00,,CLR,0.00,VWS V14.01,2013-09-05 18:27:00,
2013-09-05 14:28:00,85.7,78.8,26.84,SSE,153,5.0,5.0,80,0.00,,CLR,0.00,VWS V14.01,2013-09-05 18:28:00,
2013-09-05 14:29:00,85.7,78.8,26.84,SE,135,4.0,7.0,80,0.00,,CLR,0.00,VWS V14.01,2013-09-05 18:29:00,
2013-09-05 14:30:00,85.7,78.8,26.84,SE,144,5.0,5.0,80,0.00,,BKN200,0.00,VWS V14.01,2013-09-05 18:30:00,
2013-09-05 14:31:00,85.7,78.8,26.84,SE,146,3.0,5.0,80,0.00,,CLR,0.00,VWS V14.01,2013-09-05 18:31:00,
2013-09-05 14:32:00,85.7,78.8,26.84,SE,143,4.0,5.0,80,0.00,,CLR,0.00,VWS V14.01,2013-09-05 18:32:00,
2013-09-05 14:33:00,85.7,78.8,26.84,SE,136,5.0,7.0,80,0.00,,CLR,0.00,VWS V14.01,2013-09-05 18:33:00,
2013-09-05 14:34:00,85.7,79.2,26.84,SE,138,4.0,6.0,81,0.00,,CLR,0.00,VWS V14.01,2013-09-05 18:34:00,
2013-09-05 14:35:00,85.7,79.2,26.84,SSE,150,4.0,5.0,81,0.00,,BKN200,0.00,VWS V14.01,2013-09-05 18:35:00,
2013-09-05 14:36:00,85.7,79.2,26.84,SSE,150,4.0,5.0,81,0.00,,CLR,0.00,VWS V14.01,2013-09-05 18:36:00,
2013-09-05 14:37:00,85.9,79.0,26.84,SE,139,3.0,6.0,80,0.00,,CLR,0.00,VWS V14.01,2013-09-05 18:37:00,
2013-09-05 14:38:00,85.9,79.4,26.84,SSE,150,5.0,5.0,81,0.00,,CLR,0.00,VWS V14.01,2013-09-05 18:38:00,
2013-09-05 14:39:00,86.1,79.2,26.84,SE,142,4.0,5.0,80,0.00,,CLR,0.00,VWS V14.01,2013-09-05 18:39:00,
2013-09-05 14:40:00,86.1,79.2,26.84,SE,125,5.0,6.0,80,0.00,,BKN200,0.00,VWS V14.01,2013-09-05 18:40:00,
2013-09-05 14:41:00,86.1,78.8,26.84,SE,125,4.0,6.0,79,0.00,,CLR,0.00,VWS V14.01,2013-09-05 18:41:00,
2013-09-05 14:42:00,86.1,79.2,26.84,SE,140,5.0,7.0,80,0.00,,CLR,0.00,VWS V14.01,2013-09-05 18:42:00,
2013-09-05 14:43:00,86.1,79.2,26.84,SE,138,5.0,7.0,80,0.00,,CLR,0.00,VWS V14.01,2013-09-05 18:43:00,
2013-09-05 14:44:00,86.1,79.2,26.84,SE,134,7.0,7.0,80,0.00,,CLR,0.00,VWS V14.01,2013-09-05 18:44:00,
2013-09-05 14:45:00,86.1,78.8,26.84,SE,146,4.0,6.0,79,0.00,,BKN200,0.00,VWS V14.01,2013-09-05 18:45:00,
2013-09-05 14:46:00,86.1,78.8,26.84,SE,130,6.0,6.0,79,0.00,,CLR,0.00,VWS V14.01,2013-09-05 18:46:00,
2013-09-05 14:47:00,86.1,79.2,26.84,SE,139,7.0,7.0,80,0.00,,CLR,0.00,VWS V14.01,2013-09-05 18:47:00,
2013-09-05 14:48:00,86.1,79.2,26.84,SE,136,6.0,7.0,80,0.00,,CLR,0.00,VWS V14.01,2013-09-05 18:48:00,
2013-09-05 14:49:00,85.9,79.0,26.84,SE,144,5.0,6.0,80,0.00,,CLR,0.00,VWS V14.01,2013-09-05 18:49:00,
2013-09-05 14:50:00,85.9,79.4,26.84,SE,146,3.0,7.0,81,0.00,,BKN200,0.00,VWS V14.01,2013-09-05 18:50:00,
2013-09-05 14:51:00,86.1,79.6,26.84,SE,144,5.0,7.0,81,0.00,,CLR,0.00,VWS V14.01,2013-09-05 18:51:00,
2013-09-05 14:52:00,86.1,79.2,26.84,SSE,165,5.0,7.0,80,0.00,,CLR,0.00,VWS V14.01,2013-09-05 18:52:00,
2013-09-05 14:53:00,86.1,79.2,26.84,SE,146,5.0,6.0,80,0.00,,CLR,0.00,VWS V14.01,2013-09-05 18:53:00,
2013-09-05 14:54:00,86.1,79.2,26.84,SE,134,6.0,6.0,80,0.00,,CLR,0.00,VWS V14.01,2013-09-05 18:54:00,
2013-09-05 14:55:00,86.3,79.4,26.84,SE,133,5.0,7.0,80,0.00,,BKN200,0.00,VWS V14.01,2013-09-05 18:55:00,
2013-09-05 14:56:00,86.3,79.4,26.84,SE,140,6.0,7.0,80,0.00,,CLR,0.00,VWS V14.01,2013-09-05 18:56:00,
2013-09-05 14:57:00,86.3,79.0,26.84,SE,144,4.0,6.0,79,0.00,,CLR,0.00,VWS V14.01,2013-09-05 18:57:00,
2013-09-05 14:58:00,86.3,79.4,26.84,SSE,147,6.0,6.0,80,0.00,,CLR,0.00,VWS V14.01,2013-09-05 18:58:00,
2013-09-05 14:59:00,86.3,79.4,26.84,SE,136,8.0,8.0,80,0.00,,CLR,0.00,VWS V14.01,2013-09-05 18:59:00,
2013-09-05 15:00:00,86.3,79.0,26.84,SE,146,6.0,6.0,79,0.00,,BKN200,0.00,VWS V14.01,2013-09-05 19:00:00,
2013-09-05 15:01:00,86.3,79.0,26.84,SSE,157,4.0,6.0,79,0.00,,CLR,0.00,VWS V14.01,2013-09-05 19:01:00,
2013-09-05 15:02:00,86.3,79.0,26.84,SSE,158,5.0,5.0,79,0.00,,CLR,0.00,VWS V14.01,2013-09-05 19:02:00,
2013-09-05 15:03:00,86.3,79.0,26.84,SE,146,6.0,6.0,79,0.00,,CLR,0.00,VWS V14.01,2013-09-05 19:03:00,
2013-09-05 15:04:00,86.3,79.4,26.84,SE,128,5.0,6.0,80,0.00,,CLR,0.00,VWS V14.01,2013-09-05 19:04:00,
2013-09-05 15:05:00,86.3,79.4,26.55,SE,132,7.0,7.0,80,0.00,,BKN200,0.00,VWS V14.01,2013-09-05 19:05:00,
2013-09-05 15:06:00,86.3,79.4,26.55,SE,131,7.0,7.0,80,0.00,,CLR,0.00,VWS V14.01,2013-09-05 19:06:00,
2013-09-05 15:07:00,86.3,79.4,26.55,SE,133,6.0,7.0,80,0.00,,CLR,0.00,VWS V14.01,2013-09-05 19:07:00,
2013-09-05 15:08:00,86.3,79.0,26.55,SE,136,4.0,6.0,79,0.00,,CLR,0.00,VWS V14.01,2013-09-05 19:08:00,
2013-09-05 15:09:00,86.3,79.4,26.55,SSE,163,4.0,6.0,80,0.00,,CLR,0.00,VWS V14.01,2013-09-05 19:09:00,
2013-09-05 15:10:00,86.3,79.4,26.55,SSE,157,5.0,6.0,80,0.00,,BKN200,0.00,VWS V14.01,2013-09-05 19:10:00,
2013-09-05 15:11:00,86.3,79.4,26.55,SSE,148,5.0,6.0,80,0.00,,CLR,0.00,VWS V14.01,2013-09-05 19:11:00,
2013-09-05 15:12:00,86.3,79.0,26.55,SE,137,7.0,7.0,79,0.00,,CLR,0.00,VWS V14.01,2013-09-05 19:12:00,
2013-09-05 15:13:00,86.3,79.4,26.55,SE,127,5.0,7.0,80,0.00,,CLR,0.00,VWS V14.01,2013-09-05 19:13:00,
2013-09-05 15:14:00,86.3,79.4,26.55,SE,128,6.0,7.0,80,0.00,,CLR,0.00,VWS V14.01,2013-09-05 19:14:00,
2013-09-05 15:15:00,86.3,79.0,26.55,South,169,4.0,6.0,79,0.00,,BKN200,0.00,VWS V14.01,2013-09-05 19:15:00,
2013-09-05 15:16:00,86.3,79.0,26.55,SSE,150,3.0,6.0,79,0.00,,CLR,0.00,VWS V14.01,2013-09-05 19:16:00,
2013-09-05 15:17:00,86.3,79.4,26.55,SSE,150,5.0,6.0,80,0.00,,CLR,0.00,VWS V14.01,2013-09-05 19:17:00,
2013-09-05 15:18:00,86.5,79.2,26.55,SE,142,5.0,9.0,79,0.00,,CLR,0.00,VWS V14.01,2013-09-05 19:18:00,
2013-09-05 15:19:00,86.5,79.2,26.55,SE,146,5.0,5.0,79,0.00,,CLR,0.00,VWS V14.01,2013-09-05 19:19:00,
2013-09-05 15:20:00,86.5,79.2,26.55,SSE,151,5.0,10.0,79,0.00,,BKN200,0.00,VWS V14.01,2013-09-05 19:20:00,
2013-09-05 15:21:00,86.5,79.2,26.55,SE,136,6.0,10.0,79,0.00,,CLR,0.00,VWS V14.01,2013-09-05 19:21:00,
2013-09-05 15:22:00,86.5,78.8,26.55,SSE,151,6.0,6.0,78,0.00,,CLR,0.00,VWS V14.01,2013-09-05 19:22:00,
2013-09-05 15:23:00,86.5,78.8,26.55,SE,141,8.0,9.0,78,0.00,,CLR,0.00,VWS V14.01,2013-09-05 19:23:00,
2013-09-05 15:24:00,86.3,79.0,26.55,SE,134,5.0,8.0,79,0.00,,CLR,0.00,VWS V14.01,2013-09-05 19:24:00,
2013-09-05 15:25:00,86.3,79.0,26.55,SE,131,10.0,10.0,79,0.00,,BKN200,0.00,VWS V14.01,2013-09-05 19:25:00,
2013-09-05 15:26:00,86.3,79.4,26.55,SE,146,7.0,10.0,80,0.00,,CLR,0.00,VWS V14.01,2013-09-05 19:26:00,
2013-09-05 15:27:00,86.3,79.0,26.55,South,178,6.0,7.0,79,0.00,,CLR,0.00,VWS V14.01,2013-09-05 19:27:00,
2013-09-05 15:28:00,86.3,79.4,26.55,SE,143,6.0,6.0,80,0.00,,CLR,0.00,VWS V14.01,2013-09-05 19:28:00,
2013-09-05 15:29:00,86.3,79.0,26.55,SE,128,6.0,6.0,79,0.00,,CLR,0.00,VWS V14.01,2013-09-05 19:29:00,
2013-09-05 15:30:00,86.3,78.6,26.55,SSE,161,4.0,9.0,78,0.00,,BKN200,0.00,VWS V14.01,2013-09-05 19:30:00,
2013-09-05 15:31:00,86.1,78.4,26.55,SSE,153,6.0,9.0,78,0.00,,CLR,0.00,VWS V14.01,2013-09-05 19:31:00,
2013-09-05 15:32:00,86.3,78.6,26.55,SSE,152,9.0,10.0,78,0.00,,CLR,0.00,VWS V14.01,2013-09-05 19:32:00,
2013-09-05 15:33:00,86.3,79.0,26.55,SSE,150,6.0,9.0,79,0.00,,CLR,0.00,VWS V14.01,2013-09-05 19:33:00,
2013-09-05 15:34:00,86.1,78.8,26.55,SSE,151,6.0,7.0,79,0.00,,CLR,0.00,VWS V14.01,2013-09-05 19:34:00,
2013-09-05 15:35:00,86.1,78.8,26.55,SE,144,5.0,7.0,79,0.00,,BKN200,0.00,VWS V14.01,2013-09-05 19:35:00,
2013-09-05 15:36:00,86.1,78.8,26.55,SE,143,8.0,8.0,79,0.00,,CLR,0.00,VWS V14.01,2013-09-05 19:36:00,
2013-09-05 15:37:00,86.3,79.4,26.55,SE,135,6.0,8.0,80,0.00,,CLR,0.00,VWS V14.01,2013-09-05 19:37:00,
2013-09-05 15:38:00,86.3,79.4,26.55,SSE,156,8.0,9.0,80,0.00,,CLR,0.00,VWS V14.01,2013-09-05 19:38:00,
2013-09-05 15:39:00,86.3,79.0,26.55,SSE,158,7.0,8.0,79,0.00,,CLR,0.00,VWS V14.01,2013-09-05 19:39:00,
2013-09-05 15:40:00,86.5,79.6,26.55,SE,140,7.0,7.0,80,0.00,,BKN055,0.00,VWS V14.01,2013-09-05 19:40:00,
2013-09-05 15:41:00,86.5,79.6,26.55,SE,140,7.0,7.0,80,0.00,,CLR,0.00,VWS V14.01,2013-09-05 19:41:00,
2013-09-05 15:42:00,86.7,79.8,26.55,SE,134,10.0,10.0,80,0.00,,CLR,0.00,VWS V14.01,2013-09-05 19:42:00,
2013-09-05 15:43:00,86.7,79.4,26.55,SE,134,10.0,10.0,79,0.00,,CLR,0.00,VWS V14.01,2013-09-05 19:43:00,
2013-09-05 15:44:00,86.7,79.8,26.55,SSE,156,7.0,10.0,80,0.00,,CLR,0.00,VWS V14.01,2013-09-05 19:44:00,
2013-09-05 15:45:00,86.5,78.8,26.55,SSE,150,5.0,9.0,78,0.00,,BKN055,0.00,VWS V14.01,2013-09-05 19:45:00,
2013-09-05 15:46:00,86.5,78.8,26.55,SSE,149,6.0,9.0,78,0.00,,CLR,0.00,VWS V14.01,2013-09-05 19:46:00,
2013-09-05 15:47:00,86.5,78.8,26.55,SE,142,9.0,9.0,78,0.00,,CLR,0.00,VWS V14.01,2013-09-05 19:47:00,
2013-09-05 15:48:00,86.5,79.2,26.55,South,190,8.0,9.0,79,0.00,,CLR,0.00,VWS V14.01,2013-09-05 19:48:00,
2013-09-05 15:49:00,86.5,79.6,26.55,SSE,151,7.0,8.0,80,0.00,,CLR,0.00,VWS V14.01,2013-09-05 19:49:00,
2013-09-05 15:50:00,86.5,79.6,26.55,SSE,164,7.0,7.0,80,0.00,,BKN055,0.00,VWS V14.01,2013-09-05 19:50:00,
2013-09-05 15:51:00,86.7,79.8,26.55,SE,142,6.0,7.0,80,0.00,,CLR,0.00,VWS V14.01,2013-09-05 19:51:00,
2013-09-05 15:52:00,86.5,79.2,26.55,SE,131,7.0,7.0,79,0.00,,CLR,0.00,VWS V14.01,2013-09-05 19:52:00,
2013-09-05 15:53:00,86.5,79.2,26.55,SE,140,9.0,10.0,79,0.00,,CLR,0.00,VWS V14.01,2013-09-05 19:53:00,
2013-09-05 15:54:00,86.5,79.2,26.55,SE,134,6.0,9.0,79,0.00,,CLR,0.00,VWS V14.01,2013-09-05 19:54:00,
2013-09-05 15:55:00,86.5,79.6,26.55,SE,146,7.0,9.0,80,0.00,,BKN055,0.00,VWS V14.01,2013-09-05 19:55:00,
2013-09-05 15:56:00,86.5,79.6,26.55,South,169,6.0,9.0,80,0.00,,CLR,0.00,VWS V14.01,2013-09-05 19:56:00,
2013-09-05 15:57:00,86.5,79.6,26.55,SE,143,7.0,10.0,80,0.00,,CLR,0.00,VWS V14.01,2013-09-05 19:57:00,
2013-09-05 15:58:00,86.5,79.6,26.55,SSE,148,6.0,8.0,80,0.00,,CLR,0.00,VWS V14.01,2013-09-05 19:58:00,
2013-09-05 15:59:00,86.5,79.6,26.55,SSE,148,6.0,7.0,80,0.00,,CLR,0.00,VWS V14.01,2013-09-05 19:59:00,
2013-09-05 16:00:00,86.5,80.0,26.55,SE,125,5.0,8.0,81,0.00,,BKN055,0.00,VWS V14.01,2013-09-05 20:00:00,
2013-09-05 16:01:00,86.5,80.0,26.55,SE,140,7.0,8.0,81,0.00,,CLR,0.00,VWS V14.01,2013-09-05 20:01:00,
2013-09-05 16:02:00,86.5,80.3,26.55,SE,139,8.0,8.0,82,0.00,,CLR,0.00,VWS V14.01,2013-09-05 20:02:00,
2013-09-05 16:03:00,86.3,79.8,26.55,SSE,152,6.0,8.0,81,0.00,,CLR,0.00,VWS V14.01,2013-09-05 20:03:00,
2013-09-05 16:04:00,86.3,80.2,26.55,SE,130,9.0,11.0,82,0.00,,CLR,0.00,VWS V14.01,2013-09-05 20:04:00,
2013-09-05 16:05:00,86.1,79.6,26.55,SE,137,10.0,10.0,81,0.00,,BKN055,0.00,VWS V14.01,2013-09-05 20:05:00,
2013-09-05 16:06:00,86.1,79.6,26.55,SE,138,9.0,10.0,81,0.00,,CLR,0.00,VWS V14.01,2013-09-05 20:06:00,
2013-09-05 16:07:00,85.9,79.4,26.55,SSE,148,9.0,9.0,81,0.00,,CLR,0.00,VWS V14.01,2013-09-05 20:07:00,
2013-09-05 16:08:00,85.9,79.4,26.55,SE,140,9.0,9.0,81,0.00,,CLR,0.00,VWS V14.01,2013-09-05 20:08:00,
2013-09-05 16:09:00,85.7,79.6,26.55,SE,138,8.0,9.0,82,0.00,,CLR,0.00,VWS V14.01,2013-09-05 20:09:00,
2013-09-05 16:10:00,85.7,79.6,26.55,SE,132,6.0,9.0,82,0.00,,BKN055,0.00,VWS V14.01,2013-09-05 20:10:00,
2013-09-05 16:11:00,85.7,79.9,26.55,SE,126,8.0,9.0,83,0.00,,CLR,0.00,VWS V14.01,2013-09-05 20:11:00,
2013-09-05 16:12:00,85.7,79.9,26.55,SE,138,11.0,11.0,83,0.00,,CLR,0.00,VWS V14.01,2013-09-05 20:12:00,
2013-09-05 16:13:00,85.7,79.6,26.55,SE,139,8.0,11.0,82,0.00,,CLR,0.00,VWS V14.01,2013-09-05 20:13:00,
2013-09-05 16:14:00,85.5,79.4,26.55,SSE,148,7.0,10.0,82,0.00,,CLR,0.00,VWS V14.01,2013-09-05 20:14:00,
2013-09-05 16:15:00,85.5,79.8,26.70,SSE,158,8.0,9.0,83,0.00,,BKN055,0.00,VWS V14.01,2013-09-05 20:15:00,
2013-09-05 16:16:00,85.5,79.8,26.70,SE,144,6.0,9.0,83,0.00,,CLR,0.00,VWS V14.01,2013-09-05 20:16:00,
2013-09-05 16:17:00,85.5,80.1,26.70,SE,133,12.0,12.0,84,0.00,,CLR,0.00,VWS V14.01,2013-09-05 20:17:00,
2013-09-05 16:18:00,85.5,79.8,26.70,SE,128,11.0,12.0,83,0.00,,CLR,0.00,VWS V14.01,2013-09-05 20:18:00,
2013-09-05 16:19:00,85.3,79.6,26.70,SSE,148,7.0,11.0,83,0.00,,CLR,0.00,VWS V14.01,2013-09-05 20:19:00,
2013-09-05 16:20:00,85.3,79.9,26.22,SSE,152,7.0,9.0,84,0.00,,BKN055,0.00,VWS V14.01,2013-09-05 20:20:00,
2013-09-05 16:21:00,85.3,79.9,26.22,SE,146,7.0,9.0,84,0.00,,CLR,0.00,VWS V14.01,2013-09-05 20:21:00,
2013-09-05 16:22:00,85.3,79.9,26.22,SE,144,10.0,10.0,84,0.00,,CLR,0.00,VWS V14.01,2013-09-05 20:22:00,
2013-09-05 16:23:00,85.3,79.6,26.22,SE,144,9.0,10.0,83,0.00,,CLR,0.00,VWS V14.01,2013-09-05 20:23:00,
2013-09-05 16:24:00,85.3,79.9,26.22,SE,139,10.0,10.0,84,0.00,,CLR,0.00,VWS V14.01,2013-09-05 20:24:00,
2013-09-05 16:25:00,85.3,79.9,26.61,SSE,153,7.0,8.0,84,0.00,,BKN055,0.00,VWS V14.01,2013-09-05 20:25:00,
2013-09-05 16:26:00,85.3,79.9,26.61,SSE,150,8.0,8.0,84,0.00,,CLR,0.00,VWS V14.01,2013-09-05 20:26:00,
2013-09-05 16:27:00,85.3,79.9,26.61,SSE,165,8.0,9.0,84,0.00,,CLR,0.00,VWS V14.01,2013-09-05 20:27:00,
2013-09-05 16:28:00,85.3,79.6,26.61,SE,142,6.0,9.0,83,0.00,,CLR,0.00,VWS V14.01,2013-09-05 20:28:00,
2013-09-05 16:29:00,85.3,80.3,26.61,SE,146,6.0,8.0,85,0.00,,CLR,0.00,VWS V14.01,2013-09-05 20:29:00,
2013-09-05 16:30:00,85.3,79.6,26.61,SSE,155,6.0,7.0,83,0.00,,BKN055,0.00,VWS V14.01,2013-09-05 20:30:00,
2013-09-05 16:31:00,85.3,79.6,26.61,SSE,147,7.0,8.0,83,0.00,,CLR,0.00,VWS V14.01,2013-09-05 20:31:00,
2013-09-05 16:32:00,85.3,79.9,26.61,SSE,153,7.0,9.0,84,0.00,,CLR,0.00,VWS V14.01,2013-09-05 20:32:00,
2013-09-05 16:33:00,85.3,79.6,26.61,SE,145,5.0,8.0,83,0.00,,CLR,0.00,VWS V14.01,2013-09-05 20:33:00,
2013-09-05 16:34:00,85.5,80.1,26.61,SSE,147,8.0,11.0,84,0.00,,CLR,0.00,VWS V14.01,2013-09-05 20:34:00,
2013-09-05 16:35:00,85.5,79.8,26.61,SE,136,7.0,9.0,83,0.00,,BKN055,0.00,VWS V14.01,2013-09-05 20:35:00,
2013-09-05 16:36:00,85.5,79.8,26.61,SE,144,7.0,9.0,83,0.00,,CLR,0.00,VWS V14.01,2013-09-05 20:36:00,
2013-09-05 16:37:00,85.5,79.8,26.61,SE,139,10.0,10.0,83,0.00,,CLR,0.00,VWS V14.01,2013-09-05 20:37:00,
2013-09-05 16:38:00,85.5,79.8,26.61,SSE,153,8.0,10.0,83,0.00,,CLR,0.00,VWS V14.01,2013-09-05 20:38:00,
2013-09-05 16:39:00,85.3,79.2,26.61,SE,134,7.0,9.0,82,0.00,,CLR,0.00,VWS V14.01,2013-09-05 20:39:00,
2013-09-05 16:40:00,85.3,79.6,26.61,SE,139,6.0,7.0,83,0.00,,BKN200,0.00,VWS V14.01,2013-09-05 20:40:00,
2013-09-05 16:41:00,85.3,79.6,26.61,SSE,148,6.0,7.0,83,0.00,,CLR,0.00,VWS V14.01,2013-09-05 20:41:00,
2013-09-05 16:42:00,85.3,79.6,26.61,SSE,152,7.0,7.0,83,0.00,,CLR,0.00,VWS V14.01,2013-09-05 20:42:00,
2013-09-05 16:43:00,85.3,79.6,26.61,SSE,148,5.0,7.0,83,0.00,,CLR,0.00,VWS V14.01,2013-09-05 20:43:00,
2013-09-05 16:44:00,85.3,79.6,26.61,SE,143,5.0,6.0,83,0.00,,CLR,0.00,VWS V14.01,2013-09-05 20:44:00,
2013-09-05 16:45:00,85.3,79.6,26.61,SE,134,6.0,6.0,83,0.00,,BKN200,0.00,VWS V14.01,2013-09-05 20:45:00,
2013-09-05 16:46:00,85.3,79.6,26.61,SSE,151,6.0,6.0,83,0.00,,CLR,0.00,VWS V14.01,2013-09-05 20:46:00,
2013-09-05 16:47:00,85.3,79.6,26.61,SSE,159,6.0,6.0,83,0.00,,CLR,0.00,VWS V14.01,2013-09-05 20:47:00,
2013-09-05 16:48:00,85.3,79.6,26.61,SE,137,10.0,10.0,83,0.00,,CLR,0.00,VWS V14.01,2013-09-05 20:48:00,
2013-09-05 16:49:00,85.3,79.9,26.61,SE,144,10.0,10.0,84,0.00,,CLR,0.00,VWS V14.01,2013-09-05 20:49:00,
2013-09-05 16:50:00,85.1,79.7,26.61,SE,133,9.0,9.0,84,0.00,,BKN200,0.00,VWS V14.01,2013-09-05 20:50:00,
2013-09-05 16:51:00,85.1,79.7,26.61,SE,134,10.0,10.0,84,0.00,,CLR,0.00,VWS V14.01,2013-09-05 20:51:00,
2013-09-05 16:52:00,85.1,80.1,26.61,SE,144,10.0,10.0,85,0.00,,CLR,0.00,VWS V14.01,2013-09-05 20:52:00,
2013-09-05 16:53:00,84.9,79.9,26.61,SE,145,9.0,10.0,85,0.00,,CLR,0.00,VWS V14.01,2013-09-05 20:53:00,
2013-09-05 16:54:00,84.9,79.9,26.61,SE,146,7.0,9.0,85,0.00,,CLR,0.00,VWS V14.01,2013-09-05 20:54:00,
2013-09-05 16:55:00,84.9,78.4,26.61,SE,132,7.0,7.0,81,0.00,,BKN200,0.00,VWS V14.01,2013-09-05 20:55:00,
2013-09-05 16:56:00,84.9,78.4,26.61,SSE,148,6.0,7.0,81,0.00,,CLR,0.00,VWS V14.01,2013-09-05 20:56:00,
2013-09-05 16:57:00,84.9,80.2,26.61,SE,144,9.0,10.0,86,0.00,,CLR,0.00,VWS V14.01,2013-09-05 20:57:00,
2013-09-05 16:58:00,84.7,79.3,26.61,SE,139,8.0,10.0,84,0.00,,CLR,0.00,VWS V14.01,2013-09-05 20:58:00,
2013-09-05 16:59:00,84.7,79.7,26.61,SE,138,7.0,9.0,85,0.00,,CLR,0.00,VWS V14.01,2013-09-05 20:59:00,
2013-09-05 17:00:00,84.7,79.7,26.61,SE,140,6.0,7.0,85,0.00,,BKN200,0.00,VWS V14.01,2013-09-05 21:00:00,
2013-09-05 17:01:00,84.7,79.7,26.61,SSE,160,6.0,7.0,85,0.00,,CLR,0.00,VWS V14.01,2013-09-05 21:01:00,
2013-09-05 17:02:00,84.7,79.7,26.61,SE,140,7.0,8.0,85,0.00,,CLR,0.00,VWS V14.01,2013-09-05 21:02:00,
2013-09-05 17:03:00,84.7,79.7,26.61,SE,134,7.0,7.0,85,0.00,,CLR,0.00,VWS V14.01,2013-09-05 21:03:00,
2013-09-05 17:04:00,84.7,79.7,26.61,SE,132,6.0,8.0,85,0.00,,CLR,0.00,VWS V14.01,2013-09-05 21:04:00,
2013-09-05 17:05:00,84.7,80.1,26.61,SE,131,7.0,9.0,86,0.00,,BKN200,0.00,VWS V14.01,2013-09-05 21:05:00,
2013-09-05 17:06:00,84.7,79.7,26.61,SE,140,8.0,9.0,85,0.00,,CLR,0.00,VWS V14.01,2013-09-05 21:06:00,
2013-09-05 17:07:00,84.7,79.7,26.61,SE,141,9.0,9.0,85,0.00,,CLR,0.00,VWS V14.01,2013-09-05 21:07:00,
2013-09-05 17:08:00,84.7,79.7,26.61,SSE,154,7.0,9.0,85,0.00,,CLR,0.00,VWS V14.01,2013-09-05 21:08:00,
2013-09-05 17:09:00,84.7,80.1,28.65,SSE,164,7.0,7.0,86,0.00,,BKN200,0.00,VWS V14.01,2013-09-05 21:09:00,
2013-09-05 17:10:00,84.7,80.1,26.61,SSE,150,6.0,7.0,86,0.00,,CLR,0.00,VWS V14.01,2013-09-05 21:10:00,
2013-09-05 17:11:00,84.7,80.1,28.65,SSE,156,6.0,7.0,86,0.00,,CLR,0.00,VWS V14.01,2013-09-05 21:11:00,
2013-09-05 17:12:00,84.5,79.9,28.65,SSE,150,6.0,6.0,86,0.00,,CLR,0.00,VWS V14.01,2013-09-05 21:12:00,
2013-09-05 17:13:00,84.5,79.9,28.65,SSE,155,4.0,6.0,86,0.00,,CLR,0.00,VWS V14.01,2013-09-05 21:13:00,
2013-09-05 17:14:00,84.5,79.8,28.65,SE,132,6.0,7.0,86,0.00,,BKN200,0.00,VWS V14.01,2013-09-05 21:14:00,
2013-09-05 17:15:00,84.5,79.5,28.65,SE,136,5.0,7.0,85,0.00,,CLR,0.00,VWS V14.01,2013-09-05 21:15:00,
2013-09-05 17:16:00,84.5,79.9,28.65,ESE,121,6.0,7.0,86,0.00,,CLR,0.00,VWS V14.01,2013-09-05 21:16:00,
2013-09-05 17:17:00,84.5,79.9,28.65,SE,138,9.0,9.0,86,0.00,,CLR,0.00,VWS V14.01,2013-09-05 21:17:00,
2013-09-05 17:18:00,84.5,79.9,28.65,SE,145,7.0,9.0,86,0.00,,CLR,0.00,VWS V14.01,2013-09-05 21:18:00,
2013-09-05 17:19:00,84.7,79.7,28.65,SE,140,9.0,9.0,85,0.00,,BKN200,0.00,VWS V14.01,2013-09-05 21:19:00,
2013-09-05 17:20:00,84.7,80.1,28.65,SE,128,8.0,8.0,86,0.00,,CLR,0.00,VWS V14.01,2013-09-05 21:20:00,
2013-09-05 17:21:00,84.7,79.7,28.65,SE,136,9.0,9.0,85,0.00,,CLR,0.00,VWS V14.01,2013-09-05 21:21:00,
2013-09-05 17:22:00,84.7,79.7,28.65,SE,134,9.0,9.0,85,0.00,,CLR,0.00,VWS V14.01,2013-09-05 21:22:00,
2013-09-05 17:23:00,84.7,80.1,28.65,SE,138,9.0,10.0,86,0.00,,CLR,0.00,VWS V14.01,2013-09-05 21:23:00,
2013-09-05 17:24:00,84.9,80.2,28.65,SSE,164,10.0,10.0,86,0.00,,BKN200,0.00,VWS V14.01,2013-09-05 21:24:00,
2013-09-05 17:25:00,84.7,80.1,28.65,SSE,158,10.0,10.0,86,0.00,,CLR,0.00,VWS V14.01,2013-09-05 21:25:00,
2013-09-05 17:26:00,84.9,80.2,28.65,SSE,158,8.0,10.0,86,0.00,,CLR,0.00,VWS V14.01,2013-09-05 21:26:00,
2013-09-05 17:27:00,84.9,80.2,28.86,South,176,8.0,8.0,86,0.00,,CLR,0.00,VWS V14.01,2013-09-05 21:27:00,
2013-09-05 17:28:00,84.9,80.2,28.86,South,173,6.0,8.0,86,0.00,,CLR,0.00,VWS V14.01,2013-09-05 21:28:00,
2013-09-05 17:29:00,85.3,80.3,28.86,South,177,4.0,9.0,85,0.00,,BKN200,0.00,VWS V14.01,2013-09-05 21:29:00,
2013-09-05 17:30:00,85.3,80.6,28.86,South,184,6.0,7.0,86,0.00,,CLR,0.00,VWS V14.01,2013-09-05 21:30:00,
2013-09-05 17:31:00,85.3,80.3,28.86,SSE,163,6.0,9.0,85,0.00,,CLR,0.00,VWS V14.01,2013-09-05 21:31:00,
2013-09-05 17:32:00,85.3,80.3,28.86,SSE,165,6.0,7.0,85,0.00,,CLR,0.00,VWS V14.01,2013-09-05 21:32:00,
2013-09-05 17:33:00,85.5,80.1,28.86,South,177,6.0,8.0,84,0.00,,CLR,0.00,VWS V14.01,2013-09-05 21:33:00,
2013-09-05 17:34:00,85.7,80.7,28.86,South,175,8.0,8.0,85,0.00,,BKN200,0.00,VWS V14.01,2013-09-05 21:34:00,
2013-09-05 17:35:00,85.7,80.7,28.86,South,169,6.0,7.0,85,0.00,,CLR,0.00,VWS V14.01,2013-09-05 21:35:00,
2013-09-05 17:36:00,85.7,80.7,28.86,SSE,168,7.0,8.0,85,0.00,,CLR,0.00,VWS V14.01,2013-09-05 21:36:00,
2013-09-05 17:37:00,85.7,80.3,28.86,SE,146,7.0,9.0,84,0.00,,CLR,0.00,VWS V14.01,2013-09-05 21:37:00,
2013-09-05 17:38:00,85.5,80.1,28.86,SSE,160,4.0,7.0,84,0.00,,CLR,0.00,VWS V14.01,2013-09-05 21:38:00,
2013-09-05 17:39:00,85.3,79.9,28.86,SE,124,5.0,6.0,84,0.00,,BKN200,0.00,VWS V14.01,2013-09-05 21:39:00,
2013-09-05 17:40:00,85.3,79.6,28.86,SSE,161,5.0,7.0,83,0.00,,CLR,0.00,VWS V14.01,2013-09-05 21:40:00,
2013-09-05 17:41:00,85.3,79.9,28.86,SE,131,7.0,7.0,84,0.00,,CLR,0.00,VWS V14.01,2013-09-05 21:41:00,
2013-09-05 17:42:00,85.3,79.6,28.86,SSE,148,7.0,8.0,83,0.00,,CLR,0.00,VWS V14.01,2013-09-05 21:42:00,
2013-09-05 17:43:00,85.3,79.9,28.86,SE,136,6.0,7.0,84,0.00,,CLR,0.00,VWS V14.01,2013-09-05 21:43:00,
2013-09-05 17:44:00,85.3,79.6,28.04,South,171,4.0,6.0,83,0.00,,BKN200,0.00,VWS V14.01,2013-09-05 21:44:00,
2013-09-05 17:45:00,85.3,79.6,28.04,SE,144,5.0,7.0,83,0.00,,CLR,0.00,VWS V14.01,2013-09-05 21:45:00,
2013-09-05 17:46:00,85.3,79.9,28.04,South,171,5.0,6.0,84,0.00,,CLR,0.00,VWS V14.01,2013-09-05 21:46:00,
2013-09-05 17:47:00,85.1,79.7,28.04,SSE,163,5.0,5.0,84,0.00,,CLR,0.00,VWS V14.01,2013-09-05 21:47:00,
2013-09-05 17:48:00,85.1,79.4,27.48,SSE,163,3.0,5.0,83,0.00,,CLR,0.00,VWS V14.01,2013-09-05 21:48:00,
2013-09-05 17:49:00,85.3,79.9,27.48,SE,146,5.0,5.0,84,0.00,,BKN200,0.00,VWS V14.01,2013-09-05 21:49:00,
2013-09-05 17:50:00,85.3,79.9,27.48,SE,145,5.0,6.0,84,0.00,,CLR,0.00,VWS V14.01,2013-09-05 21:50:00,
2013-09-05 17:51:00,85.3,79.9,27.48,SE,146,6.0,6.0,84,0.00,,CLR,0.00,VWS V14.01,2013-09-05 21:51:00,
2013-09-05 17:52:00,85.3,79.9,27.48,SSE,148,5.0,6.0,84,0.00,,CLR,0.00,VWS V14.01,2013-09-05 21:52:00,
2013-09-05 17:53:00,85.3,79.9,27.48,SSE,147,5.0,5.0,84,0.00,,CLR,0.00,VWS V14.01,2013-09-05 21:53:00,
2013-09-05 17:54:00,85.3,79.9,27.48,SSE,155,4.0,5.0,84,0.00,,BKN200,0.00,VWS V14.01,2013-09-05 21:54:00,
2013-09-05 17:55:00,85.3,79.9,27.48,SSE,149,4.0,6.0,84,0.00,,CLR,0.00,VWS V14.01,2013-09-05 21:55:00,
2013-09-05 17:56:00,85.3,79.9,27.48,SE,141,5.0,5.0,84,0.00,,CLR,0.00,VWS V14.01,2013-09-05 21:56:00,
2013-09-05 17:57:00,85.3,79.9,27.48,SE,141,5.0,6.0,84,0.00,,CLR,0.00,VWS V14.01,2013-09-05 21:57:00,
2013-09-05 17:58:00,85.3,79.9,27.48,SE,130,6.0,6.0,84,0.00,,CLR,0.00,VWS V14.01,2013-09-05 21:58:00,
2013-09-05 17:59:00,85.1,79.7,27.48,SE,146,5.0,5.0,84,0.00,,BKN200,0.00,VWS V14.01,2013-09-05 21:59:00,
2013-09-05 18:00:00,85.1,79.7,27.48,SSE,154,5.0,5.0,84,0.00,,CLR,0.00,VWS V14.01,2013-09-05 22:00:00,
2013-09-05 18:01:00,85.1,79.7,27.48,SE,146,5.0,5.0,84,0.00,,CLR,0.00,VWS V14.01,2013-09-05 22:01:00,
2013-09-05 18:02:00,85.1,79.7,27.48,SSE,166,5.0,5.0,84,0.00,,CLR,0.00,VWS V14.01,2013-09-05 22:02:00,
2013-09-05 18:03:00,85.1,79.7,27.48,SSE,148,4.0,5.0,84,0.00,,CLR,0.00,VWS V14.01,2013-09-05 22:03:00,
2013-09-05 18:04:00,84.9,79.5,27.42,SE,140,5.0,5.0,84,0.00,,BKN200,0.00,VWS V14.01,2013-09-05 22:04:00,
2013-09-05 18:05:00,84.9,79.5,27.42,SSE,153,3.0,5.0,84,0.00,,CLR,0.00,VWS V14.01,2013-09-05 22:05:00,
2013-09-05 18:06:00,84.9,79.5,27.42,South,178,3.0,6.0,84,0.00,,CLR,0.00,VWS V14.01,2013-09-05 22:06:00,
2013-09-05 18:07:00,84.9,79.5,27.42,SSE,147,5.0,5.0,84,0.00,,CLR,0.00,VWS V14.01,2013-09-05 22:07:00,
2013-09-05 18:08:00,85.1,80.1,27.42,SSE,150,6.0,6.0,85,0.00,,CLR,0.00,VWS V14.01,2013-09-05 22:08:00,
2013-09-05 18:09:00,84.9,79.5,27.42,SE,135,5.0,5.0,84,0.00,,BKN200,0.00,VWS V14.01,2013-09-05 22:09:00,
2013-09-05 18:10:00,84.9,79.5,27.42,SE,135,5.0,5.0,84,0.00,,CLR,0.00,VWS V14.01,2013-09-05 22:10:00,
2013-09-05 18:11:00,84.9,79.5,27.42,SSE,167,4.0,5.0,84,0.00,,CLR,0.00,VWS V14.01,2013-09-05 22:11:00,
2013-09-05 18:12:00,84.9,79.5,27.42,SSE,160,5.0,5.0,84,0.00,,CLR,0.00,VWS V14.01,2013-09-05 22:12:00,
2013-09-05 18:13:00,84.9,79.9,27.42,SSE,159,5.0,6.0,85,0.00,,CLR,0.00,VWS V14.01,2013-09-05 22:13:00,
2013-09-05 18:14:00,84.9,79.9,27.42,SSE,157,6.0,6.0,85,0.00,,BKN200,0.00,VWS V14.01,2013-09-05 22:14:00,
2013-09-05 18:15:00,84.9,79.9,27.42,SE,146,5.0,5.0,85,0.00,,CLR,0.00,VWS V14.01,2013-09-05 22:15:00,
2013-09-05 18:16:00,84.9,79.9,27.42,SSE,157,6.0,6.0,85,0.00,,CLR,0.00,VWS V14.01,2013-09-05 22:16:00,
2013-09-05 18:17:00,84.9,79.9,27.42,SSE,147,4.0,6.0,85,0.00,,CLR,0.00,VWS V14.01,2013-09-05 22:17:00,
2013-09-05 18:18:00,84.9,79.9,27.42,SSE,158,5.0,5.0,85,0.00,,CLR,0.00,VWS V14.01,2013-09-05 22:18:00,
2013-09-05 18:19:00,84.9,79.9,27.42,SSE,157,5.0,5.0,85,0.00,,BKN200,0.00,VWS V14.01,2013-09-05 22:19:00,
2013-09-05 18:20:00,84.7,79.7,27.42,SE,146,4.0,5.0,85,0.00,,CLR,0.00,VWS V14.01,2013-09-05 22:20:00,
2013-09-05 18:21:00,84.9,79.9,28.84,SSE,160,5.0,5.0,85,0.00,,CLR,0.00,VWS V14.01,2013-09-05 22:21:00,
2013-09-05 18:22:00,84.7,79.7,28.84,SSE,167,5.0,5.0,85,0.00,,CLR,0.00,VWS V14.01,2013-09-05 22:22:00,
2013-09-05 18:23:00,84.7,79.7,28.84,South,171,4.0,5.0,85,0.00,,CLR,0.00,VWS V14.01,2013-09-05 22:23:00,
2013-09-05 18:24:00,84.9,79.9,28.84,SE,146,6.0,6.0,85,0.00,,BKN200,0.00,VWS V14.01,2013-09-05 22:24:00,
2013-09-05 18:25:00,84.9,79.9,28.84,SSE,147,5.0,6.0,85,0.00,,CLR,0.00,VWS V14.01,2013-09-05 22:25:00,
2013-09-05 18:26:00,84.9,79.9,28.84,SE,146,7.0,7.0,85,0.00,,CLR,0.00,VWS V14.01,2013-09-05 22:26:00,
2013-09-05 18:27:00,84.9,79.9,28.84,South,169,6.0,7.0,85,0.00,,CLR,0.00,VWS V14.01,2013-09-05 22:27:00,
2013-09-05 18:28:00,84.9,79.9,28.84,SSE,162,4.0,6.0,85,0.00,,CLR,0.00,VWS V14.01,2013-09-05 22:28:00,
2013-09-05 18:29:00,84.9,80.2,28.68,SE,136,7.0,7.0,86,0.00,,BKN200,0.00,VWS V14.01,2013-09-05 22:29:00,
2013-09-05 18:30:00,84.9,80.2,28.84,SE,142,7.0,7.0,86,0.00,,CLR,0.00,VWS V14.01,2013-09-05 22:30:00,
2013-09-05 18:31:00,84.9,79.9,28.68,SSE,147,9.0,9.0,85,0.00,,CLR,0.00,VWS V14.01,2013-09-05 22:31:00,
2013-09-05 18:32:00,84.9,80.2,28.68,SE,138,5.0,9.0,86,0.00,,CLR,0.00,VWS V14.01,2013-09-05 22:32:00,
2013-09-05 18:33:00,84.9,80.2,28.68,SSE,153,7.0,7.0,86,0.00,,CLR,0.00,VWS V14.01,2013-09-05 22:33:00,
2013-09-05 18:34:00,84.9,80.2,28.68,SSE,149,6.0,7.0,86,0.00,,BKN200,0.00,VWS V14.01,2013-09-05 22:34:00,
2013-09-05 18:35:00,84.9,80.2,28.68,SSE,149,6.0,8.0,86,0.00,,CLR,0.00,VWS V14.01,2013-09-05 22:35:00,
2013-09-05 18:36:00,84.9,79.9,28.68,SSE,161,6.0,7.0,85,0.00,,CLR,0.00,VWS V14.01,2013-09-05 22:36:00,
2013-09-05 18:37:00,84.9,80.2,28.68,SSE,155,5.0,6.0,86,0.00,,CLR,0.00,VWS V14.01,2013-09-05 22:37:00,
2013-09-05 18:38:00,84.9,80.2,28.68,SSE,155,5.0,6.0,86,0.00,,CLR,0.00,VWS V14.01,2013-09-05 22:38:00,
2013-09-05 18:39:00,84.9,80.2,28.68,South,181,4.0,5.0,86,0.00,,BKN200,0.00,VWS V14.01,2013-09-05 22:39:00,
2013-09-05 18:40:00,84.9,80.2,28.68,South,171,4.0,6.0,86,0.00,,CLR,0.00,VWS V14.01,2013-09-05 22:40:00,
2013-09-05 18:41:00,84.9,80.2,28.68,South,179,3.0,5.0,86,0.00,,CLR,0.00,VWS V14.01,2013-09-05 22:41:00,
2013-09-05 18:42:00,84.9,80.6,28.68,South,178,2.0,4.0,87,0.00,,CLR,0.00,VWS V14.01,2013-09-05 22:42:00,
2013-09-05 18:43:00,84.9,80.2,28.68,South,179,4.0,4.0,86,0.00,,CLR,0.00,VWS V14.01,2013-09-05 22:43:00,
2013-09-05 18:44:00,84.9,80.2,28.47,South,180,4.0,4.0,86,0.00,,BKN200,0.00,VWS V14.01,2013-09-05 22:44:00,
2013-09-05 18:45:00,84.9,80.2,28.47,South,180,2.0,4.0,86,0.00,,CLR,0.00,VWS V14.01,2013-09-05 22:45:00,
2013-09-05 18:46:00,84.9,79.9,28.47,South,180,3.0,4.0,85,0.00,,CLR,0.00,VWS V14.01,2013-09-05 22:46:00,
2013-09-05 18:47:00,84.9,79.9,28.47,South,180,3.0,4.0,85,0.00,,CLR,0.00,VWS V14.01,2013-09-05 22:47:00,
2013-09-05 18:48:00,84.9,79.9,28.47,South,180,2.0,3.0,85,0.00,,CLR,0.00,VWS V14.01,2013-09-05 22:48:00,
2013-09-05 18:49:00,84.9,79.9,28.47,South,178,3.0,3.0,85,0.00,,BKN200,0.00,VWS V14.01,2013-09-05 22:49:00,
2013-09-05 18:50:00,84.9,79.9,28.47,South,177,3.0,4.0,85,0.00,,CLR,0.00,VWS V14.01,2013-09-05 22:50:00,
2013-09-05 18:51:00,84.9,79.9,28.47,South,178,2.0,3.0,85,0.00,,CLR,0.00,VWS V14.01,2013-09-05 22:51:00,
2013-09-05 18:52:00,84.9,79.9,28.47,South,178,2.0,3.0,85,0.00,,CLR,0.00,VWS V14.01,2013-09-05 22:52:00,
2013-09-05 18:53:00,84.9,79.9,28.47,South,178,3.0,3.0,85,0.00,,CLR,0.00,VWS V14.01,2013-09-05 22:53:00,
2013-09-05 18:54:00,84.9,79.9,28.47,South,180,3.0,3.0,85,0.00,,BKN200,0.00,VWS V14.01,2013-09-05 22:54:00,
2013-09-05 18:55:00,84.9,79.9,28.47,South,180,2.0,3.0,85,0.00,,CLR,0.00,VWS V14.01,2013-09-05 22:55:00,
2013-09-05 18:56:00,84.9,79.9,28.47,South,180,2.0,3.0,85,0.00,,CLR,0.00,VWS V14.01,2013-09-05 22:56:00,
2013-09-05 18:57:00,84.9,79.9,29.16,South,180,3.0,3.0,85,0.00,,CLR,0.00,VWS V14.01,2013-09-05 22:57:00,
2013-09-05 18:58:00,84.9,79.9,29.16,South,180,2.0,3.0,85,0.00,,CLR,0.00,VWS V14.01,2013-09-05 22:58:00,
2013-09-05 18:59:00,84.9,79.9,29.33,South,182,3.0,3.0,85,0.00,,BKN200,0.00,VWS V14.01,2013-09-05 22:59:00,
2013-09-05 19:00:00,84.9,79.9,29.16,South,182,2.0,4.0,85,0.00,,CLR,0.00,VWS V14.01,2013-09-05 23:00:00,
2013-09-05 19:01:00,84.9,79.9,29.33,South,182,2.0,3.0,85,0.00,,CLR,0.00,VWS V14.01,2013-09-05 23:01:00,
2013-09-05 19:02:00,84.9,79.9,29.33,South,182,3.0,3.0,85,0.00,,CLR,0.00,VWS V14.01,2013-09-05 23:02:00,
2013-09-05 19:03:00,84.9,79.5,29.33,South,182,2.0,3.0,84,0.00,,CLR,0.00,VWS V14.01,2013-09-05 23:03:00,
2013-09-05 19:04:00,84.7,79.3,29.24,South,183,2.0,2.0,84,0.00,,BKN200,0.00,VWS V14.01,2013-09-05 23:04:00,
2013-09-05 19:05:00,84.7,79.3,29.24,South,183,2.0,4.0,84,0.00,,CLR,0.00,VWS V14.01,2013-09-05 23:05:00,
2013-09-05 19:06:00,84.7,79.3,29.24,South,183,2.0,2.0,84,0.00,,CLR,0.00,VWS V14.01,2013-09-05 23:06:00,
2013-09-05 19:07:00,84.7,79.7,29.24,South,183,4.0,4.0,85,0.00,,CLR,0.00,VWS V14.01,2013-09-05 23:07:00,
2013-09-05 19:08:00,84.7,79.7,29.24,South,183,3.0,4.0,85,0.00,,CLR,0.00,VWS V14.01,2013-09-05 23:08:00,
2013-09-05 19:09:00,84.7,79.7,29.24,South,185,2.0,2.0,85,0.00,,BKN200,0.00,VWS V14.01,2013-09-05 23:09:00,
2013-09-05 19:10:00,84.7,79.3,29.24,South,185,2.0,3.0,84,0.00,,CLR,0.00,VWS V14.01,2013-09-05 23:10:00,
2013-09-05 19:11:00,84.7,79.7,29.24,South,186,3.0,4.0,85,0.00,,CLR,0.00,VWS V14.01,2013-09-05 23:11:00,
2013-09-05 19:12:00,84.7,79.7,29.24,South,186,3.0,4.0,85,0.00,,CLR,0.00,VWS V14.01,2013-09-05 23:12:00,
2013-09-05 19:13:00,84.9,79.9,29.24,South,191,4.0,4.0,85,0.00,,CLR,0.00,VWS V14.01,2013-09-05 23:13:00,
2013-09-05 19:14:00,84.9,79.9,29.24,SSW,198,4.0,4.0,85,0.00,,BKN200,0.00,VWS V14.01,2013-09-05 23:14:00,
2013-09-05 19:15:00,84.9,79.9,29.24,SSW,200,4.0,5.0,85,0.00,,CLR,0.00,VWS V14.01,2013-09-05 23:15:00,
2013-09-05 19:16:00,84.9,79.9,29.24,SSW,203,3.0,4.0,85,0.00,,CLR,0.00,VWS V14.01,2013-09-05 23:16:00,
2013-09-05 19:17:00,84.9,79.9,29.24,SSW,208,5.0,5.0,85,0.00,,CLR,0.00,VWS V14.01,2013-09-05 23:17:00,
2013-09-05 19:18:00,84.9,79.9,29.24,SSW,207,5.0,5.0,85,0.00,,CLR,0.00,VWS V14.01,2013-09-05 23:18:00,
2013-09-05 19:19:00,84.7,79.7,29.24,South,184,5.0,5.0,85,0.00,,BKN200,0.00,VWS V14.01,2013-09-05 23:19:00,
2013-09-05 19:20:00,84.7,79.7,29.24,South,180,5.0,6.0,85,0.00,,CLR,0.00,VWS V14.01,2013-09-05 23:20:00,
2013-09-05 19:21:00,84.9,80.2,29.24,South,190,4.0,5.0,86,0.00,,CLR,0.00,VWS V14.01,2013-09-05 23:21:00,
2013-09-05 19:22:00,84.9,80.2,29.24,SW,221,5.0,5.0,86,0.00,,CLR,0.00,VWS V14.01,2013-09-05 23:22:00,
2013-09-05 19:23:00,84.7,79.7,29.24,South,183,7.0,7.0,85,0.00,,CLR,0.00,VWS V14.01,2013-09-05 23:23:00,
2013-09-05 19:24:00,84.7,80.1,29.24,South,184,5.0,5.0,86,0.00,,BKN200,0.00,VWS V14.01,2013-09-05 23:24:00,
2013-09-05 19:25:00,84.7,80.1,29.24,SSW,196,5.0,6.0,86,0.00,,CLR,0.00,VWS V14.01,2013-09-05 23:25:00,
2013-09-05 19:26:00,84.7,80.1,29.24,South,180,6.0,6.0,86,0.00,,CLR,0.00,VWS V14.01,2013-09-05 23:26:00,
2013-09-05 19:27:00,84.7,80.1,29.24,South,182,5.0,6.0,86,0.00,,CLR,0.00,VWS V14.01,2013-09-05 23:27:00,
2013-09-05 19:28:00,84.7,80.1,29.24,SSW,196,6.0,6.0,86,0.00,,CLR,0.00,VWS V14.01,2013-09-05 23:28:00,
2013-09-05 19:29:00,84.7,80.1,29.28,SSW,192,3.0,5.0,86,0.00,,BKN200,0.00,VWS V14.01,2013-09-05 23:29:00,
2013-09-05 19:30:00,84.7,80.1,29.28,South,190,5.0,5.0,86,0.00,,CLR,0.00,VWS V14.01,2013-09-05 23:30:00,
2013-09-05 19:31:00,84.7,80.1,29.28,SW,228,4.0,6.0,86,0.00,,CLR,0.00,VWS V14.01,2013-09-05 23:31:00,
2013-09-05 19:32:00,84.7,80.1,29.41,SW,218,1.0,4.0,86,0.00,,CLR,0.00,VWS V14.01,2013-09-05 23:32:00,
2013-09-05 19:33:00,84.7,80.1,29.41,SW,218,2.0,2.0,86,0.00,,CLR,0.00,VWS V14.01,2013-09-05 23:33:00,
2013-09-05 19:34:00,84.7,80.1,29.41,SW,218,0.0,0.0,86,0.00,,BKN200,0.00,VWS V14.01,2013-09-05 23:34:00,
2013-09-05 19:35:00,84.7,80.1,29.41,SW,218,0.0,1.0,86,0.00,,CLR,0.00,VWS V14.01,2013-09-05 23:35:00,
2013-09-05 19:36:00,84.7,80.1,29.41,SW,218,1.0,1.0,86,0.00,,CLR,0.00,VWS V14.01,2013-09-05 23:36:00,
2013-09-05 19:37:00,84.7,80.1,29.41,WSW,245,2.0,4.0,86,0.00,,CLR,0.00,VWS V14.01,2013-09-05 23:37:00,
2013-09-05 19:38:00,84.7,80.1,29.39,WSW,246,3.0,3.0,86,0.00,,CLR,0.00,VWS V14.01,2013-09-05 23:38:00,
2013-09-05 19:39:00,84.5,79.8,29.39,WSW,246,0.0,0.0,86,0.00,,BKN200,0.00,VWS V14.01,2013-09-05 23:39:00,
2013-09-05 19:40:00,84.5,79.9,29.39,WSW,246,0.0,4.0,86,0.00,,CLR,0.00,VWS V14.01,2013-09-05 23:40:00,
2013-09-05 19:41:00,84.5,79.9,29.39,WSW,246,0.0,1.0,86,0.00,,CLR,0.00,VWS V14.01,2013-09-05 23:41:00,
2013-09-05 19:42:00,84.5,79.9,29.39,WSW,246,4.0,4.0,86,0.00,,CLR,0.00,VWS V14.01,2013-09-05 23:42:00,
2013-09-05 19:43:00,84.5,79.9,29.39,WSW,245,2.0,4.0,86,0.00,,CLR,0.00,VWS V14.01,2013-09-05 23:43:00,
2013-09-05 19:44:00,84.5,79.8,29.39,WSW,240,2.0,2.0,86,0.00,,BKN200,0.00,VWS V14.01,2013-09-05 23:44:00,
2013-09-05 19:45:00,84.5,79.9,29.39,WSW,240,2.0,4.0,86,0.00,,CLR,0.00,VWS V14.01,2013-09-05 23:45:00,
2013-09-05 19:46:00,84.5,79.9,29.39,WSW,240,1.0,3.0,86,0.00,,CLR,0.00,VWS V14.01,2013-09-05 23:46:00,
2013-09-05 19:47:00,84.5,79.9,29.39,WSW,240,1.0,2.0,86,0.00,,CLR,0.00,VWS V14.01,2013-09-05 23:47:00,
2013-09-05 19:48:00,84.5,79.9,29.49,WSW,240,0.0,2.0,86,0.00,,CLR,0.00,VWS V14.01,2013-09-05 23:48:00,
2013-09-05 19:49:00,84.5,79.8,29.49,WSW,246,2.0,4.0,86,0.00,,BKN200,0.00,VWS V14.01,2013-09-05 23:49:00,
2013-09-05 19:50:00,84.5,79.9,29.49,WSW,246,4.0,4.0,86,0.00,,CLR,0.00,VWS V14.01,2013-09-05 23:50:00,
2013-09-05 19:51:00,84.3,79.7,29.49,WSW,249,2.0,4.0,86,0.00,,CLR,0.00,VWS V14.01,2013-09-05 23:51:00,
2013-09-05 19:52:00,84.3,79.7,29.49,WSW,249,2.0,2.0,86,0.00,,CLR,0.00,VWS V14.01,2013-09-05 23:52:00,
2013-09-05 19:53:00,84.3,79.7,29.49,WSW,249,0.0,2.0,86,0.00,,CLR,0.00,VWS V14.01,2013-09-05 23:53:00,
2013-09-05 19:54:00,84.3,79.7,29.49,WSW,243,4.0,4.0,86,0.00,,BKN200,0.00,VWS V14.01,2013-09-05 23:54:00,
2013-09-05 19:55:00,84.3,79.7,29.49,WSW,237,1.0,3.0,86,0.00,,CLR,0.00,VWS V14.01,2013-09-05 23:55:00,
2013-09-05 19:56:00,84.3,79.7,29.49,WSW,243,3.0,4.0,86,0.00,,FEW045,0.00,VWS V14.01,2013-09-05 23:56:00,
2013-09-05 19:57:00,84.3,79.7,29.49,SW,225,3.0,3.0,86,0.00,,FEW045,0.00,VWS V14.01,2013-09-05 23:57:00,
2013-09-05 19:58:00,84.3,79.7,29.49,SW,221,2.0,3.0,86,0.00,,CLR,0.00,VWS V14.01,2013-09-05 23:58:00,
2013-09-05 19:59:00,84.3,79.7,29.49,SW,217,6.0,6.0,86,0.00,,BKN200,0.00,VWS V14.01,2013-09-05 23:59:00,
2013-09-05 20:00:00,84.3,79.7,29.49,SW,217,3.0,3.0,86,0.00,,CLR,0.00,VWS V14.01,2013-09-06 00:00:00,
2013-09-05 20:01:00,84.3,79.7,29.49,SW,220,6.0,6.0,86,0.00,,CLR,0.00,VWS V14.01,2013-09-06 00:01:00,
2013-09-05 20:02:00,84.3,79.7,29.49,SW,219,3.0,6.0,86,0.00,,CLR,0.00,VWS V14.01,2013-09-06 00:02:00,
2013-09-05 20:03:00,84.3,79.7,29.49,WSW,239,3.0,3.0,86,0.00,,CLR,0.00,VWS V14.01,2013-09-06 00:03:00,
2013-09-05 20:04:00,84.1,79.5,29.49,WSW,250,2.0,2.0,86,0.00,,BKN200,0.00,VWS V14.01,2013-09-06 00:04:00,
2013-09-05 20:05:00,84.1,79.5,29.49,WSW,250,2.0,4.0,86,0.00,,CLR,0.00,VWS V14.01,2013-09-06 00:05:00,
2013-09-05 20:06:00,84.1,79.5,29.49,WSW,250,2.0,2.0,86,0.00,,CLR,0.00,VWS V14.01,2013-09-06 00:06:00,
2013-09-05 20:07:00,84.1,79.5,29.49,SW,231,2.0,3.0,86,0.00,,CLR,0.00,VWS V14.01,2013-09-06 00:07:00,
2013-09-05 20:08:00,84.1,79.5,29.49,SSW,208,3.0,4.0,86,0.00,,CLR,0.00,VWS V14.01,2013-09-06 00:08:00,
2013-09-05 20:09:00,84.3,80.0,29.49,SW,225,2.0,4.0,87,0.00,,BKN200,0.00,VWS V14.01,2013-09-06 00:09:00,
2013-09-05 20:10:00,84.3,80.0,29.49,SSW,209,4.0,5.0,87,0.00,,CLR,0.00,VWS V14.01,2013-09-06 00:10:00,
2013-09-05 20:11:00,84.3,80.0,29.49,SW,226,6.0,6.0,87,0.00,,CLR,0.00,VWS V14.01,2013-09-06 00:11:00,
2013-09-05 20:12:00,84.3,80.0,29.49,SSW,198,4.0,6.0,87,0.00,,CLR,0.00,VWS V14.01,2013-09-06 00:12:00,
2013-09-05 20:13:00,84.3,80.0,29.49,SW,215,5.0,6.0,87,0.00,,CLR,0.00,VWS V14.01,2013-09-06 00:13:00,
2013-09-05 20:14:00,84.3,80.0,29.49,WSW,242,2.0,2.0,87,0.00,,BKN200,0.00,VWS V14.01,2013-09-06 00:14:00,
2013-09-05 20:15:00,84.3,80.0,29.49,WSW,242,1.0,3.0,87,0.00,,CLR,0.00,VWS V14.01,2013-09-06 00:15:00,
2013-09-05 20:16:00,84.3,80.0,29.49,SSW,198,4.0,4.0,87,0.00,,CLR,0.00,VWS V14.01,2013-09-06 00:16:00,
2013-09-05 20:17:00,84.3,79.7,29.22,SSW,211,5.0,6.0,86,0.00,,CLR,0.00,VWS V14.01,2013-09-06 00:17:00,
2013-09-05 20:18:00,84.3,80.0,29.22,SSW,204,5.0,7.0,87,0.00,,CLR,0.00,VWS V14.01,2013-09-06 00:18:00,
2013-09-05 20:19:00,84.5,80.2,29.51,SSW,209,4.0,6.0,87,0.00,,BKN200,0.00,VWS V14.01,2013-09-06 00:19:00,
2013-09-05 20:20:00,84.5,80.2,29.22,South,189,6.0,6.0,87,0.00,,CLR,0.00,VWS V14.01,2013-09-06 00:20:00,
2013-09-05 20:21:00,84.5,80.6,29.51,SW,231,4.0,6.0,88,0.00,,CLR,0.00,VWS V14.01,2013-09-06 00:21:00,
2013-09-05 20:22:00,84.5,80.2,29.51,SSW,206,5.0,5.0,87,0.00,,CLR,0.00,VWS V14.01,2013-09-06 00:22:00,
2013-09-05 20:23:00,84.5,80.2,29.51,SSW,208,3.0,5.0,87,0.00,,CLR,0.00,VWS V14.01,2013-09-06 00:23:00,
2013-09-05 20:24:00,84.3,80.0,29.51,SW,215,4.0,4.0,87,0.00,,BKN200,0.00,VWS V14.01,2013-09-06 00:24:00,
2013-09-05 20:25:00,84.3,80.0,29.51,SW,215,4.0,7.0,87,0.00,,CLR,0.00,VWS V14.01,2013-09-06 00:25:00,
2013-09-05 20:26:00,84.1,79.8,29.51,SSW,212,4.0,4.0,87,0.00,,CLR,0.00,VWS V14.01,2013-09-06 00:26:00,
2013-09-05 20:27:00,84.1,79.8,29.51,SSW,213,3.0,4.0,87,0.00,,CLR,0.00,VWS V14.01,2013-09-06 00:27:00,
2013-09-05 20:28:00,84.1,79.8,29.51,SW,215,3.0,5.0,87,0.00,,CLR,0.00,VWS V14.01,2013-09-06 00:28:00,
2013-09-05 20:29:00,84.1,79.8,29.51,SW,216,4.0,4.0,87,0.00,,BKN200,0.00,VWS V14.01,2013-09-06 00:29:00,
2013-09-05 20:30:00,84.1,79.8,29.51,SW,217,3.0,5.0,87,0.00,,CLR,0.00,VWS V14.01,2013-09-06 00:30:00,
2013-09-05 20:31:00,84.0,79.7,29.51,SW,219,4.0,4.0,87,0.00,,CLR,0.00,VWS V14.01,2013-09-06 00:31:00,
2013-09-05 20:32:00,84.0,79.7,29.51,SW,218,3.0,4.0,87,0.00,,CLR,0.00,VWS V14.01,2013-09-06 00:32:00,
2013-09-05 20:33:00,84.0,79.7,29.51,SSW,213,2.0,5.0,87,0.00,,CLR,0.00,VWS V14.01,2013-09-06 00:33:00,
2013-09-05 20:34:00,84.0,79.7,29.51,SW,217,3.0,3.0,87,0.00,,BKN200,0.00,VWS V14.01,2013-09-06 00:34:00,
2013-09-05 20:35:00,84.0,79.7,29.51,SW,215,2.0,3.0,87,0.00,,CLR,0.00,VWS V14.01,2013-09-06 00:35:00,
2013-09-05 20:36:00,84.0,79.7,29.51,SW,217,1.0,3.0,87,0.00,,CLR,0.00,VWS V14.01,2013-09-06 00:36:00,
2013-09-05 20:37:00,84.0,79.7,29.51,SW,218,2.0,2.0,87,0.00,,CLR,0.00,VWS V14.01,2013-09-06 00:37:00,
2013-09-05 20:38:00,84.0,79.7,29.51,SW,218,0.0,2.0,87,0.00,,CLR,0.00,VWS V14.01,2013-09-06 00:38:00,
2013-09-05 20:39:00,84.0,80.1,29.37,West,261,2.0,2.0,88,0.00,,BKN200,0.00,VWS V14.01,2013-09-06 00:39:00,
2013-09-05 20:40:00,84.0,79.7,29.51,West,261,2.0,4.0,87,0.00,,CLR,0.00,VWS V14.01,2013-09-06 00:40:00,
2013-09-05 20:41:00,84.0,80.1,29.37,SW,219,6.0,6.0,88,0.00,,CLR,0.00,VWS V14.01,2013-09-06 00:41:00,
2013-09-05 20:42:00,84.0,80.1,29.37,SSW,213,7.0,10.0,88,0.00,,CLR,0.00,VWS V14.01,2013-09-06 00:42:00,
2013-09-05 20:43:00,84.0,80.1,29.37,SW,218,7.0,7.0,88,0.00,,CLR,0.00,VWS V14.01,2013-09-06 00:43:00,
2013-09-05 20:44:00,84.0,80.1,29.37,SSW,200,9.0,9.0,88,0.00,,BKN200,0.00,VWS V14.01,2013-09-06 00:44:00,
2013-09-05 20:45:00,84.0,80.1,29.37,SSW,207,5.0,8.0,88,0.00,,CLR,0.00,VWS V14.01,2013-09-06 00:45:00,
2013-09-05 20:46:00,84.0,80.1,29.37,SSW,202,7.0,9.0,88,0.00,,CLR,0.00,VWS V14.01,2013-09-06 00:46:00,
2013-09-05 20:47:00,84.0,80.1,29.37,SSW,208,4.0,7.0,88,0.00,,CLR,0.00,VWS V14.01,2013-09-06 00:47:00,
2013-09-05 20:48:00,84.0,80.1,29.37,SSW,201,6.0,9.0,88,0.00,,CLR,0.00,VWS V14.01,2013-09-06 00:48:00,
2013-09-05 20:49:00,84.1,80.5,29.37,SW,216,6.0,6.0,89,0.00,,BKN200,0.00,VWS V14.01,2013-09-06 00:49:00,
2013-09-05 20:50:00,84.0,80.4,29.37,SW,225,5.0,7.0,89,0.00,,CLR,0.00,VWS V14.01,2013-09-06 00:50:00,
2013-09-05 20:51:00,84.1,80.2,29.37,SW,226,6.0,6.0,88,0.00,,FEW045,0.00,VWS V14.01,2013-09-06 00:51:00,
2013-09-05 20:52:00,84.0,80.1,29.37,SSW,202,6.0,7.0,88,0.00,,CLR,0.00,VWS V14.01,2013-09-06 00:52:00,
2013-09-05 20:53:00,84.0,80.1,29.37,SW,230,2.0,6.0,88,0.00,,CLR,0.00,VWS V14.01,2013-09-06 00:53:00,
2013-09-05 20:54:00,84.0,80.1,29.37,SW,222,2.0,2.0,88,0.00,,BKN200,0.00,VWS V14.01,2013-09-06 00:54:00,
2013-09-05 20:55:00,84.0,80.1,29.37,SW,222,2.0,2.0,88,0.00,,CLR,0.00,VWS V14.01,2013-09-06 00:55:00,
2013-09-05 20:56:00,84.0,80.1,29.37,SW,231,2.0,2.0,88,0.00,,CLR,0.00,VWS V14.01,2013-09-06 00:56:00,
2013-09-05 20:57:00,84.0,80.1,29.37,SSW,192,6.0,6.0,88,0.00,,CLR,0.00,VWS V14.01,2013-09-06 00:57:00,
2013-09-05 20:58:00,84.0,80.1,29.37,SSW,210,5.0,6.0,88,0.00,,CLR,0.00,VWS V14.01,2013-09-06 00:58:00,
2013-09-05 20:59:00,84.0,80.4,29.37,SW,219,2.0,3.0,89,0.00,,BKN200,0.00,VWS V14.01,2013-09-06 00:59:00,
2013-09-05 21:00:00,84.0,80.4,29.37,SW,219,3.0,4.0,89,0.00,,CLR,0.00,VWS V14.01,2013-09-06 01:00:00,
2013-09-05 21:01:00,84.0,80.1,29.37,SSW,212,5.0,5.0,88,0.00,,CLR,0.00,VWS V14.01,2013-09-06 01:01:00,
2013-09-05 21:02:00,84.0,80.4,29.61,SW,223,5.0,6.0,89,0.00,,CLR,0.00,VWS V14.01,2013-09-06 01:02:00,
2013-09-05 21:03:00,84.0,80.4,29.61,SSW,210,3.0,5.0,89,0.00,,CLR,0.00,VWS V14.01,2013-09-06 01:03:00,
2013-09-05 21:04:00,84.0,80.4,29.61,SSW,212,2.0,5.0,89,0.00,,BKN200,0.00,VWS V14.01,2013-09-06 01:04:00,
2013-09-05 21:05:00,84.0,80.4,29.61,SSW,211,5.0,5.0,89,0.00,,CLR,0.00,VWS V14.01,2013-09-06 01:05:00,
2013-09-05 21:06:00,84.0,80.4,29.61,SW,229,4.0,5.0,89,0.00,,CLR,0.00,VWS V14.01,2013-09-06 01:06:00,
2013-09-05 21:07:00,83.8,80.2,29.61,SW,236,2.0,4.0,89,0.00,,CLR,0.00,VWS V14.01,2013-09-06 01:07:00,
2013-09-05 21:08:00,83.8,80.2,29.61,WSW,248,1.0,4.0,89,0.00,,CLR,0.00,VWS V14.01,2013-09-06 01:08:00,
2013-09-05 21:09:00,83.8,80.2,29.61,SW,214,6.0,6.0,89,0.00,,BKN200,0.00,VWS V14.01,2013-09-06 01:09:00,
2013-09-05 21:10:00,83.8,80.2,29.61,SW,224,4.0,4.0,89,0.00,,CLR,0.00,VWS V14.01,2013-09-06 01:10:00,
2013-09-05 21:11:00,83.8,80.2,29.61,SW,219,4.0,6.0,89,0.00,,CLR,0.00,VWS V14.01,2013-09-06 01:11:00,
2013-09-05 21:12:00,83.8,80.2,28.47,SW,218,2.0,4.0,89,0.00,,CLR,0.00,VWS V14.01,2013-09-06 01:12:00,
2013-09-05 21:13:00,83.8,80.2,28.47,SW,218,1.0,2.0,89,0.00,,CLR,0.00,VWS V14.01,2013-09-06 01:13:00,
2013-09-05 21:14:00,83.8,80.2,28.47,SW,225,1.0,3.0,89,0.00,,BKN200,0.00,VWS V14.01,2013-09-06 01:14:00,
2013-09-05 21:15:00,83.8,80.2,28.47,SW,225,3.0,3.0,89,0.00,,CLR,0.00,VWS V14.01,2013-09-06 01:15:00,
2013-09-05 21:16:00,83.8,80.2,28.47,SW,225,2.0,3.0,89,0.00,,CLR,0.00,VWS V14.01,2013-09-06 01:16:00,
2013-09-05 21:17:00,83.8,80.2,28.47,SW,221,2.0,4.0,89,0.00,,CLR,0.00,VWS V14.01,2013-09-06 01:17:00,
2013-09-05 21:18:00,83.8,80.2,28.47,SW,220,3.0,3.0,89,0.00,,CLR,0.00,VWS V14.01,2013-09-06 01:18:00,
2013-09-05 21:19:00,83.8,80.6,28.47,SSW,205,6.0,6.0,90,0.00,,BKN200,0.00,VWS V14.01,2013-09-06 01:19:00,
2013-09-05 21:20:00,83.8,80.2,28.47,SSW,202,4.0,4.0,89,0.00,,CLR,0.00,VWS V14.01,2013-09-06 01:20:00,
2013-09-05 21:21:00,83.8,80.6,28.47,SSW,211,6.0,6.0,90,0.00,,CLR,0.00,VWS V14.01,2013-09-06 01:21:00,
2013-09-05 21:22:00,83.8,80.2,28.47,SW,215,5.0,7.0,89,0.00,,CLR,0.00,VWS V14.01,2013-09-06 01:22:00,
2013-09-05 21:23:00,83.8,80.2,28.47,SSW,208,6.0,7.0,89,0.00,,CLR,0.00,VWS V14.01,2013-09-06 01:23:00,
2013-09-05 21:24:00,84.0,80.8,28.47,SSW,212,2.0,2.0,90,0.00,,BKN200,0.00,VWS V14.01,2013-09-06 01:24:00,
2013-09-05 21:25:00,84.0,80.4,28.47,SSW,212,2.0,4.0,89,0.00,,CLR,0.00,VWS V14.01,2013-09-06 01:25:00,
2013-09-05 21:26:00,84.0,80.8,28.47,SW,219,0.0,2.0,90,0.00,,CLR,0.00,VWS V14.01,2013-09-06 01:26:00,
2013-09-05 21:27:00,84.0,80.8,28.47,SW,227,1.0,3.0,90,0.00,,CLR,0.00,VWS V14.01,2013-09-06 01:27:00,
2013-09-05 21:28:00,84.0,80.8,28.47,WSW,240,1.0,2.0,90,0.00,,CLR,0.00,VWS V14.01,2013-09-06 01:28:00,
2013-09-05 21:29:00,83.8,80.2,28.47,WSW,241,2.0,3.0,89,0.00,,BKN200,0.00,VWS V14.01,2013-09-06 01:29:00,
2013-09-05 21:30:00,83.8,80.2,28.47,WSW,241,3.0,3.0,89,0.00,,CLR,0.00,VWS V14.01,2013-09-06 01:30:00,
2013-09-05 21:31:00,83.8,80.2,28.47,WSW,241,0.0,3.0,89,0.00,,CLR,0.00,VWS V14.01,2013-09-06 01:31:00,
2013-09-05 21:32:00,83.8,80.2,28.47,WSW,240,1.0,1.0,89,0.00,,CLR,0.00,VWS V14.01,2013-09-06 01:32:00,
2013-09-05 21:33:00,83.8,80.2,28.47,WSW,241,2.0,5.0,89,0.00,,CLR,0.00,VWS V14.01,2013-09-06 01:33:00,
2013-09-05 21:34:00,83.6,80.4,28.47,WSW,242,1.0,2.0,90,0.00,,BKN200,0.00,VWS V14.01,2013-09-06 01:34:00,
2013-09-05 21:35:00,83.6,80.4,28.47,WSW,242,2.0,4.0,90,0.00,,CLR,0.00,VWS V14.01,2013-09-06 01:35:00,
2013-09-05 21:36:00,83.6,80.4,28.47,WSW,242,2.0,2.0,90,0.00,,CLR,0.00,VWS V14.01,2013-09-06 01:36:00,
2013-09-05 21:37:00,83.6,80.4,28.47,West,264,2.0,3.0,90,0.00,,CLR,0.00,VWS V14.01,2013-09-06 01:37:00,
2013-09-05 21:38:00,83.6,80.4,28.47,WSW,253,4.0,4.0,90,0.00,,CLR,0.00,VWS V14.01,2013-09-06 01:38:00,
2013-09-05 21:39:00,83.4,80.2,28.47,WSW,253,2.0,2.0,90,0.00,,SCT200,0.00,VWS V14.01,2013-09-06 01:39:00,
2013-09-05 21:40:00,83.4,80.2,28.47,WSW,252,2.0,2.0,90,0.00,,CLR,0.00,VWS V14.01,2013-09-06 01:40:00,
2013-09-05 21:41:00,83.4,80.2,28.47,WSW,252,4.0,4.0,90,0.00,,CLR,0.00,VWS V14.01,2013-09-06 01:41:00,
2013-09-05 21:42:00,83.4,80.2,28.47,WSW,256,1.0,4.0,90,0.00,,CLR,0.00,VWS V14.01,2013-09-06 01:42:00,
2013-09-05 21:43:00,83.4,80.2,28.47,WSW,256,0.0,1.0,90,0.00,,CLR,0.00,VWS V14.01,2013-09-06 01:43:00,
2013-09-05 21:44:00,83.2,80.0,28.47,WSW,237,3.0,5.0,90,0.00,,SCT200,0.00,VWS V14.01,2013-09-06 01:44:00,
2013-09-05 21:45:00,83.2,80.0,28.47,WSW,242,5.0,5.0,90,0.00,,CLR,0.00,VWS V14.01,2013-09-06 01:45:00,
2013-09-05 21:46:00,83.2,80.3,28.47,WSW,237,0.0,5.0,91,0.00,,CLR,0.00,VWS V14.01,2013-09-06 01:46:00,
2013-09-05 21:47:00,83.2,80.3,28.47,WSW,237,1.0,3.0,91,0.00,,CLR,0.00,VWS V14.01,2013-09-06 01:47:00,
2013-09-05 21:48:00,83.2,80.3,28.47,WSW,238,1.0,3.0,91,0.00,,CLR,0.00,VWS V14.01,2013-09-06 01:48:00,
2013-09-05 21:49:00,83.2,80.3,27.41,WSW,257,3.0,3.0,91,0.00,,SCT200,0.00,VWS V14.01,2013-09-06 01:49:00,
2013-09-05 21:50:00,83.2,80.3,28.47,WSW,257,3.0,4.0,91,0.00,,CLR,0.00,VWS V14.01,2013-09-06 01:50:00,
2013-09-05 21:51:00,83.2,80.3,27.41,WSW,257,0.0,3.0,91,0.00,,CLR,0.00,VWS V14.01,2013-09-06 01:51:00,
2013-09-05 21:52:00,83.0,80.1,27.41,WSW,257,1.0,1.0,91,0.00,,CLR,0.00,VWS V14.01,2013-09-06 01:52:00,
2013-09-05 21:53:00,83.0,80.1,27.41,WSW,257,1.0,1.0,91,0.00,,CLR,0.00,VWS V14.01,2013-09-06 01:53:00,
2013-09-05 21:54:00,83.0,80.1,27.41,WSW,257,2.0,2.0,91,0.00,,SCT200,0.00,VWS V14.01,2013-09-06 01:54:00,
2013-09-05 21:55:00,83.0,80.1,27.41,WSW,257,2.0,2.0,91,0.00,,CLR,0.00,VWS V14.01,2013-09-06 01:55:00,
2013-09-05 21:56:00,83.0,80.1,27.41,WSW,257,0.0,2.0,91,0.00,,CLR,0.00,VWS V14.01,2013-09-06 01:56:00,
2013-09-05 21:57:00,83.0,80.1,27.41,WSW,257,0.0,2.0,91,0.00,,CLR,0.00,VWS V14.01,2013-09-06 01:57:00,
2013-09-05 21:58:00,83.0,80.1,27.41,WSW,257,0.0,0.0,91,0.00,,CLR,0.00,VWS V14.01,2013-09-06 01:58:00,
2013-09-05 21:59:00,83.0,80.1,28.27,WSW,257,0.0,0.0,91,0.00,,SCT200,0.00,VWS V14.01,2013-09-06 01:59:00,
2013-09-05 22:00:00,83.0,80.1,28.27,WSW,257,0.0,2.0,91,0.00,,CLR,0.00,VWS V14.01,2013-09-06 02:00:00,
2013-09-05 22:01:00,82.8,79.9,28.27,WSW,257,0.0,0.0,91,0.00,,CLR,0.00,VWS V14.01,2013-09-06 02:01:00,
2013-09-05 22:02:00,82.8,79.9,28.27,WSW,255,2.0,4.0,91,0.00,,CLR,0.00,VWS V14.01,2013-09-06 02:02:00,
2013-09-05 22:03:00,82.8,80.2,28.27,WSW,257,1.0,2.0,92,0.00,,CLR,0.00,VWS V14.01,2013-09-06 02:03:00,
2013-09-05 22:04:00,82.8,80.2,28.27,WSW,251,3.0,4.0,92,0.00,,SCT200,0.00,VWS V14.01,2013-09-06 02:04:00,
2013-09-05 22:05:00,82.8,80.2,28.27,WSW,251,4.0,4.0,92,0.00,,CLR,0.00,VWS V14.01,2013-09-06 02:05:00,
2013-09-05 22:06:00,82.8,80.2,28.27,WSW,251,4.0,4.0,92,0.00,,CLR,0.00,VWS V14.01,2013-09-06 02:06:00,
2013-09-05 22:07:00,82.8,80.2,28.27,WSW,253,3.0,4.0,92,0.00,,CLR,0.00,VWS V14.01,2013-09-06 02:07:00,
2013-09-05 22:08:00,82.8,80.2,28.27,West,261,1.0,3.0,92,0.00,,CLR,0.00,VWS V14.01,2013-09-06 02:08:00,
2013-09-05 22:09:00,82.8,80.2,28.27,WSW,248,3.0,3.0,92,0.00,,SCT200,0.00,VWS V14.01,2013-09-06 02:09:00,
2013-09-05 22:10:00,82.8,80.2,28.27,WSW,248,2.0,4.0,92,0.00,,CLR,0.00,VWS V14.01,2013-09-06 02:10:00,
2013-09-05 22:11:00,82.8,80.2,28.27,WSW,252,4.0,4.0,92,0.00,,CLR,0.00,VWS V14.01,2013-09-06 02:11:00,
2013-09-05 22:12:00,82.8,80.2,28.27,WSW,238,4.0,5.0,92,0.00,,CLR,0.00,VWS V14.01,2013-09-06 02:12:00,
2013-09-05 22:13:00,82.6,80.0,28.13,West,280,0.0,4.0,92,0.00,,CLR,0.00,VWS V14.01,2013-09-06 02:13:00,
2013-09-05 22:14:00,82.6,80.0,28.08,WNW,284,1.0,3.0,92,0.00,,SCT200,0.00,VWS V14.01,2013-09-06 02:14:00,
2013-09-05 22:15:00,82.6,80.0,28.08,WNW,282,3.0,6.0,92,0.00,,CLR,0.00,VWS V14.01,2013-09-06 02:15:00,
2013-09-05 22:16:00,82.6,80.0,28.08,West,275,3.0,3.0,92,0.00,,CLR,0.00,VWS V14.01,2013-09-06 02:16:00,
2013-09-05 22:17:00,82.4,79.8,28.08,West,275,1.0,3.0,92,0.00,,CLR,0.00,VWS V14.01,2013-09-06 02:17:00,
2013-09-05 22:18:00,82.4,79.8,28.08,WSW,242,2.0,5.0,92,0.00,,CLR,0.00,VWS V14.01,2013-09-06 02:18:00,
2013-09-05 22:19:00,82.2,79.7,28.08,WSW,242,2.0,2.0,92,0.00,,SCT200,0.00,VWS V14.01,2013-09-06 02:19:00,
2013-09-05 22:20:00,82.2,79.7,28.08,WSW,242,0.0,1.0,92,0.00,,CLR,0.00,VWS V14.01,2013-09-06 02:20:00,
2013-09-05 22:21:00,82.2,79.7,28.08,West,265,1.0,4.0,92,0.00,,CLR,0.00,VWS V14.01,2013-09-06 02:21:00,
2013-09-05 22:22:00,82.2,79.7,28.08,West,266,2.0,2.0,92,0.00,,CLR,0.00,VWS V14.01,2013-09-06 02:22:00,
2013-09-05 22:23:00,82.0,79.4,28.08,West,270,1.0,3.0,92,0.00,,CLR,0.00,VWS V14.01,2013-09-06 02:23:00,
2013-09-05 22:24:00,81.8,79.2,28.08,West,270,1.0,1.0,92,0.00,,SCT200,0.00,VWS V14.01,2013-09-06 02:24:00,
2013-09-05 22:25:00,82.0,79.4,28.08,West,270,1.0,1.0,92,0.00,,CLR,0.00,VWS V14.01,2013-09-06 02:25:00,
2013-09-05 22:26:00,81.8,79.2,28.08,West,270,1.0,1.0,92,0.00,,CLR,0.00,VWS V14.01,2013-09-06 02:26:00,
2013-09-05 22:27:00,81.8,79.2,28.08,West,270,4.0,4.0,92,0.00,,CLR,0.00,VWS V14.01,2013-09-06 02:27:00,
2013-09-05 22:28:00,81.6,79.1,28.08,West,271,5.0,5.0,92,0.00,,CLR,0.00,VWS V14.01,2013-09-06 02:28:00,
2013-09-05 22:29:00,81.4,78.9,28.08,West,270,0.0,0.0,92,0.00,,SCT200,0.00,VWS V14.01,2013-09-06 02:29:00,
2013-09-05 22:30:00,81.4,78.9,28.08,West,270,0.0,1.0,92,0.00,,CLR,0.00,VWS V14.01,2013-09-06 02:30:00,
2013-09-05 22:31:00,81.4,78.9,28.08,West,271,1.0,2.0,92,0.00,,CLR,0.00,VWS V14.01,2013-09-06 02:31:00,
2013-09-05 22:32:00,81.2,78.7,28.08,WNW,298,1.0,3.0,92,0.00,,CLR,0.00,VWS V14.01,2013-09-06 02:32:00,
2013-09-05 22:33:00,81.2,78.7,28.80,WNW,297,2.0,4.0,92,0.00,,CLR,0.00,VWS V14.01,2013-09-06 02:33:00,
2013-09-05 22:34:00,81.1,78.2,28.80,WNW,294,1.0,4.0,91,0.00,,SCT200,0.00,VWS V14.01,2013-09-06 02:34:00,
2013-09-05 22:35:00,81.1,78.2,28.80,WNW,294,4.0,4.0,91,0.00,,CLR,0.00,VWS V14.01,2013-09-06 02:35:00,
2013-09-05 22:36:00,80.9,78.0,28.80,NNW,343,3.0,4.0,91,0.00,,CLR,0.00,VWS V14.01,2013-09-06 02:36:00,
2013-09-05 22:37:00,80.9,78.0,28.80,West,270,3.0,6.0,91,0.00,,CLR,0.00,VWS V14.01,2013-09-06 02:37:00,
2013-09-05 22:38:00,80.7,77.8,28.80,West,270,2.0,3.0,91,0.00,,CLR,0.00,VWS V14.01,2013-09-06 02:38:00,
2013-09-05 22:39:00,80.7,77.8,28.80,WNW,303,3.0,3.0,91,0.00,,SCT200,0.00,VWS V14.01,2013-09-06 02:39:00,
2013-09-05 22:40:00,80.7,77.8,28.80,WNW,303,3.0,3.0,91,0.00,,CLR,0.00,VWS V14.01,2013-09-06 02:40:00,
2013-09-05 22:41:00,80.5,77.6,28.80,West,278,0.0,4.0,91,0.00,,CLR,0.00,VWS V14.01,2013-09-06 02:41:00,
2013-09-05 22:42:00,80.5,77.6,28.80,West,281,2.0,3.0,91,0.00,,CLR,0.00,VWS V14.01,2013-09-06 02:42:00,
2013-09-05 22:43:00,80.5,77.6,28.80,West,281,0.0,2.0,91,0.00,,CLR,0.00,VWS V14.01,2013-09-06 02:43:00,
2013-09-05 22:44:00,80.5,77.6,28.80,WNW,284,1.0,2.0,91,0.00,,SCT200,0.00,VWS V14.01,2013-09-06 02:44:00,
2013-09-05 22:45:00,80.5,77.6,28.80,WNW,284,2.0,2.0,91,0.00,,CLR,0.00,VWS V14.01,2013-09-06 02:45:00,
2013-09-05 22:46:00,80.5,77.6,28.80,WNW,284,1.0,2.0,91,0.00,,CLR,0.00,VWS V14.01,2013-09-06 02:46:00,
2013-09-05 22:47:00,80.5,77.6,28.80,WNW,283,2.0,2.0,91,0.00,,CLR,0.00,VWS V14.01,2013-09-06 02:47:00,
2013-09-05 22:48:00,80.5,77.6,28.80,WNW,296,3.0,3.0,91,0.00,,CLR,0.00,VWS V14.01,2013-09-06 02:48:00,
2013-09-05 22:49:00,80.3,77.4,28.80,NW,321,2.0,2.0,91,0.00,,SCT200,0.00,VWS V14.01,2013-09-06 02:49:00,
2013-09-05 22:50:00,80.5,77.6,28.80,NW,321,0.0,4.0,91,0.00,,CLR,0.00,VWS V14.01,2013-09-06 02:50:00,
2013-09-05 22:51:00,80.3,77.4,28.80,NW,319,2.0,3.0,91,0.00,,CLR,0.00,VWS V14.01,2013-09-06 02:51:00,
2013-09-05 22:52:00,80.3,77.4,28.75,West,264,4.0,4.0,91,0.00,,CLR,0.00,VWS V14.01,2013-09-06 02:52:00,
2013-09-05 22:53:00,80.3,77.4,28.75,WSW,254,2.0,4.0,91,0.00,,CLR,0.00,VWS V14.01,2013-09-06 02:53:00,
2013-09-05 22:54:00,80.3,77.4,28.75,West,281,2.0,2.0,91,0.00,,SCT200,0.00,VWS V14.01,2013-09-06 02:54:00,
2013-09-05 22:55:00,80.3,77.4,28.75,West,272,2.0,2.0,91,0.00,,CLR,0.00,VWS V14.01,2013-09-06 02:55:00,
2013-09-05 22:56:00,80.3,77.4,28.75,WSW,242,1.0,4.0,91,0.00,,CLR,0.00,VWS V14.01,2013-09-06 02:56:00,
2013-09-05 22:57:00,80.3,77.4,28.75,WSW,254,2.0,2.0,91,0.00,,CLR,0.00,VWS V14.01,2013-09-06 02:57:00,
2013-09-05 22:58:00,80.3,77.4,28.53,NW,320,1.0,6.0,91,0.00,,CLR,0.00,VWS V14.01,2013-09-06 02:58:00,
2013-09-05 22:59:00,80.1,76.9,28.53,West,275,1.0,3.0,90,0.00,,SCT200,0.00,VWS V14.01,2013-09-06 02:59:00,
2013-09-05 23:00:00,80.1,76.9,28.53,West,275,1.0,3.0,90,0.00,,CLR,0.00,VWS V14.01,2013-09-06 03:00:00,
2013-09-05 23:01:00,80.1,77.2,28.53,NW,305,3.0,4.0,91,0.00,,CLR,0.00,VWS V14.01,2013-09-06 03:01:00,
2013-09-05 23:02:00,80.1,76.9,28.53,NW,305,5.0,5.0,90,0.00,,CLR,0.00,VWS V14.01,2013-09-06 03:02:00,
2013-09-05 23:03:00,80.1,76.9,28.53,NW,305,3.0,5.0,90,0.00,,CLR,0.00,VWS V14.01,2013-09-06 03:03:00,
2013-09-05 23:04:00,79.9,76.7,28.53,WNW,301,2.0,3.0,90,0.00,,SCT200,0.00,VWS V14.01,2013-09-06 03:04:00,
2013-09-05 23:05:00,79.9,76.7,28.53,WNW,301,2.0,3.0,90,0.00,,CLR,0.00,VWS V14.01,2013-09-06 03:05:00,
2013-09-05 23:06:00,79.9,76.7,28.53,WNW,301,1.0,3.0,90,0.00,,CLR,0.00,VWS V14.01,2013-09-06 03:06:00,
2013-09-05 23:07:00,79.9,76.7,28.53,West,262,2.0,4.0,90,0.00,,CLR,0.00,VWS V14.01,2013-09-06 03:07:00,
2013-09-05 23:08:00,79.9,76.7,28.53,West,262,1.0,2.0,90,0.00,,CLR,0.00,VWS V14.01,2013-09-06 03:08:00,
2013-09-05 23:09:00,79.9,76.7,28.53,West,260,1.0,2.0,90,0.00,,SCT200,0.00,VWS V14.01,2013-09-06 03:09:00,
2013-09-05 23:10:00,79.9,76.7,28.53,West,260,1.0,2.0,90,0.00,,CLR,0.00,VWS V14.01,2013-09-06 03:10:00,
2013-09-05 23:11:00,79.9,76.7,28.53,West,260,1.0,1.0,90,0.00,,CLR,0.00,VWS V14.01,2013-09-06 03:11:00,
2013-09-05 23:12:00,79.9,76.7,28.53,West,279,2.0,3.0,90,0.00,,CLR,0.00,VWS V14.01,2013-09-06 03:12:00,
2013-09-05 23:13:00,79.9,76.7,28.53,WNW,302,2.0,3.0,90,0.00,,CLR,0.00,VWS V14.01,2013-09-06 03:13:00,
2013-09-05 23:14:00,79.9,76.7,28.53,West,277,2.0,5.0,90,0.00,,SCT200,0.00,VWS V14.01,2013-09-06 03:14:00,
2013-09-05 23:15:00,79.9,76.7,28.53,West,277,2.0,5.0,90,0.00,,CLR,0.00,VWS V14.01,2013-09-06 03:15:00,
2013-09-05 23:16:00,79.9,76.7,28.53,West,274,5.0,5.0,90,0.00,,CLR,0.00,VWS V14.01,2013-09-06 03:16:00,
2013-09-05 23:17:00,79.9,76.7,28.04,WNW,291,3.0,5.0,90,0.00,,CLR,0.00,VWS V14.01,2013-09-06 03:17:00,
2013-09-05 23:18:00,79.9,76.7,28.04,NNW,345,1.0,4.0,90,0.00,,CLR,0.00,VWS V14.01,2013-09-06 03:18:00,
2013-09-05 23:19:00,79.9,76.7,28.04,NNW,345,3.0,3.0,90,0.00,,SCT200,0.00,VWS V14.01,2013-09-06 03:19:00,
2013-09-05 23:20:00,79.9,76.7,28.04,NNW,345,1.0,2.0,90,0.00,,CLR,0.00,VWS V14.01,2013-09-06 03:20:00,
2013-09-05 23:21:00,79.9,76.7,28.04,NNW,327,3.0,3.0,90,0.00,,CLR,0.00,VWS V14.01,2013-09-06 03:21:00,
2013-09-05 23:22:00,79.9,76.7,28.02,NNW,327,2.0,3.0,90,0.00,,CLR,0.00,VWS V14.01,2013-09-06 03:22:00,
2013-09-05 23:23:00,79.9,76.7,28.03,WNW,296,2.0,4.0,90,0.00,,CLR,0.00,VWS V14.01,2013-09-06 03:23:00,
2013-09-05 23:24:00,79.9,76.7,28.03,NW,305,2.0,3.0,90,0.00,,SCT200,0.00,VWS V14.01,2013-09-06 03:24:00,
2013-09-05 23:25:00,79.9,76.7,28.03,NW,304,3.0,4.0,90,0.00,,CLR,0.00,VWS V14.01,2013-09-06 03:25:00,
2013-09-05 23:26:00,79.9,76.7,28.03,WSW,254,5.0,5.0,90,0.00,,CLR,0.00,VWS V14.01,2013-09-06 03:26:00,
2013-09-05 23:27:00,79.9,76.7,28.03,NW,311,2.0,5.0,90,0.00,,CLR,0.00,VWS V14.01,2013-09-06 03:27:00,
2013-09-05 23:28:00,79.9,76.7,28.03,NW,313,3.0,3.0,90,0.00,,CLR,0.00,VWS V14.01,2013-09-06 03:28:00,
2013-09-05 23:29:00,79.8,76.6,28.49,NNW,335,2.0,5.0,90,0.00,,SCT200,0.00,VWS V14.01,2013-09-06 03:29:00,
2013-09-05 23:30:00,79.8,76.6,28.49,NNW,335,2.0,5.0,90,0.00,,CLR,0.00,VWS V14.01,2013-09-06 03:30:00,
2013-09-05 23:31:00,79.8,76.6,28.49,NNW,334,4.0,4.0,90,0.00,,CLR,0.00,VWS V14.01,2013-09-06 03:31:00,
2013-09-05 23:32:00,79.8,76.9,28.49,NNW,327,3.0,4.0,91,0.00,,CLR,0.00,VWS V14.01,2013-09-06 03:32:00,
2013-09-05 23:33:00,79.8,76.9,28.49,NNW,330,3.0,3.0,91,0.00,,CLR,0.00,VWS V14.01,2013-09-06 03:33:00,
2013-09-05 23:34:00,79.8,76.9,28.49,NW,326,1.0,4.0,91,0.00,,SCT200,0.00,VWS V14.01,2013-09-06 03:34:00,
2013-09-05 23:35:00,79.8,76.9,28.49,NW,326,1.0,4.0,91,0.00,,CLR,0.00,VWS V14.01,2013-09-06 03:35:00,
2013-09-05 23:36:00,79.8,76.9,28.49,NNW,328,3.0,4.0,91,0.00,,CLR,0.00,VWS V14.01,2013-09-06 03:36:00,
2013-09-05 23:37:00,79.8,76.9,28.49,NNW,329,3.0,5.0,91,0.00,,CLR,0.00,VWS V14.01,2013-09-06 03:37:00,
2013-09-05 23:38:00,79.8,76.9,28.91,NW,309,3.0,5.0,91,0.00,,CLR,0.00,VWS V14.01,2013-09-06 03:38:00,
2013-09-05 23:39:00,79.8,76.9,28.92,NW,311,5.0,5.0,91,0.00,,SCT200,0.00,VWS V14.01,2013-09-06 03:39:00,
2013-09-05 23:40:00,79.8,76.9,28.92,NW,311,5.0,5.0,91,0.00,,CLR,0.00,VWS V14.01,2013-09-06 03:40:00,
2013-09-05 23:41:00,79.8,76.9,28.92,NNW,331,3.0,5.0,91,0.00,,CLR,0.00,VWS V14.01,2013-09-06 03:41:00,
2013-09-05 23:42:00,79.8,76.9,28.92,NW,313,4.0,5.0,91,0.00,,CLR,0.00,VWS V14.01,2013-09-06 03:42:00,
2013-09-05 23:43:00,79.8,76.9,28.92,NW,313,4.0,4.0,91,0.00,,CLR,0.00,VWS V14.01,2013-09-06 03:43:00,
2013-09-05 23:44:00,79.8,76.9,28.92,WNW,303,2.0,6.0,91,0.00,,SCT200,0.00,VWS V14.01,2013-09-06 03:44:00,
2013-09-05 23:45:00,79.8,76.9,28.92,WNW,303,2.0,6.0,91,0.00,,CLR,0.00,VWS V14.01,2013-09-06 03:45:00,
2013-09-05 23:46:00,79.8,76.9,28.92,NW,307,5.0,5.0,91,0.00,,CLR,0.00,VWS V14.01,2013-09-06 03:46:00,
2013-09-05 23:47:00,79.8,76.9,28.92,NW,311,4.0,5.0,91,0.00,,CLR,0.00,VWS V14.01,2013-09-06 03:47:00,
2013-09-05 23:48:00,79.8,76.9,28.92,NW,315,4.0,4.0,91,0.00,,CLR,0.00,VWS V14.01,2013-09-06 03:48:00,
2013-09-05 23:49:00,79.6,77.1,28.92,NNW,333,5.0,5.0,92,0.00,,SCT200,0.00,VWS V14.01,2013-09-06 03:49:00,
2013-09-05 23:50:00,79.6,77.1,28.92,NNW,333,2.0,4.0,92,0.00,,CLR,0.00,VWS V14.01,2013-09-06 03:50:00,
2013-09-05 23:51:00,79.6,77.1,28.92,NNW,331,3.0,5.0,92,0.00,,FEW045,0.00,VWS V14.01,2013-09-06 03:51:00,
2013-09-05 23:52:00,79.6,77.1,28.92,NW,315,4.0,4.0,92,0.00,,CLR,0.00,VWS V14.01,2013-09-06 03:52:00,
2013-09-05 23:53:00,79.6,77.1,28.86,NW,315,3.0,4.0,92,0.00,,CLR,0.00,VWS V14.01,2013-09-06 03:53:00,
2013-09-05 23:54:00,79.6,77.1,28.89,NW,306,3.0,4.0,92,0.00,,SCT200,0.00,VWS V14.01,2013-09-06 03:54:00,
2013-09-05 23:55:00,79.6,77.1,28.89,NW,306,3.0,4.0,92,0.00,,CLR,0.00,VWS V14.01,2013-09-06 03:55:00,
2013-09-05 23:56:00,79.6,77.1,28.88,NW,323,3.0,4.0,92,0.00,,CLR,0.00,VWS V14.01,2013-09-06 03:56:00,
2013-09-05 23:57:00,79.6,77.1,28.87,NW,312,3.0,5.0,92,0.00,,CLR,0.00,VWS V14.01,2013-09-06 03:57:00,
2013-09-05 23:58:00,79.4,76.9,28.88,NNW,332,3.0,4.0,92,0.00,,FEW045,0.00,VWS V14.01,2013-09-06 03:58:00,
2013-09-05 23:59:00,79.4,76.9,28.88,NW,317,5.0,5.0,92,0.00,,SCT200,0.00,VWS V14.01,2013-09-06 03:59:00,